<?xml version="1.0" encoding="UTF-8" standalone="no" ?>
<gpx xmlns="http://www.topografix.com/GPX/1/1" xmlns:xsi="http://www.w3.org/2001/XMLSchema-instance" xsi:schemaLocation="http://www.topografix.com/GPX/1/1 http://www.topografix.com/GPX/1/1/gpx.xsd" version="1.1" creator="VisuGPX - https://www.visugpx.com">
  <metadata>
    <name>single roche du guet</name>
    <desc><![CDATA[montmélian/col de marocaz/la thuile/col du mont/rocher de mannetaz/roche du guet/montmélian]]></desc>
  </metadata>
  <trk>
    <name><![CDATA[single roche du gué]]></name>
    <trkseg>
      <trkpt lat="45.50126" lon="6.04603">
        <ele>290</ele>
        <time>2011-08-23T05:58:53.000Z</time>
      </trkpt>
      <trkpt lat="45.50125" lon="6.04617">
        <ele>290</ele>
        <time>2011-08-23T05:58:55.000Z</time>
      </trkpt>
      <trkpt lat="45.50123" lon="6.04628">
        <ele>290</ele>
        <time>2011-08-23T05:58:57.000Z</time>
      </trkpt>
      <trkpt lat="45.5012" lon="6.04645">
        <ele>290</ele>
        <time>2011-08-23T05:59:00.000Z</time>
      </trkpt>
      <trkpt lat="45.50119" lon="6.04705">
        <ele>290.60000610352</ele>
        <time>2011-08-23T05:59:08.000Z</time>
      </trkpt>
      <trkpt lat="45.50117" lon="6.04758">
        <ele>291.60000610352</ele>
        <time>2011-08-23T05:59:15.000Z</time>
      </trkpt>
      <trkpt lat="45.50117" lon="6.04765">
        <ele>291.79998779297</ele>
        <time>2011-08-23T05:59:16.000Z</time>
      </trkpt>
      <trkpt lat="45.50116" lon="6.04793">
        <ele>292.60000610352</ele>
        <time>2011-08-23T05:59:20.000Z</time>
      </trkpt>
      <trkpt lat="45.50114" lon="6.04868">
        <ele>293.79998779297</ele>
        <time>2011-08-23T05:59:30.000Z</time>
      </trkpt>
      <trkpt lat="45.50118" lon="6.0493">
        <ele>294</ele>
        <time>2011-08-23T05:59:38.000Z</time>
      </trkpt>
      <trkpt lat="45.50126" lon="6.04977">
        <ele>294.20001220703</ele>
        <time>2011-08-23T05:59:44.000Z</time>
      </trkpt>
      <trkpt lat="45.50124" lon="6.05006">
        <ele>294.60000610352</ele>
        <time>2011-08-23T05:59:48.000Z</time>
      </trkpt>
      <trkpt lat="45.50112" lon="6.05029">
        <ele>295.20001220703</ele>
        <time>2011-08-23T05:59:52.000Z</time>
      </trkpt>
      <trkpt lat="45.50114" lon="6.0505">
        <ele>295.60000610352</ele>
        <time>2011-08-23T05:59:55.000Z</time>
      </trkpt>
      <trkpt lat="45.50122" lon="6.0506">
        <ele>295.60000610352</ele>
        <time>2011-08-23T05:59:57.000Z</time>
      </trkpt>
      <trkpt lat="45.50157" lon="6.05114">
        <ele>295.20001220703</ele>
        <time>2011-08-23T06:00:06.000Z</time>
      </trkpt>
      <trkpt lat="45.50182" lon="6.05152">
        <ele>295</ele>
        <time>2011-08-23T06:00:13.000Z</time>
      </trkpt>
      <trkpt lat="45.50186" lon="6.05164">
        <ele>295.20001220703</ele>
        <time>2011-08-23T06:00:15.000Z</time>
      </trkpt>
      <trkpt lat="45.50207" lon="6.05188">
        <ele>296.60000610352</ele>
        <time>2011-08-23T06:00:20.000Z</time>
      </trkpt>
      <trkpt lat="45.50219" lon="6.05192">
        <ele>296.79998779297</ele>
        <time>2011-08-23T06:00:22.000Z</time>
      </trkpt>
      <trkpt lat="45.50255" lon="6.0522">
        <ele>297</ele>
        <time>2011-08-23T06:00:28.000Z</time>
      </trkpt>
      <trkpt lat="45.50284" lon="6.05258">
        <ele>297.39999389648</ele>
        <time>2011-08-23T06:00:33.000Z</time>
      </trkpt>
      <trkpt lat="45.50294" lon="6.05276">
        <ele>297.60000610352</ele>
        <time>2011-08-23T06:00:35.000Z</time>
      </trkpt>
      <trkpt lat="45.50301" lon="6.05318">
        <ele>298</ele>
        <time>2011-08-23T06:00:39.000Z</time>
      </trkpt>
      <trkpt lat="45.50309" lon="6.05348">
        <ele>297.39999389648</ele>
        <time>2011-08-23T06:00:42.000Z</time>
      </trkpt>
      <trkpt lat="45.50317" lon="6.05408">
        <ele>295.60000610352</ele>
        <time>2011-08-23T06:00:47.000Z</time>
      </trkpt>
      <trkpt lat="45.50324" lon="6.0554">
        <ele>292.20001220703</ele>
        <time>2011-08-23T06:00:57.000Z</time>
      </trkpt>
      <trkpt lat="45.5033" lon="6.05647">
        <ele>284.39999389648</ele>
        <time>2011-08-23T06:01:05.000Z</time>
      </trkpt>
      <trkpt lat="45.50337" lon="6.05773">
        <ele>280.60000610352</ele>
        <time>2011-08-23T06:01:15.000Z</time>
      </trkpt>
      <trkpt lat="45.50344" lon="6.05892">
        <ele>277.60000610352</ele>
        <time>2011-08-23T06:01:25.000Z</time>
      </trkpt>
      <trkpt lat="45.50356" lon="6.06004">
        <ele>275.79998779297</ele>
        <time>2011-08-23T06:01:35.000Z</time>
      </trkpt>
      <trkpt lat="45.50376" lon="6.06119">
        <ele>274.79998779297</ele>
        <time>2011-08-23T06:01:46.000Z</time>
      </trkpt>
      <trkpt lat="45.50379" lon="6.06139">
        <ele>274.60000610352</ele>
        <time>2011-08-23T06:01:48.000Z</time>
      </trkpt>
      <trkpt lat="45.50379" lon="6.0617">
        <ele>274.39999389648</ele>
        <time>2011-08-23T06:01:51.000Z</time>
      </trkpt>
      <trkpt lat="45.50386" lon="6.06206">
        <ele>274.60000610352</ele>
        <time>2011-08-23T06:01:55.000Z</time>
      </trkpt>
      <trkpt lat="45.50402" lon="6.06265">
        <ele>274.39999389648</ele>
        <time>2011-08-23T06:02:01.000Z</time>
      </trkpt>
      <trkpt lat="45.50423" lon="6.06365">
        <ele>275</ele>
        <time>2011-08-23T06:02:11.000Z</time>
      </trkpt>
      <trkpt lat="45.50429" lon="6.06393">
        <ele>275</ele>
        <time>2011-08-23T06:02:14.000Z</time>
      </trkpt>
      <trkpt lat="45.50427" lon="6.0643">
        <ele>275</ele>
        <time>2011-08-23T06:02:18.000Z</time>
      </trkpt>
      <trkpt lat="45.50432" lon="6.06456">
        <ele>274</ele>
        <time>2011-08-23T06:02:21.000Z</time>
      </trkpt>
      <trkpt lat="45.50448" lon="6.06476">
        <ele>272.79998779297</ele>
        <time>2011-08-23T06:02:24.000Z</time>
      </trkpt>
      <trkpt lat="45.50454" lon="6.06494">
        <ele>272.20001220703</ele>
        <time>2011-08-23T06:02:26.000Z</time>
      </trkpt>
      <trkpt lat="45.50487" lon="6.0661">
        <ele>269.39999389648</ele>
        <time>2011-08-23T06:02:38.000Z</time>
      </trkpt>
      <trkpt lat="45.50516" lon="6.06716">
        <ele>268.79998779297</ele>
        <time>2011-08-23T06:02:49.000Z</time>
      </trkpt>
      <trkpt lat="45.50535" lon="6.06783">
        <ele>268.39999389648</ele>
        <time>2011-08-23T06:02:56.000Z</time>
      </trkpt>
      <trkpt lat="45.50553" lon="6.06846">
        <ele>268.20001220703</ele>
        <time>2011-08-23T06:03:03.000Z</time>
      </trkpt>
      <trkpt lat="45.50579" lon="6.06943">
        <ele>269.20001220703</ele>
        <time>2011-08-23T06:03:14.000Z</time>
      </trkpt>
      <trkpt lat="45.50611" lon="6.07059">
        <ele>269</ele>
        <time>2011-08-23T06:03:27.000Z</time>
      </trkpt>
      <trkpt lat="45.50634" lon="6.07141">
        <ele>268.20001220703</ele>
        <time>2011-08-23T06:03:36.000Z</time>
      </trkpt>
      <trkpt lat="45.50657" lon="6.07221">
        <ele>268.20001220703</ele>
        <time>2011-08-23T06:03:45.000Z</time>
      </trkpt>
      <trkpt lat="45.50662" lon="6.07238">
        <ele>268.60000610352</ele>
        <time>2011-08-23T06:03:47.000Z</time>
      </trkpt>
      <trkpt lat="45.5068" lon="6.07257">
        <ele>268.79998779297</ele>
        <time>2011-08-23T06:03:51.000Z</time>
      </trkpt>
      <trkpt lat="45.507" lon="6.07247">
        <ele>268.79998779297</ele>
        <time>2011-08-23T06:03:54.000Z</time>
      </trkpt>
      <trkpt lat="45.50731" lon="6.07221">
        <ele>268.39999389648</ele>
        <time>2011-08-23T06:04:00.000Z</time>
      </trkpt>
      <trkpt lat="45.50774" lon="6.07187">
        <ele>269.79998779297</ele>
        <time>2011-08-23T06:04:08.000Z</time>
      </trkpt>
      <trkpt lat="45.50813" lon="6.07161">
        <ele>273.39999389648</ele>
        <time>2011-08-23T06:04:15.000Z</time>
      </trkpt>
      <trkpt lat="45.50861" lon="6.07145">
        <ele>279</ele>
        <time>2011-08-23T06:04:23.000Z</time>
      </trkpt>
      <trkpt lat="45.50894" lon="6.07156">
        <ele>282</ele>
        <time>2011-08-23T06:04:29.000Z</time>
      </trkpt>
      <trkpt lat="45.50906" lon="6.07163">
        <ele>283</ele>
        <time>2011-08-23T06:04:32.000Z</time>
      </trkpt>
      <trkpt lat="45.50925" lon="6.07189">
        <ele>283.39999389648</ele>
        <time>2011-08-23T06:04:37.000Z</time>
      </trkpt>
      <trkpt lat="45.50933" lon="6.07204">
        <ele>283.20001220703</ele>
        <time>2011-08-23T06:04:40.000Z</time>
      </trkpt>
      <trkpt lat="45.50937" lon="6.07213">
        <ele>283.20001220703</ele>
        <time>2011-08-23T06:04:42.000Z</time>
      </trkpt>
      <trkpt lat="45.50946" lon="6.07229">
        <ele>283.39999389648</ele>
        <time>2011-08-23T06:04:45.000Z</time>
      </trkpt>
      <trkpt lat="45.5095" lon="6.07238">
        <ele>283.39999389648</ele>
        <time>2011-08-23T06:04:47.000Z</time>
      </trkpt>
      <trkpt lat="45.50982" lon="6.07247">
        <ele>286.20001220703</ele>
        <time>2011-08-23T06:04:52.000Z</time>
      </trkpt>
      <trkpt lat="45.51019" lon="6.07237">
        <ele>289.20001220703</ele>
        <time>2011-08-23T06:04:58.000Z</time>
      </trkpt>
      <trkpt lat="45.51023" lon="6.07235">
        <ele>289.39999389648</ele>
        <time>2011-08-23T06:04:59.000Z</time>
      </trkpt>
      <trkpt lat="45.51047" lon="6.07216">
        <ele>291.20001220703</ele>
        <time>2011-08-23T06:05:07.000Z</time>
      </trkpt>
      <trkpt lat="45.51057" lon="6.072">
        <ele>292.20001220703</ele>
        <time>2011-08-23T06:05:11.000Z</time>
      </trkpt>
      <trkpt lat="45.51058" lon="6.07178">
        <ele>292.60000610352</ele>
        <time>2011-08-23T06:05:15.000Z</time>
      </trkpt>
      <trkpt lat="45.51051" lon="6.07142">
        <ele>293</ele>
        <time>2011-08-23T06:05:22.000Z</time>
      </trkpt>
      <trkpt lat="45.51047" lon="6.07128">
        <ele>293.20001220703</ele>
        <time>2011-08-23T06:05:27.000Z</time>
      </trkpt>
      <trkpt lat="45.51054" lon="6.07148">
        <ele>293</ele>
        <time>2011-08-23T06:05:32.000Z</time>
      </trkpt>
      <trkpt lat="45.51063" lon="6.07186">
        <ele>292.79998779297</ele>
        <time>2011-08-23T06:05:39.000Z</time>
      </trkpt>
      <trkpt lat="45.51078" lon="6.0725">
        <ele>292.60000610352</ele>
        <time>2011-08-23T06:05:50.000Z</time>
      </trkpt>
      <trkpt lat="45.51093" lon="6.07308">
        <ele>292.20001220703</ele>
        <time>2011-08-23T06:05:59.000Z</time>
      </trkpt>
      <trkpt lat="45.51095" lon="6.07322">
        <ele>292</ele>
        <time>2011-08-23T06:06:01.000Z</time>
      </trkpt>
      <trkpt lat="45.51105" lon="6.0735">
        <ele>290.79998779297</ele>
        <time>2011-08-23T06:06:05.000Z</time>
      </trkpt>
      <trkpt lat="45.51134" lon="6.07419">
        <ele>288.39999389648</ele>
        <time>2011-08-23T06:06:15.000Z</time>
      </trkpt>
      <trkpt lat="45.51166" lon="6.07479">
        <ele>286.60000610352</ele>
        <time>2011-08-23T06:06:24.000Z</time>
      </trkpt>
      <trkpt lat="45.51205" lon="6.07541">
        <ele>285.39999389648</ele>
        <time>2011-08-23T06:06:33.000Z</time>
      </trkpt>
      <trkpt lat="45.51237" lon="6.07601">
        <ele>286.20001220703</ele>
        <time>2011-08-23T06:06:41.000Z</time>
      </trkpt>
      <trkpt lat="45.5124" lon="6.07609">
        <ele>286</ele>
        <time>2011-08-23T06:06:42.000Z</time>
      </trkpt>
      <trkpt lat="45.51256" lon="6.07649">
        <ele>284.20001220703</ele>
        <time>2011-08-23T06:06:47.000Z</time>
      </trkpt>
      <trkpt lat="45.51263" lon="6.07663">
        <ele>283.79998779297</ele>
        <time>2011-08-23T06:06:49.000Z</time>
      </trkpt>
      <trkpt lat="45.51287" lon="6.07742">
        <ele>282</ele>
        <time>2011-08-23T06:06:58.000Z</time>
      </trkpt>
      <trkpt lat="45.51314" lon="6.07854">
        <ele>283.60000610352</ele>
        <time>2011-08-23T06:07:10.000Z</time>
      </trkpt>
      <trkpt lat="45.51337" lon="6.07943">
        <ele>283.60000610352</ele>
        <time>2011-08-23T06:07:19.000Z</time>
      </trkpt>
      <trkpt lat="45.51363" lon="6.07992">
        <ele>279.39999389648</ele>
        <time>2011-08-23T06:07:24.000Z</time>
      </trkpt>
      <trkpt lat="45.51405" lon="6.08054">
        <ele>277</ele>
        <time>2011-08-23T06:07:30.000Z</time>
      </trkpt>
      <trkpt lat="45.51447" lon="6.08114">
        <ele>276.60000610352</ele>
        <time>2011-08-23T06:07:36.000Z</time>
      </trkpt>
      <trkpt lat="45.51472" lon="6.08149">
        <ele>279</ele>
        <time>2011-08-23T06:07:41.000Z</time>
      </trkpt>
      <trkpt lat="45.51498" lon="6.08182">
        <ele>282.79998779297</ele>
        <time>2011-08-23T06:07:48.000Z</time>
      </trkpt>
      <trkpt lat="45.51527" lon="6.08223">
        <ele>286.79998779297</ele>
        <time>2011-08-23T06:07:58.000Z</time>
      </trkpt>
      <trkpt lat="45.51555" lon="6.08262">
        <ele>291.60000610352</ele>
        <time>2011-08-23T06:08:08.000Z</time>
      </trkpt>
      <trkpt lat="45.51584" lon="6.08299">
        <ele>296.60000610352</ele>
        <time>2011-08-23T06:08:18.000Z</time>
      </trkpt>
      <trkpt lat="45.51616" lon="6.08337">
        <ele>300.20001220703</ele>
        <time>2011-08-23T06:08:29.000Z</time>
      </trkpt>
      <trkpt lat="45.51645" lon="6.08376">
        <ele>301.79998779297</ele>
        <time>2011-08-23T06:08:40.000Z</time>
      </trkpt>
      <trkpt lat="45.51676" lon="6.08415">
        <ele>303.20001220703</ele>
        <time>2011-08-23T06:08:51.000Z</time>
      </trkpt>
      <trkpt lat="45.51708" lon="6.08457">
        <ele>304.60000610352</ele>
        <time>2011-08-23T06:09:02.000Z</time>
      </trkpt>
      <trkpt lat="45.51741" lon="6.08494">
        <ele>306.39999389648</ele>
        <time>2011-08-23T06:09:12.000Z</time>
      </trkpt>
      <trkpt lat="45.51776" lon="6.08529">
        <ele>305</ele>
        <time>2011-08-23T06:09:21.000Z</time>
      </trkpt>
      <trkpt lat="45.51806" lon="6.08559">
        <ele>305.39999389648</ele>
        <time>2011-08-23T06:09:28.000Z</time>
      </trkpt>
      <trkpt lat="45.51834" lon="6.08595">
        <ele>306.79998779297</ele>
        <time>2011-08-23T06:09:35.000Z</time>
      </trkpt>
      <trkpt lat="45.5184" lon="6.08607">
        <ele>305.79998779297</ele>
        <time>2011-08-23T06:09:37.000Z</time>
      </trkpt>
      <trkpt lat="45.51856" lon="6.08657">
        <ele>302.79998779297</ele>
        <time>2011-08-23T06:09:45.000Z</time>
      </trkpt>
      <trkpt lat="45.51869" lon="6.087">
        <ele>302.60000610352</ele>
        <time>2011-08-23T06:09:52.000Z</time>
      </trkpt>
      <trkpt lat="45.51886" lon="6.0873">
        <ele>304.79998779297</ele>
        <time>2011-08-23T06:09:58.000Z</time>
      </trkpt>
      <trkpt lat="45.51927" lon="6.0878">
        <ele>310.79998779297</ele>
        <time>2011-08-23T06:10:09.000Z</time>
      </trkpt>
      <trkpt lat="45.51959" lon="6.08812">
        <ele>312.60000610352</ele>
        <time>2011-08-23T06:10:17.000Z</time>
      </trkpt>
      <trkpt lat="45.52005" lon="6.08842">
        <ele>316.20001220703</ele>
        <time>2011-08-23T06:10:27.000Z</time>
      </trkpt>
      <trkpt lat="45.52057" lon="6.0888">
        <ele>319.20001220703</ele>
        <time>2011-08-23T06:10:38.000Z</time>
      </trkpt>
      <trkpt lat="45.52075" lon="6.08895">
        <ele>320.39999389648</ele>
        <time>2011-08-23T06:10:42.000Z</time>
      </trkpt>
      <trkpt lat="45.52097" lon="6.08924">
        <ele>321.79998779297</ele>
        <time>2011-08-23T06:10:48.000Z</time>
      </trkpt>
      <trkpt lat="45.52101" lon="6.08928">
        <ele>322.20001220703</ele>
        <time>2011-08-23T06:10:49.000Z</time>
      </trkpt>
      <trkpt lat="45.52127" lon="6.08957">
        <ele>323.60000610352</ele>
        <time>2011-08-23T06:10:57.000Z</time>
      </trkpt>
      <trkpt lat="45.52155" lon="6.08991">
        <ele>325.79998779297</ele>
        <time>2011-08-23T06:11:08.000Z</time>
      </trkpt>
      <trkpt lat="45.52173" lon="6.09012">
        <ele>327.20001220703</ele>
        <time>2011-08-23T06:11:15.000Z</time>
      </trkpt>
      <trkpt lat="45.52204" lon="6.09045">
        <ele>330</ele>
        <time>2011-08-23T06:11:26.000Z</time>
      </trkpt>
      <trkpt lat="45.52231" lon="6.09073">
        <ele>333.20001220703</ele>
        <time>2011-08-23T06:11:35.000Z</time>
      </trkpt>
      <trkpt lat="45.5226" lon="6.091">
        <ele>335.39999389648</ele>
        <time>2011-08-23T06:11:44.000Z</time>
      </trkpt>
      <trkpt lat="45.52291" lon="6.09113">
        <ele>336</ele>
        <time>2011-08-23T06:11:52.000Z</time>
      </trkpt>
      <trkpt lat="45.52303" lon="6.09116">
        <ele>336.39999389648</ele>
        <time>2011-08-23T06:11:55.000Z</time>
      </trkpt>
      <trkpt lat="45.52337" lon="6.09136">
        <ele>337.39999389648</ele>
        <time>2011-08-23T06:12:03.000Z</time>
      </trkpt>
      <trkpt lat="45.52352" lon="6.09146">
        <ele>338.39999389648</ele>
        <time>2011-08-23T06:12:07.000Z</time>
      </trkpt>
      <trkpt lat="45.52384" lon="6.09176">
        <ele>340.39999389648</ele>
        <time>2011-08-23T06:12:16.000Z</time>
      </trkpt>
      <trkpt lat="45.52423" lon="6.09212">
        <ele>342.60000610352</ele>
        <time>2011-08-23T06:12:26.000Z</time>
      </trkpt>
      <trkpt lat="45.52453" lon="6.09244">
        <ele>343.79998779297</ele>
        <time>2011-08-23T06:12:34.000Z</time>
      </trkpt>
      <trkpt lat="45.52474" lon="6.09272">
        <ele>344.20001220703</ele>
        <time>2011-08-23T06:12:40.000Z</time>
      </trkpt>
      <trkpt lat="45.52496" lon="6.09285">
        <ele>345</ele>
        <time>2011-08-23T06:12:45.000Z</time>
      </trkpt>
      <trkpt lat="45.52511" lon="6.09283">
        <ele>345.39999389648</ele>
        <time>2011-08-23T06:12:48.000Z</time>
      </trkpt>
      <trkpt lat="45.5252" lon="6.0928">
        <ele>345.79998779297</ele>
        <time>2011-08-23T06:12:50.000Z</time>
      </trkpt>
      <trkpt lat="45.52532" lon="6.0926">
        <ele>347</ele>
        <time>2011-08-23T06:12:54.000Z</time>
      </trkpt>
      <trkpt lat="45.52537" lon="6.09242">
        <ele>347.79998779297</ele>
        <time>2011-08-23T06:12:57.000Z</time>
      </trkpt>
      <trkpt lat="45.52567" lon="6.09183">
        <ele>350.60000610352</ele>
        <time>2011-08-23T06:13:09.000Z</time>
      </trkpt>
      <trkpt lat="45.52575" lon="6.09169">
        <ele>351.39999389648</ele>
        <time>2011-08-23T06:13:12.000Z</time>
      </trkpt>
      <trkpt lat="45.52603" lon="6.09146">
        <ele>352.39999389648</ele>
        <time>2011-08-23T06:13:20.000Z</time>
      </trkpt>
      <trkpt lat="45.52627" lon="6.09139">
        <ele>353.79998779297</ele>
        <time>2011-08-23T06:13:26.000Z</time>
      </trkpt>
      <trkpt lat="45.5265" lon="6.0914">
        <ele>355.39999389648</ele>
        <time>2011-08-23T06:13:32.000Z</time>
      </trkpt>
      <trkpt lat="45.52693" lon="6.09138">
        <ele>358.20001220703</ele>
        <time>2011-08-23T06:13:43.000Z</time>
      </trkpt>
      <trkpt lat="45.52709" lon="6.09136">
        <ele>359.20001220703</ele>
        <time>2011-08-23T06:13:48.000Z</time>
      </trkpt>
      <trkpt lat="45.52732" lon="6.09129">
        <ele>361</ele>
        <time>2011-08-23T06:13:54.000Z</time>
      </trkpt>
      <trkpt lat="45.52745" lon="6.09119">
        <ele>362.39999389648</ele>
        <time>2011-08-23T06:13:59.000Z</time>
      </trkpt>
      <trkpt lat="45.52761" lon="6.09103">
        <ele>363.79998779297</ele>
        <time>2011-08-23T06:14:06.000Z</time>
      </trkpt>
      <trkpt lat="45.52772" lon="6.09088">
        <ele>365</ele>
        <time>2011-08-23T06:14:11.000Z</time>
      </trkpt>
      <trkpt lat="45.52781" lon="6.09069">
        <ele>366.39999389648</ele>
        <time>2011-08-23T06:14:16.000Z</time>
      </trkpt>
      <trkpt lat="45.52794" lon="6.09049">
        <ele>368.20001220703</ele>
        <time>2011-08-23T06:14:22.000Z</time>
      </trkpt>
      <trkpt lat="45.52803" lon="6.0903">
        <ele>370</ele>
        <time>2011-08-23T06:14:27.000Z</time>
      </trkpt>
      <trkpt lat="45.52812" lon="6.09013">
        <ele>371.79998779297</ele>
        <time>2011-08-23T06:14:32.000Z</time>
      </trkpt>
      <trkpt lat="45.52828" lon="6.08999">
        <ele>374.39999389648</ele>
        <time>2011-08-23T06:14:39.000Z</time>
      </trkpt>
      <trkpt lat="45.52843" lon="6.0899">
        <ele>375.20001220703</ele>
        <time>2011-08-23T06:14:45.000Z</time>
      </trkpt>
      <trkpt lat="45.52865" lon="6.08969">
        <ele>376.79998779297</ele>
        <time>2011-08-23T06:14:55.000Z</time>
      </trkpt>
      <trkpt lat="45.52876" lon="6.08955">
        <ele>378.20001220703</ele>
        <time>2011-08-23T06:15:02.000Z</time>
      </trkpt>
      <trkpt lat="45.52888" lon="6.08936">
        <ele>380.39999389648</ele>
        <time>2011-08-23T06:15:10.000Z</time>
      </trkpt>
      <trkpt lat="45.52907" lon="6.08916">
        <ele>384.20001220703</ele>
        <time>2011-08-23T06:15:21.000Z</time>
      </trkpt>
      <trkpt lat="45.5292" lon="6.08898">
        <ele>390.20001220703</ele>
        <time>2011-08-23T06:15:29.000Z</time>
      </trkpt>
      <trkpt lat="45.52932" lon="6.08888">
        <ele>393.39999389648</ele>
        <time>2011-08-23T06:15:35.000Z</time>
      </trkpt>
      <trkpt lat="45.52947" lon="6.08877">
        <ele>397</ele>
        <time>2011-08-23T06:15:42.000Z</time>
      </trkpt>
      <trkpt lat="45.52965" lon="6.08869">
        <ele>399.20001220703</ele>
        <time>2011-08-23T06:15:48.000Z</time>
      </trkpt>
      <trkpt lat="45.5298" lon="6.08862">
        <ele>401.20001220703</ele>
        <time>2011-08-23T06:15:53.000Z</time>
      </trkpt>
      <trkpt lat="45.53005" lon="6.08848">
        <ele>405</ele>
        <time>2011-08-23T06:16:01.000Z</time>
      </trkpt>
      <trkpt lat="45.53036" lon="6.08835">
        <ele>412.20001220703</ele>
        <time>2011-08-23T06:16:11.000Z</time>
      </trkpt>
      <trkpt lat="45.53045" lon="6.0885">
        <ele>411</ele>
        <time>2011-08-23T06:16:16.000Z</time>
      </trkpt>
      <trkpt lat="45.53042" lon="6.08877">
        <ele>406</ele>
        <time>2011-08-23T06:16:22.000Z</time>
      </trkpt>
      <trkpt lat="45.53036" lon="6.089">
        <ele>401</ele>
        <time>2011-08-23T06:16:27.000Z</time>
      </trkpt>
      <trkpt lat="45.53041" lon="6.08913">
        <ele>400</ele>
        <time>2011-08-23T06:16:30.000Z</time>
      </trkpt>
      <trkpt lat="45.53056" lon="6.08935">
        <ele>400</ele>
        <time>2011-08-23T06:16:36.000Z</time>
      </trkpt>
      <trkpt lat="45.53066" lon="6.08948">
        <ele>400</ele>
        <time>2011-08-23T06:16:39.000Z</time>
      </trkpt>
      <trkpt lat="45.53095" lon="6.08957">
        <ele>403.60000610352</ele>
        <time>2011-08-23T06:16:45.000Z</time>
      </trkpt>
      <trkpt lat="45.53123" lon="6.08959">
        <ele>408.39999389648</ele>
        <time>2011-08-23T06:16:52.000Z</time>
      </trkpt>
      <trkpt lat="45.53146" lon="6.08968">
        <ele>410.39999389648</ele>
        <time>2011-08-23T06:17:00.000Z</time>
      </trkpt>
      <trkpt lat="45.53175" lon="6.08983">
        <ele>412</ele>
        <time>2011-08-23T06:17:11.000Z</time>
      </trkpt>
      <trkpt lat="45.53209" lon="6.09">
        <ele>414.60000610352</ele>
        <time>2011-08-23T06:17:24.000Z</time>
      </trkpt>
      <trkpt lat="45.53237" lon="6.09014">
        <ele>418.39999389648</ele>
        <time>2011-08-23T06:17:35.000Z</time>
      </trkpt>
      <trkpt lat="45.53261" lon="6.09031">
        <ele>421.79998779297</ele>
        <time>2011-08-23T06:17:45.000Z</time>
      </trkpt>
      <trkpt lat="45.53281" lon="6.09047">
        <ele>424</ele>
        <time>2011-08-23T06:17:54.000Z</time>
      </trkpt>
      <trkpt lat="45.53298" lon="6.09061">
        <ele>425.60000610352</ele>
        <time>2011-08-23T06:18:02.000Z</time>
      </trkpt>
      <trkpt lat="45.53316" lon="6.09076">
        <ele>426.20001220703</ele>
        <time>2011-08-23T06:18:10.000Z</time>
      </trkpt>
      <trkpt lat="45.53337" lon="6.09093">
        <ele>427.60000610352</ele>
        <time>2011-08-23T06:18:19.000Z</time>
      </trkpt>
      <trkpt lat="45.53363" lon="6.09114">
        <ele>430.79998779297</ele>
        <time>2011-08-23T06:18:30.000Z</time>
      </trkpt>
      <trkpt lat="45.53389" lon="6.09137">
        <ele>433</ele>
        <time>2011-08-23T06:18:42.000Z</time>
      </trkpt>
      <trkpt lat="45.53405" lon="6.09156">
        <ele>433.39999389648</ele>
        <time>2011-08-23T06:18:50.000Z</time>
      </trkpt>
      <trkpt lat="45.53424" lon="6.09189">
        <ele>435.60000610352</ele>
        <time>2011-08-23T06:19:01.000Z</time>
      </trkpt>
      <trkpt lat="45.53437" lon="6.09205">
        <ele>438.79998779297</ele>
        <time>2011-08-23T06:19:08.000Z</time>
      </trkpt>
      <trkpt lat="45.53451" lon="6.09217">
        <ele>442.20001220703</ele>
        <time>2011-08-23T06:19:14.000Z</time>
      </trkpt>
      <trkpt lat="45.53452" lon="6.09236">
        <ele>442.20001220703</ele>
        <time>2011-08-23T06:19:19.000Z</time>
      </trkpt>
      <trkpt lat="45.53451" lon="6.09273">
        <ele>440.20001220703</ele>
        <time>2011-08-23T06:19:28.000Z</time>
      </trkpt>
      <trkpt lat="45.5346" lon="6.09298">
        <ele>440.60000610352</ele>
        <time>2011-08-23T06:19:35.000Z</time>
      </trkpt>
      <trkpt lat="45.53482" lon="6.09328">
        <ele>444.39999389648</ele>
        <time>2011-08-23T06:19:46.000Z</time>
      </trkpt>
      <trkpt lat="45.53498" lon="6.09362">
        <ele>447.39999389648</ele>
        <time>2011-08-23T06:19:57.000Z</time>
      </trkpt>
      <trkpt lat="45.53513" lon="6.09396">
        <ele>450.79998779297</ele>
        <time>2011-08-23T06:20:08.000Z</time>
      </trkpt>
      <trkpt lat="45.53521" lon="6.09431">
        <ele>452.60000610352</ele>
        <time>2011-08-23T06:20:19.000Z</time>
      </trkpt>
      <trkpt lat="45.53524" lon="6.09473">
        <ele>454</ele>
        <time>2011-08-23T06:20:31.000Z</time>
      </trkpt>
      <trkpt lat="45.53525" lon="6.09515">
        <ele>456</ele>
        <time>2011-08-23T06:20:43.000Z</time>
      </trkpt>
      <trkpt lat="45.53526" lon="6.09558">
        <ele>459.79998779297</ele>
        <time>2011-08-23T06:20:55.000Z</time>
      </trkpt>
      <trkpt lat="45.53526" lon="6.09588">
        <ele>461.79998779297</ele>
        <time>2011-08-23T06:21:04.000Z</time>
      </trkpt>
      <trkpt lat="45.53527" lon="6.09627">
        <ele>463.39999389648</ele>
        <time>2011-08-23T06:21:15.000Z</time>
      </trkpt>
      <trkpt lat="45.53534" lon="6.09647">
        <ele>466</ele>
        <time>2011-08-23T06:21:21.000Z</time>
      </trkpt>
      <trkpt lat="45.53544" lon="6.09662">
        <ele>469.39999389648</ele>
        <time>2011-08-23T06:21:27.000Z</time>
      </trkpt>
      <trkpt lat="45.53556" lon="6.09671">
        <ele>472.79998779297</ele>
        <time>2011-08-23T06:21:32.000Z</time>
      </trkpt>
      <trkpt lat="45.53568" lon="6.09668">
        <ele>476.39999389648</ele>
        <time>2011-08-23T06:21:36.000Z</time>
      </trkpt>
      <trkpt lat="45.53576" lon="6.09654">
        <ele>478.60000610352</ele>
        <time>2011-08-23T06:21:41.000Z</time>
      </trkpt>
      <trkpt lat="45.53584" lon="6.09637">
        <ele>480.39999389648</ele>
        <time>2011-08-23T06:21:47.000Z</time>
      </trkpt>
      <trkpt lat="45.53595" lon="6.09616">
        <ele>484</ele>
        <time>2011-08-23T06:21:54.000Z</time>
      </trkpt>
      <trkpt lat="45.53606" lon="6.0959">
        <ele>488</ele>
        <time>2011-08-23T06:22:01.000Z</time>
      </trkpt>
      <trkpt lat="45.5362" lon="6.0956">
        <ele>493</ele>
        <time>2011-08-23T06:22:10.000Z</time>
      </trkpt>
      <trkpt lat="45.5363" lon="6.0953">
        <ele>496</ele>
        <time>2011-08-23T06:22:19.000Z</time>
      </trkpt>
      <trkpt lat="45.53633" lon="6.09492">
        <ele>496.20001220703</ele>
        <time>2011-08-23T06:22:29.000Z</time>
      </trkpt>
      <trkpt lat="45.53639" lon="6.09453">
        <ele>497.39999389648</ele>
        <time>2011-08-23T06:22:40.000Z</time>
      </trkpt>
      <trkpt lat="45.53647" lon="6.09414">
        <ele>499.39999389648</ele>
        <time>2011-08-23T06:22:51.000Z</time>
      </trkpt>
      <trkpt lat="45.53651" lon="6.09389">
        <ele>501.20001220703</ele>
        <time>2011-08-23T06:22:58.000Z</time>
      </trkpt>
      <trkpt lat="45.5366" lon="6.0935">
        <ele>504.39999389648</ele>
        <time>2011-08-23T06:23:09.000Z</time>
      </trkpt>
      <trkpt lat="45.53663" lon="6.09315">
        <ele>504</ele>
        <time>2011-08-23T06:23:18.000Z</time>
      </trkpt>
      <trkpt lat="45.53663" lon="6.09276">
        <ele>500.79998779297</ele>
        <time>2011-08-23T06:23:28.000Z</time>
      </trkpt>
      <trkpt lat="45.53671" lon="6.09263">
        <ele>502.39999389648</ele>
        <time>2011-08-23T06:23:33.000Z</time>
      </trkpt>
      <trkpt lat="45.53683" lon="6.09255">
        <ele>505.79998779297</ele>
        <time>2011-08-23T06:23:39.000Z</time>
      </trkpt>
      <trkpt lat="45.53695" lon="6.09252">
        <ele>509.20001220703</ele>
        <time>2011-08-23T06:23:44.000Z</time>
      </trkpt>
      <trkpt lat="45.5371" lon="6.09245">
        <ele>514.40002441406</ele>
        <time>2011-08-23T06:23:50.000Z</time>
      </trkpt>
      <trkpt lat="45.53725" lon="6.09236">
        <ele>519.79998779297</ele>
        <time>2011-08-23T06:23:56.000Z</time>
      </trkpt>
      <trkpt lat="45.53739" lon="6.09222">
        <ele>525</ele>
        <time>2011-08-23T06:24:03.000Z</time>
      </trkpt>
      <trkpt lat="45.53746" lon="6.09208">
        <ele>528.20001220703</ele>
        <time>2011-08-23T06:24:08.000Z</time>
      </trkpt>
      <trkpt lat="45.53742" lon="6.09193">
        <ele>527.79998779297</ele>
        <time>2011-08-23T06:24:12.000Z</time>
      </trkpt>
      <trkpt lat="45.53727" lon="6.09177">
        <ele>524.20001220703</ele>
        <time>2011-08-23T06:24:19.000Z</time>
      </trkpt>
      <trkpt lat="45.53714" lon="6.09154">
        <ele>523.79998779297</ele>
        <time>2011-08-23T06:24:27.000Z</time>
      </trkpt>
      <trkpt lat="45.537" lon="6.09127">
        <ele>525.59997558594</ele>
        <time>2011-08-23T06:24:36.000Z</time>
      </trkpt>
      <trkpt lat="45.53688" lon="6.09104">
        <ele>526.79998779297</ele>
        <time>2011-08-23T06:24:44.000Z</time>
      </trkpt>
      <trkpt lat="45.53678" lon="6.09078">
        <ele>529.59997558594</ele>
        <time>2011-08-23T06:24:53.000Z</time>
      </trkpt>
      <trkpt lat="45.53663" lon="6.09055">
        <ele>532.40002441406</ele>
        <time>2011-08-23T06:25:02.000Z</time>
      </trkpt>
      <trkpt lat="45.53645" lon="6.0903">
        <ele>535.79998779297</ele>
        <time>2011-08-23T06:25:12.000Z</time>
      </trkpt>
      <trkpt lat="45.53626" lon="6.09012">
        <ele>536.59997558594</ele>
        <time>2011-08-23T06:25:21.000Z</time>
      </trkpt>
      <trkpt lat="45.53606" lon="6.08994">
        <ele>536.59997558594</ele>
        <time>2011-08-23T06:25:30.000Z</time>
      </trkpt>
      <trkpt lat="45.53594" lon="6.0897">
        <ele>538.59997558594</ele>
        <time>2011-08-23T06:25:38.000Z</time>
      </trkpt>
      <trkpt lat="45.53587" lon="6.08943">
        <ele>541.79998779297</ele>
        <time>2011-08-23T06:25:46.000Z</time>
      </trkpt>
      <trkpt lat="45.5358" lon="6.08911">
        <ele>546</ele>
        <time>2011-08-23T06:25:55.000Z</time>
      </trkpt>
      <trkpt lat="45.53573" lon="6.08886">
        <ele>549.40002441406</ele>
        <time>2011-08-23T06:26:03.000Z</time>
      </trkpt>
      <trkpt lat="45.53564" lon="6.0887">
        <ele>550.20001220703</ele>
        <time>2011-08-23T06:26:10.000Z</time>
      </trkpt>
      <trkpt lat="45.53555" lon="6.08851">
        <ele>551.40002441406</ele>
        <time>2011-08-23T06:26:17.000Z</time>
      </trkpt>
      <trkpt lat="45.53564" lon="6.08843">
        <ele>556</ele>
        <time>2011-08-23T06:26:23.000Z</time>
      </trkpt>
      <trkpt lat="45.53575" lon="6.08857">
        <ele>556.20001220703</ele>
        <time>2011-08-23T06:26:28.000Z</time>
      </trkpt>
      <trkpt lat="45.5359" lon="6.08883">
        <ele>555.59997558594</ele>
        <time>2011-08-23T06:26:36.000Z</time>
      </trkpt>
      <trkpt lat="45.53603" lon="6.08909">
        <ele>555.40002441406</ele>
        <time>2011-08-23T06:26:44.000Z</time>
      </trkpt>
      <trkpt lat="45.53618" lon="6.08934">
        <ele>555.59997558594</ele>
        <time>2011-08-23T06:26:52.000Z</time>
      </trkpt>
      <trkpt lat="45.5363" lon="6.08948">
        <ele>556.40002441406</ele>
        <time>2011-08-23T06:26:58.000Z</time>
      </trkpt>
      <trkpt lat="45.53648" lon="6.0896">
        <ele>559</ele>
        <time>2011-08-23T06:27:05.000Z</time>
      </trkpt>
      <trkpt lat="45.53663" lon="6.08964">
        <ele>562.79998779297</ele>
        <time>2011-08-23T06:27:11.000Z</time>
      </trkpt>
      <trkpt lat="45.53679" lon="6.08972">
        <ele>564.79998779297</ele>
        <time>2011-08-23T06:27:18.000Z</time>
      </trkpt>
      <trkpt lat="45.53695" lon="6.08978">
        <ele>567.40002441406</ele>
        <time>2011-08-23T06:27:25.000Z</time>
      </trkpt>
      <trkpt lat="45.53709" lon="6.08981">
        <ele>570.40002441406</ele>
        <time>2011-08-23T06:27:31.000Z</time>
      </trkpt>
      <trkpt lat="45.5372" lon="6.08986">
        <ele>572.40002441406</ele>
        <time>2011-08-23T06:27:36.000Z</time>
      </trkpt>
      <trkpt lat="45.53737" lon="6.08993">
        <ele>574.40002441406</ele>
        <time>2011-08-23T06:27:43.000Z</time>
      </trkpt>
      <trkpt lat="45.53755" lon="6.09003">
        <ele>576.59997558594</ele>
        <time>2011-08-23T06:27:51.000Z</time>
      </trkpt>
      <trkpt lat="45.53777" lon="6.09019">
        <ele>579</ele>
        <time>2011-08-23T06:28:01.000Z</time>
      </trkpt>
      <trkpt lat="45.53797" lon="6.09037">
        <ele>579.20001220703</ele>
        <time>2011-08-23T06:28:10.000Z</time>
      </trkpt>
      <trkpt lat="45.53803" lon="6.0904">
        <ele>579.59997558594</ele>
        <time>2011-08-23T06:28:12.000Z</time>
      </trkpt>
      <trkpt lat="45.53809" lon="6.09029">
        <ele>585.20001220703</ele>
        <time>2011-08-23T06:28:17.000Z</time>
      </trkpt>
      <trkpt lat="45.53799" lon="6.09016">
        <ele>586.79998779297</ele>
        <time>2011-08-23T06:28:22.000Z</time>
      </trkpt>
      <trkpt lat="45.53773" lon="6.08993">
        <ele>586</ele>
        <time>2011-08-23T06:28:33.000Z</time>
      </trkpt>
      <trkpt lat="45.53752" lon="6.08966">
        <ele>588.20001220703</ele>
        <time>2011-08-23T06:28:43.000Z</time>
      </trkpt>
      <trkpt lat="45.53731" lon="6.0894">
        <ele>591.20001220703</ele>
        <time>2011-08-23T06:28:53.000Z</time>
      </trkpt>
      <trkpt lat="45.53709" lon="6.08912">
        <ele>593.79998779297</ele>
        <time>2011-08-23T06:29:04.000Z</time>
      </trkpt>
      <trkpt lat="45.53696" lon="6.08891">
        <ele>594.20001220703</ele>
        <time>2011-08-23T06:29:12.000Z</time>
      </trkpt>
      <trkpt lat="45.53676" lon="6.08864">
        <ele>593</ele>
        <time>2011-08-23T06:29:23.000Z</time>
      </trkpt>
      <trkpt lat="45.5366" lon="6.08841">
        <ele>591.20001220703</ele>
        <time>2011-08-23T06:29:32.000Z</time>
      </trkpt>
      <trkpt lat="45.53648" lon="6.08815">
        <ele>589.79998779297</ele>
        <time>2011-08-23T06:29:41.000Z</time>
      </trkpt>
      <trkpt lat="45.5364" lon="6.08785">
        <ele>590.20001220703</ele>
        <time>2011-08-23T06:29:51.000Z</time>
      </trkpt>
      <trkpt lat="45.53636" lon="6.08757">
        <ele>592</ele>
        <time>2011-08-23T06:29:59.000Z</time>
      </trkpt>
      <trkpt lat="45.53637" lon="6.08754">
        <ele>592.79998779297</ele>
        <time>2011-08-23T06:30:00.000Z</time>
      </trkpt>
      <trkpt lat="45.53647" lon="6.08753">
        <ele>596.20001220703</ele>
        <time>2011-08-23T06:30:04.000Z</time>
      </trkpt>
      <trkpt lat="45.53653" lon="6.08761">
        <ele>597.20001220703</ele>
        <time>2011-08-23T06:30:07.000Z</time>
      </trkpt>
      <trkpt lat="45.53671" lon="6.08791">
        <ele>600.59997558594</ele>
        <time>2011-08-23T06:30:18.000Z</time>
      </trkpt>
      <trkpt lat="45.53683" lon="6.08804">
        <ele>604.20001220703</ele>
        <time>2011-08-23T06:30:24.000Z</time>
      </trkpt>
      <trkpt lat="45.537" lon="6.0882">
        <ele>609.59997558594</ele>
        <time>2011-08-23T06:30:32.000Z</time>
      </trkpt>
      <trkpt lat="45.53722" lon="6.08843">
        <ele>615.20001220703</ele>
        <time>2011-08-23T06:30:42.000Z</time>
      </trkpt>
      <trkpt lat="45.53735" lon="6.08863">
        <ele>615</ele>
        <time>2011-08-23T06:30:49.000Z</time>
      </trkpt>
      <trkpt lat="45.53748" lon="6.08884">
        <ele>613.59997558594</ele>
        <time>2011-08-23T06:30:56.000Z</time>
      </trkpt>
      <trkpt lat="45.53756" lon="6.08878">
        <ele>618.79998779297</ele>
        <time>2011-08-23T06:31:00.000Z</time>
      </trkpt>
      <trkpt lat="45.53752" lon="6.08865">
        <ele>620.79998779297</ele>
        <time>2011-08-23T06:31:04.000Z</time>
      </trkpt>
      <trkpt lat="45.53751" lon="6.08863">
        <ele>620.79998779297</ele>
        <time>2011-08-23T06:31:05.000Z</time>
      </trkpt>
      <trkpt lat="45.53732" lon="6.08833">
        <ele>621.79998779297</ele>
        <time>2011-08-23T06:31:15.000Z</time>
      </trkpt>
      <trkpt lat="45.53726" lon="6.08805">
        <ele>621</ele>
        <time>2011-08-23T06:31:24.000Z</time>
      </trkpt>
      <trkpt lat="45.53726" lon="6.08772">
        <ele>623.40002441406</ele>
        <time>2011-08-23T06:31:34.000Z</time>
      </trkpt>
      <trkpt lat="45.53733" lon="6.08743">
        <ele>626.20001220703</ele>
        <time>2011-08-23T06:31:43.000Z</time>
      </trkpt>
      <trkpt lat="45.53743" lon="6.08708">
        <ele>623.59997558594</ele>
        <time>2011-08-23T06:31:54.000Z</time>
      </trkpt>
      <trkpt lat="45.53751" lon="6.08681">
        <ele>622.20001220703</ele>
        <time>2011-08-23T06:32:02.000Z</time>
      </trkpt>
      <trkpt lat="45.53761" lon="6.08651">
        <ele>621.79998779297</ele>
        <time>2011-08-23T06:32:10.000Z</time>
      </trkpt>
      <trkpt lat="45.53773" lon="6.08625">
        <ele>623.20001220703</ele>
        <time>2011-08-23T06:32:17.000Z</time>
      </trkpt>
      <trkpt lat="45.53782" lon="6.08609">
        <ele>624.79998779297</ele>
        <time>2011-08-23T06:32:22.000Z</time>
      </trkpt>
      <trkpt lat="45.53785" lon="6.08601">
        <ele>625.20001220703</ele>
        <time>2011-08-23T06:32:24.000Z</time>
      </trkpt>
      <trkpt lat="45.53799" lon="6.0858">
        <ele>628.40002441406</ele>
        <time>2011-08-23T06:32:30.000Z</time>
      </trkpt>
      <trkpt lat="45.53801" lon="6.08553">
        <ele>624</ele>
        <time>2011-08-23T06:32:36.000Z</time>
      </trkpt>
      <trkpt lat="45.53806" lon="6.08533">
        <ele>622.20001220703</ele>
        <time>2011-08-23T06:32:41.000Z</time>
      </trkpt>
      <trkpt lat="45.53819" lon="6.08526">
        <ele>626.40002441406</ele>
        <time>2011-08-23T06:32:45.000Z</time>
      </trkpt>
      <trkpt lat="45.53834" lon="6.08519">
        <ele>630.59997558594</ele>
        <time>2011-08-23T06:32:50.000Z</time>
      </trkpt>
      <trkpt lat="45.53847" lon="6.08522">
        <ele>633.79998779297</ele>
        <time>2011-08-23T06:32:54.000Z</time>
      </trkpt>
      <trkpt lat="45.53871" lon="6.08533">
        <ele>642</ele>
        <time>2011-08-23T06:33:00.000Z</time>
      </trkpt>
      <trkpt lat="45.5389" lon="6.08531">
        <ele>645.20001220703</ele>
        <time>2011-08-23T06:33:05.000Z</time>
      </trkpt>
      <trkpt lat="45.53897" lon="6.08527">
        <ele>645</ele>
        <time>2011-08-23T06:33:07.000Z</time>
      </trkpt>
      <trkpt lat="45.53928" lon="6.08504">
        <ele>641.20001220703</ele>
        <time>2011-08-23T06:33:16.000Z</time>
      </trkpt>
      <trkpt lat="45.53941" lon="6.08508">
        <ele>644.20001220703</ele>
        <time>2011-08-23T06:33:20.000Z</time>
      </trkpt>
      <trkpt lat="45.53957" lon="6.08515">
        <ele>648.40002441406</ele>
        <time>2011-08-23T06:33:25.000Z</time>
      </trkpt>
      <trkpt lat="45.53974" lon="6.08506">
        <ele>645.79998779297</ele>
        <time>2011-08-23T06:33:30.000Z</time>
      </trkpt>
      <trkpt lat="45.53985" lon="6.08502">
        <ele>645</ele>
        <time>2011-08-23T06:33:34.000Z</time>
      </trkpt>
      <trkpt lat="45.54003" lon="6.08512">
        <ele>651.79998779297</ele>
        <time>2011-08-23T06:33:39.000Z</time>
      </trkpt>
      <trkpt lat="45.5402" lon="6.0853">
        <ele>662.79998779297</ele>
        <time>2011-08-23T06:33:44.000Z</time>
      </trkpt>
      <trkpt lat="45.54049" lon="6.0855">
        <ele>673.59997558594</ele>
        <time>2011-08-23T06:33:48.000Z</time>
      </trkpt>
      <trkpt lat="45.54054" lon="6.08557">
        <ele>676.59997558594</ele>
        <time>2011-08-23T06:33:50.000Z</time>
      </trkpt>
      <trkpt lat="45.54067" lon="6.08548">
        <ele>673.59997558594</ele>
        <time>2011-08-23T06:33:55.000Z</time>
      </trkpt>
      <trkpt lat="45.54063" lon="6.08533">
        <ele>667.79998779297</ele>
        <time>2011-08-23T06:33:57.000Z</time>
      </trkpt>
      <trkpt lat="45.54062" lon="6.08512">
        <ele>659.79998779297</ele>
        <time>2011-08-23T06:34:00.000Z</time>
      </trkpt>
      <trkpt lat="45.54071" lon="6.08474">
        <ele>659</ele>
        <time>2011-08-23T06:34:06.000Z</time>
      </trkpt>
      <trkpt lat="45.54089" lon="6.08455">
        <ele>665.79998779297</ele>
        <time>2011-08-23T06:34:12.000Z</time>
      </trkpt>
      <trkpt lat="45.54102" lon="6.08439">
        <ele>671.40002441406</ele>
        <time>2011-08-23T06:34:17.000Z</time>
      </trkpt>
      <trkpt lat="45.54115" lon="6.08446">
        <ele>673.79998779297</ele>
        <time>2011-08-23T06:34:20.000Z</time>
      </trkpt>
      <trkpt lat="45.54138" lon="6.08457">
        <ele>676.79998779297</ele>
        <time>2011-08-23T06:34:27.000Z</time>
      </trkpt>
      <trkpt lat="45.54149" lon="6.0846">
        <ele>678.59997558594</ele>
        <time>2011-08-23T06:34:32.000Z</time>
      </trkpt>
      <trkpt lat="45.54167" lon="6.08465">
        <ele>681.20001220703</ele>
        <time>2011-08-23T06:34:39.000Z</time>
      </trkpt>
      <trkpt lat="45.54181" lon="6.0847">
        <ele>681.40002441406</ele>
        <time>2011-08-23T06:34:44.000Z</time>
      </trkpt>
      <trkpt lat="45.54196" lon="6.08475">
        <ele>682</ele>
        <time>2011-08-23T06:34:50.000Z</time>
      </trkpt>
      <trkpt lat="45.54209" lon="6.08479">
        <ele>682.79998779297</ele>
        <time>2011-08-23T06:34:55.000Z</time>
      </trkpt>
      <trkpt lat="45.54225" lon="6.08482">
        <ele>684</ele>
        <time>2011-08-23T06:35:01.000Z</time>
      </trkpt>
      <trkpt lat="45.54243" lon="6.08486">
        <ele>685.20001220703</ele>
        <time>2011-08-23T06:35:08.000Z</time>
      </trkpt>
      <trkpt lat="45.5426" lon="6.08492">
        <ele>686</ele>
        <time>2011-08-23T06:35:14.000Z</time>
      </trkpt>
      <trkpt lat="45.54274" lon="6.08494">
        <ele>687.40002441406</ele>
        <time>2011-08-23T06:35:20.000Z</time>
      </trkpt>
      <trkpt lat="45.54279" lon="6.08489">
        <ele>689.59997558594</ele>
        <time>2011-08-23T06:35:23.000Z</time>
      </trkpt>
      <trkpt lat="45.54275" lon="6.08477">
        <ele>692.40002441406</ele>
        <time>2011-08-23T06:35:28.000Z</time>
      </trkpt>
      <trkpt lat="45.54273" lon="6.08476">
        <ele>692.40002441406</ele>
        <time>2011-08-23T06:35:29.000Z</time>
      </trkpt>
      <trkpt lat="45.54255" lon="6.08471">
        <ele>691.59997558594</ele>
        <time>2011-08-23T06:35:35.000Z</time>
      </trkpt>
      <trkpt lat="45.54235" lon="6.08462">
        <ele>691.59997558594</ele>
        <time>2011-08-23T06:35:42.000Z</time>
      </trkpt>
      <trkpt lat="45.54217" lon="6.08451">
        <ele>692.59997558594</ele>
        <time>2011-08-23T06:35:49.000Z</time>
      </trkpt>
      <trkpt lat="45.54198" lon="6.08438">
        <ele>694.40002441406</ele>
        <time>2011-08-23T06:35:56.000Z</time>
      </trkpt>
      <trkpt lat="45.54178" lon="6.08425">
        <ele>695.59997558594</ele>
        <time>2011-08-23T06:36:04.000Z</time>
      </trkpt>
      <trkpt lat="45.54163" lon="6.08415">
        <ele>696.20001220703</ele>
        <time>2011-08-23T06:36:11.000Z</time>
      </trkpt>
      <trkpt lat="45.54152" lon="6.0841">
        <ele>695</ele>
        <time>2011-08-23T06:36:16.000Z</time>
      </trkpt>
      <trkpt lat="45.54132" lon="6.08405">
        <ele>690.79998779297</ele>
        <time>2011-08-23T06:36:24.000Z</time>
      </trkpt>
      <trkpt lat="45.54115" lon="6.08397">
        <ele>688.20001220703</ele>
        <time>2011-08-23T06:36:32.000Z</time>
      </trkpt>
      <trkpt lat="45.541" lon="6.08391">
        <ele>686</ele>
        <time>2011-08-23T06:36:39.000Z</time>
      </trkpt>
      <trkpt lat="45.54078" lon="6.08375">
        <ele>685.40002441406</ele>
        <time>2011-08-23T06:36:49.000Z</time>
      </trkpt>
      <trkpt lat="45.54072" lon="6.08364">
        <ele>687.79998779297</ele>
        <time>2011-08-23T06:36:53.000Z</time>
      </trkpt>
      <trkpt lat="45.54079" lon="6.08353">
        <ele>695</ele>
        <time>2011-08-23T06:36:58.000Z</time>
      </trkpt>
      <trkpt lat="45.54086" lon="6.0836">
        <ele>694.40002441406</ele>
        <time>2011-08-23T06:37:02.000Z</time>
      </trkpt>
      <trkpt lat="45.54097" lon="6.08372">
        <ele>693.20001220703</ele>
        <time>2011-08-23T06:37:08.000Z</time>
      </trkpt>
      <trkpt lat="45.54112" lon="6.08379">
        <ele>695.59997558594</ele>
        <time>2011-08-23T06:37:15.000Z</time>
      </trkpt>
      <trkpt lat="45.5413" lon="6.08384">
        <ele>699.59997558594</ele>
        <time>2011-08-23T06:37:21.000Z</time>
      </trkpt>
      <trkpt lat="45.54143" lon="6.08382">
        <ele>705.40002441406</ele>
        <time>2011-08-23T06:37:26.000Z</time>
      </trkpt>
      <trkpt lat="45.5414" lon="6.08369">
        <ele>710.40002441406</ele>
        <time>2011-08-23T06:37:31.000Z</time>
      </trkpt>
      <trkpt lat="45.54132" lon="6.08368">
        <ele>708</ele>
        <time>2011-08-23T06:37:34.000Z</time>
      </trkpt>
      <trkpt lat="45.54111" lon="6.08363">
        <ele>702.59997558594</ele>
        <time>2011-08-23T06:37:42.000Z</time>
      </trkpt>
      <trkpt lat="45.54094" lon="6.08347">
        <ele>703</ele>
        <time>2011-08-23T06:37:50.000Z</time>
      </trkpt>
      <trkpt lat="45.54077" lon="6.08319">
        <ele>709</ele>
        <time>2011-08-23T06:38:00.000Z</time>
      </trkpt>
      <trkpt lat="45.54065" lon="6.08288">
        <ele>718.59997558594</ele>
        <time>2011-08-23T06:38:09.000Z</time>
      </trkpt>
      <trkpt lat="45.5406" lon="6.08259">
        <ele>730.20001220703</ele>
        <time>2011-08-23T06:38:17.000Z</time>
      </trkpt>
      <trkpt lat="45.54055" lon="6.08239">
        <ele>735.59997558594</ele>
        <time>2011-08-23T06:38:23.000Z</time>
      </trkpt>
      <trkpt lat="45.54043" lon="6.08221">
        <ele>737.59997558594</ele>
        <time>2011-08-23T06:38:30.000Z</time>
      </trkpt>
      <trkpt lat="45.54029" lon="6.08212">
        <ele>736.40002441406</ele>
        <time>2011-08-23T06:38:36.000Z</time>
      </trkpt>
      <trkpt lat="45.54016" lon="6.08204">
        <ele>735</ele>
        <time>2011-08-23T06:38:42.000Z</time>
      </trkpt>
      <trkpt lat="45.54005" lon="6.08197">
        <ele>734</ele>
        <time>2011-08-23T06:38:48.000Z</time>
      </trkpt>
      <trkpt lat="45.53989" lon="6.08187">
        <ele>734.59997558594</ele>
        <time>2011-08-23T06:38:56.000Z</time>
      </trkpt>
      <trkpt lat="45.53978" lon="6.08179">
        <ele>735.79998779297</ele>
        <time>2011-08-23T06:39:02.000Z</time>
      </trkpt>
      <trkpt lat="45.5396" lon="6.08168">
        <ele>737.59997558594</ele>
        <time>2011-08-23T06:39:10.000Z</time>
      </trkpt>
      <trkpt lat="45.53943" lon="6.08165">
        <ele>736.79998779297</ele>
        <time>2011-08-23T06:39:18.000Z</time>
      </trkpt>
      <trkpt lat="45.53925" lon="6.08159">
        <ele>736.79998779297</ele>
        <time>2011-08-23T06:39:26.000Z</time>
      </trkpt>
      <trkpt lat="45.53912" lon="6.08146">
        <ele>739.20001220703</ele>
        <time>2011-08-23T06:39:34.000Z</time>
      </trkpt>
      <trkpt lat="45.53904" lon="6.08129">
        <ele>743.59997558594</ele>
        <time>2011-08-23T06:39:41.000Z</time>
      </trkpt>
      <trkpt lat="45.53895" lon="6.0811">
        <ele>748.20001220703</ele>
        <time>2011-08-23T06:39:48.000Z</time>
      </trkpt>
      <trkpt lat="45.53886" lon="6.08105">
        <ele>749.40002441406</ele>
        <time>2011-08-23T06:39:53.000Z</time>
      </trkpt>
      <trkpt lat="45.53872" lon="6.08108">
        <ele>747.79998779297</ele>
        <time>2011-08-23T06:39:59.000Z</time>
      </trkpt>
      <trkpt lat="45.53852" lon="6.0811">
        <ele>746</ele>
        <time>2011-08-23T06:40:08.000Z</time>
      </trkpt>
      <trkpt lat="45.53841" lon="6.08101">
        <ele>748.40002441406</ele>
        <time>2011-08-23T06:40:14.000Z</time>
      </trkpt>
      <trkpt lat="45.53832" lon="6.0808">
        <ele>754.59997558594</ele>
        <time>2011-08-23T06:40:21.000Z</time>
      </trkpt>
      <trkpt lat="45.53828" lon="6.08071">
        <ele>756.20001220703</ele>
        <time>2011-08-23T06:40:25.000Z</time>
      </trkpt>
      <trkpt lat="45.53816" lon="6.08059">
        <ele>758</ele>
        <time>2011-08-23T06:40:32.000Z</time>
      </trkpt>
      <trkpt lat="45.53801" lon="6.08047">
        <ele>759</ele>
        <time>2011-08-23T06:40:40.000Z</time>
      </trkpt>
      <trkpt lat="45.53793" lon="6.08035">
        <ele>761.20001220703</ele>
        <time>2011-08-23T06:40:46.000Z</time>
      </trkpt>
      <trkpt lat="45.53787" lon="6.08016">
        <ele>765</ele>
        <time>2011-08-23T06:40:52.000Z</time>
      </trkpt>
      <trkpt lat="45.53785" lon="6.07991">
        <ele>770.79998779297</ele>
        <time>2011-08-23T06:41:00.000Z</time>
      </trkpt>
      <trkpt lat="45.5378" lon="6.07972">
        <ele>774.79998779297</ele>
        <time>2011-08-23T06:41:07.000Z</time>
      </trkpt>
      <trkpt lat="45.53769" lon="6.07964">
        <ele>775.40002441406</ele>
        <time>2011-08-23T06:41:13.000Z</time>
      </trkpt>
      <trkpt lat="45.53756" lon="6.07966">
        <ele>773.20001220703</ele>
        <time>2011-08-23T06:41:19.000Z</time>
      </trkpt>
      <trkpt lat="45.53736" lon="6.07973">
        <ele>773.79998779297</ele>
        <time>2011-08-23T06:41:28.000Z</time>
      </trkpt>
      <trkpt lat="45.53716" lon="6.07981">
        <ele>775.40002441406</ele>
        <time>2011-08-23T06:41:37.000Z</time>
      </trkpt>
      <trkpt lat="45.53697" lon="6.07993">
        <ele>776</ele>
        <time>2011-08-23T06:41:46.000Z</time>
      </trkpt>
      <trkpt lat="45.53685" lon="6.08002">
        <ele>776</ele>
        <time>2011-08-23T06:41:52.000Z</time>
      </trkpt>
      <trkpt lat="45.53671" lon="6.08014">
        <ele>774</ele>
        <time>2011-08-23T06:41:59.000Z</time>
      </trkpt>
      <trkpt lat="45.53656" lon="6.08023">
        <ele>771.79998779297</ele>
        <time>2011-08-23T06:42:06.000Z</time>
      </trkpt>
      <trkpt lat="45.53653" lon="6.08014">
        <ele>775.79998779297</ele>
        <time>2011-08-23T06:42:11.000Z</time>
      </trkpt>
      <trkpt lat="45.53655" lon="6.08009">
        <ele>777.40002441406</ele>
        <time>2011-08-23T06:42:13.000Z</time>
      </trkpt>
      <trkpt lat="45.53668" lon="6.07993">
        <ele>781.59997558594</ele>
        <time>2011-08-23T06:42:20.000Z</time>
      </trkpt>
      <trkpt lat="45.53677" lon="6.07975">
        <ele>784</ele>
        <time>2011-08-23T06:42:27.000Z</time>
      </trkpt>
      <trkpt lat="45.53684" lon="6.07953">
        <ele>787.79998779297</ele>
        <time>2011-08-23T06:42:35.000Z</time>
      </trkpt>
      <trkpt lat="45.5369" lon="6.07929">
        <ele>792.59997558594</ele>
        <time>2011-08-23T06:42:44.000Z</time>
      </trkpt>
      <trkpt lat="45.537" lon="6.07912">
        <ele>794.79998779297</ele>
        <time>2011-08-23T06:42:51.000Z</time>
      </trkpt>
      <trkpt lat="45.53713" lon="6.079">
        <ele>794.79998779297</ele>
        <time>2011-08-23T06:42:58.000Z</time>
      </trkpt>
      <trkpt lat="45.53723" lon="6.07885">
        <ele>796.59997558594</ele>
        <time>2011-08-23T06:43:05.000Z</time>
      </trkpt>
      <trkpt lat="45.53732" lon="6.07864">
        <ele>799.79998779297</ele>
        <time>2011-08-23T06:43:13.000Z</time>
      </trkpt>
      <trkpt lat="45.5373" lon="6.07854">
        <ele>802.79998779297</ele>
        <time>2011-08-23T06:43:17.000Z</time>
      </trkpt>
      <trkpt lat="45.53718" lon="6.07855">
        <ele>804.79998779297</ele>
        <time>2011-08-23T06:43:23.000Z</time>
      </trkpt>
      <trkpt lat="45.53716" lon="6.07856">
        <ele>804.59997558594</ele>
        <time>2011-08-23T06:43:24.000Z</time>
      </trkpt>
      <trkpt lat="45.53698" lon="6.07873">
        <ele>804.20001220703</ele>
        <time>2011-08-23T06:43:34.000Z</time>
      </trkpt>
      <trkpt lat="45.53676" lon="6.07882">
        <ele>806</ele>
        <time>2011-08-23T06:43:44.000Z</time>
      </trkpt>
      <trkpt lat="45.53657" lon="6.07898">
        <ele>806.20001220703</ele>
        <time>2011-08-23T06:43:54.000Z</time>
      </trkpt>
      <trkpt lat="45.53638" lon="6.07914">
        <ele>806.59997558594</ele>
        <time>2011-08-23T06:44:04.000Z</time>
      </trkpt>
      <trkpt lat="45.53623" lon="6.0793">
        <ele>805.20001220703</ele>
        <time>2011-08-23T06:44:13.000Z</time>
      </trkpt>
      <trkpt lat="45.5361" lon="6.07949">
        <ele>801.40002441406</ele>
        <time>2011-08-23T06:44:22.000Z</time>
      </trkpt>
      <trkpt lat="45.53606" lon="6.07952">
        <ele>801.20001220703</ele>
        <time>2011-08-23T06:44:24.000Z</time>
      </trkpt>
      <trkpt lat="45.53599" lon="6.07944">
        <ele>805</ele>
        <time>2011-08-23T06:44:29.000Z</time>
      </trkpt>
      <trkpt lat="45.536" lon="6.07941">
        <ele>806</ele>
        <time>2011-08-23T06:44:30.000Z</time>
      </trkpt>
      <trkpt lat="45.53612" lon="6.07915">
        <ele>812</ele>
        <time>2011-08-23T06:44:39.000Z</time>
      </trkpt>
      <trkpt lat="45.53624" lon="6.0789">
        <ele>815</ele>
        <time>2011-08-23T06:44:48.000Z</time>
      </trkpt>
      <trkpt lat="45.53635" lon="6.07861">
        <ele>819.20001220703</ele>
        <time>2011-08-23T06:44:58.000Z</time>
      </trkpt>
      <trkpt lat="45.5365" lon="6.07829">
        <ele>823.20001220703</ele>
        <time>2011-08-23T06:45:10.000Z</time>
      </trkpt>
      <trkpt lat="45.53654" lon="6.07801">
        <ele>828.20001220703</ele>
        <time>2011-08-23T06:45:19.000Z</time>
      </trkpt>
      <trkpt lat="45.53665" lon="6.07784">
        <ele>829.79998779297</ele>
        <time>2011-08-23T06:45:26.000Z</time>
      </trkpt>
      <trkpt lat="45.53677" lon="6.07764">
        <ele>832.40002441406</ele>
        <time>2011-08-23T06:45:34.000Z</time>
      </trkpt>
      <trkpt lat="45.53679" lon="6.07745">
        <ele>836</ele>
        <time>2011-08-23T06:45:40.000Z</time>
      </trkpt>
      <trkpt lat="45.53684" lon="6.07724">
        <ele>839.59997558594</ele>
        <time>2011-08-23T06:45:47.000Z</time>
      </trkpt>
      <trkpt lat="45.53695" lon="6.07713">
        <ele>840.40002441406</ele>
        <time>2011-08-23T06:45:53.000Z</time>
      </trkpt>
      <trkpt lat="45.53705" lon="6.07706">
        <ele>840.59997558594</ele>
        <time>2011-08-23T06:46:00.000Z</time>
      </trkpt>
      <trkpt lat="45.53722" lon="6.07707">
        <ele>838.20001220703</ele>
        <time>2011-08-23T06:46:07.000Z</time>
      </trkpt>
      <trkpt lat="45.5374" lon="6.07697">
        <ele>838.20001220703</ele>
        <time>2011-08-23T06:46:14.000Z</time>
      </trkpt>
      <trkpt lat="45.53751" lon="6.07681">
        <ele>840.59997558594</ele>
        <time>2011-08-23T06:46:21.000Z</time>
      </trkpt>
      <trkpt lat="45.53764" lon="6.07663">
        <ele>846.20001220703</ele>
        <time>2011-08-23T06:46:28.000Z</time>
      </trkpt>
      <trkpt lat="45.53777" lon="6.07663">
        <ele>847.79998779297</ele>
        <time>2011-08-23T06:46:33.000Z</time>
      </trkpt>
      <trkpt lat="45.5379" lon="6.07673">
        <ele>846.79998779297</ele>
        <time>2011-08-23T06:46:40.000Z</time>
      </trkpt>
      <trkpt lat="45.53804" lon="6.07681">
        <ele>846.40002441406</ele>
        <time>2011-08-23T06:46:46.000Z</time>
      </trkpt>
      <trkpt lat="45.53826" lon="6.07698">
        <ele>845</ele>
        <time>2011-08-23T06:46:55.000Z</time>
      </trkpt>
      <trkpt lat="45.53841" lon="6.07706">
        <ele>845.20001220703</ele>
        <time>2011-08-23T06:47:02.000Z</time>
      </trkpt>
      <trkpt lat="45.53858" lon="6.07703">
        <ele>848.20001220703</ele>
        <time>2011-08-23T06:47:09.000Z</time>
      </trkpt>
      <trkpt lat="45.53877" lon="6.07703">
        <ele>851</ele>
        <time>2011-08-23T06:47:17.000Z</time>
      </trkpt>
      <trkpt lat="45.53894" lon="6.07707">
        <ele>852.40002441406</ele>
        <time>2011-08-23T06:47:24.000Z</time>
      </trkpt>
      <trkpt lat="45.53907" lon="6.07711">
        <ele>853.40002441406</ele>
        <time>2011-08-23T06:47:30.000Z</time>
      </trkpt>
      <trkpt lat="45.53924" lon="6.07717">
        <ele>853.59997558594</ele>
        <time>2011-08-23T06:47:37.000Z</time>
      </trkpt>
      <trkpt lat="45.53939" lon="6.07719">
        <ele>853.40002441406</ele>
        <time>2011-08-23T06:47:43.000Z</time>
      </trkpt>
      <trkpt lat="45.53957" lon="6.07715">
        <ele>854.59997558594</ele>
        <time>2011-08-23T06:47:50.000Z</time>
      </trkpt>
      <trkpt lat="45.5397" lon="6.077">
        <ele>858.20001220703</ele>
        <time>2011-08-23T06:47:57.000Z</time>
      </trkpt>
      <trkpt lat="45.53971" lon="6.07697">
        <ele>858.59997558594</ele>
        <time>2011-08-23T06:47:58.000Z</time>
      </trkpt>
      <trkpt lat="45.53976" lon="6.07678">
        <ele>862.59997558594</ele>
        <time>2011-08-23T06:48:04.000Z</time>
      </trkpt>
      <trkpt lat="45.53982" lon="6.07668">
        <ele>864.59997558594</ele>
        <time>2011-08-23T06:48:08.000Z</time>
      </trkpt>
      <trkpt lat="45.54" lon="6.07663">
        <ele>865.59997558594</ele>
        <time>2011-08-23T06:48:16.000Z</time>
      </trkpt>
      <trkpt lat="45.54026" lon="6.07657">
        <ele>867.20001220703</ele>
        <time>2011-08-23T06:48:26.000Z</time>
      </trkpt>
      <trkpt lat="45.54045" lon="6.07652">
        <ele>868.59997558594</ele>
        <time>2011-08-23T06:48:34.000Z</time>
      </trkpt>
      <trkpt lat="45.54063" lon="6.07652">
        <ele>869</ele>
        <time>2011-08-23T06:48:42.000Z</time>
      </trkpt>
      <trkpt lat="45.54087" lon="6.07651">
        <ele>870</ele>
        <time>2011-08-23T06:48:52.000Z</time>
      </trkpt>
      <trkpt lat="45.54109" lon="6.07647">
        <ele>873.20001220703</ele>
        <time>2011-08-23T06:49:01.000Z</time>
      </trkpt>
      <trkpt lat="45.54126" lon="6.07641">
        <ele>876.40002441406</ele>
        <time>2011-08-23T06:49:09.000Z</time>
      </trkpt>
      <trkpt lat="45.54148" lon="6.07633">
        <ele>881</ele>
        <time>2011-08-23T06:49:18.000Z</time>
      </trkpt>
      <trkpt lat="45.54165" lon="6.07632">
        <ele>883</ele>
        <time>2011-08-23T06:49:25.000Z</time>
      </trkpt>
      <trkpt lat="45.54188" lon="6.07635">
        <ele>885.59997558594</ele>
        <time>2011-08-23T06:49:34.000Z</time>
      </trkpt>
      <trkpt lat="45.54206" lon="6.07645">
        <ele>885.40002441406</ele>
        <time>2011-08-23T06:49:42.000Z</time>
      </trkpt>
      <trkpt lat="45.54222" lon="6.07655">
        <ele>885.20001220703</ele>
        <time>2011-08-23T06:49:49.000Z</time>
      </trkpt>
      <trkpt lat="45.54242" lon="6.07664">
        <ele>886.20001220703</ele>
        <time>2011-08-23T06:49:57.000Z</time>
      </trkpt>
      <trkpt lat="45.54261" lon="6.0767">
        <ele>889.59997558594</ele>
        <time>2011-08-23T06:50:05.000Z</time>
      </trkpt>
      <trkpt lat="45.5428" lon="6.07677">
        <ele>893.79998779297</ele>
        <time>2011-08-23T06:50:13.000Z</time>
      </trkpt>
      <trkpt lat="45.54304" lon="6.07687">
        <ele>898</ele>
        <time>2011-08-23T06:50:23.000Z</time>
      </trkpt>
      <trkpt lat="45.54325" lon="6.07696">
        <ele>900.79998779297</ele>
        <time>2011-08-23T06:50:32.000Z</time>
      </trkpt>
      <trkpt lat="45.54343" lon="6.07712">
        <ele>901.40002441406</ele>
        <time>2011-08-23T06:50:41.000Z</time>
      </trkpt>
      <trkpt lat="45.54361" lon="6.07732">
        <ele>901.59997558594</ele>
        <time>2011-08-23T06:50:50.000Z</time>
      </trkpt>
      <trkpt lat="45.54377" lon="6.07749">
        <ele>902.20001220703</ele>
        <time>2011-08-23T06:50:58.000Z</time>
      </trkpt>
      <trkpt lat="45.54388" lon="6.07762">
        <ele>903</ele>
        <time>2011-08-23T06:51:04.000Z</time>
      </trkpt>
      <trkpt lat="45.54406" lon="6.07783">
        <ele>904.79998779297</ele>
        <time>2011-08-23T06:51:13.000Z</time>
      </trkpt>
      <trkpt lat="45.5442" lon="6.07796">
        <ele>906.40002441406</ele>
        <time>2011-08-23T06:51:20.000Z</time>
      </trkpt>
      <trkpt lat="45.54442" lon="6.07813">
        <ele>908</ele>
        <time>2011-08-23T06:51:29.000Z</time>
      </trkpt>
      <trkpt lat="45.54458" lon="6.07825">
        <ele>909</ele>
        <time>2011-08-23T06:51:36.000Z</time>
      </trkpt>
      <trkpt lat="45.54473" lon="6.0783">
        <ele>911.20001220703</ele>
        <time>2011-08-23T06:51:42.000Z</time>
      </trkpt>
      <trkpt lat="45.5449" lon="6.07833">
        <ele>914.40002441406</ele>
        <time>2011-08-23T06:51:49.000Z</time>
      </trkpt>
      <trkpt lat="45.54504" lon="6.07841">
        <ele>914</ele>
        <time>2011-08-23T06:51:55.000Z</time>
      </trkpt>
      <trkpt lat="45.54522" lon="6.07842">
        <ele>914</ele>
        <time>2011-08-23T06:52:02.000Z</time>
      </trkpt>
      <trkpt lat="45.54545" lon="6.07842">
        <ele>915</ele>
        <time>2011-08-23T06:52:11.000Z</time>
      </trkpt>
      <trkpt lat="45.5456" lon="6.07845">
        <ele>914.40002441406</ele>
        <time>2011-08-23T06:52:17.000Z</time>
      </trkpt>
      <trkpt lat="45.54572" lon="6.07845">
        <ele>914.59997558594</ele>
        <time>2011-08-23T06:52:22.000Z</time>
      </trkpt>
      <trkpt lat="45.54592" lon="6.07838">
        <ele>916.59997558594</ele>
        <time>2011-08-23T06:52:30.000Z</time>
      </trkpt>
      <trkpt lat="45.54609" lon="6.07825">
        <ele>920.59997558594</ele>
        <time>2011-08-23T06:52:37.000Z</time>
      </trkpt>
      <trkpt lat="45.54632" lon="6.07804">
        <ele>928.20001220703</ele>
        <time>2011-08-23T06:52:47.000Z</time>
      </trkpt>
      <trkpt lat="45.54651" lon="6.07787">
        <ele>934.20001220703</ele>
        <time>2011-08-23T06:52:55.000Z</time>
      </trkpt>
      <trkpt lat="45.54669" lon="6.07777">
        <ele>937</ele>
        <time>2011-08-23T06:53:02.000Z</time>
      </trkpt>
      <trkpt lat="45.54688" lon="6.07767">
        <ele>938.59997558594</ele>
        <time>2011-08-23T06:53:10.000Z</time>
      </trkpt>
      <trkpt lat="45.54705" lon="6.07759">
        <ele>938.79998779297</ele>
        <time>2011-08-23T06:53:17.000Z</time>
      </trkpt>
      <trkpt lat="45.54723" lon="6.07751">
        <ele>938.40002441406</ele>
        <time>2011-08-23T06:53:24.000Z</time>
      </trkpt>
      <trkpt lat="45.5474" lon="6.07743">
        <ele>938.59997558594</ele>
        <time>2011-08-23T06:53:31.000Z</time>
      </trkpt>
      <trkpt lat="45.54757" lon="6.07736">
        <ele>938.79998779297</ele>
        <time>2011-08-23T06:53:39.000Z</time>
      </trkpt>
      <trkpt lat="45.54771" lon="6.07724">
        <ele>942.40002441406</ele>
        <time>2011-08-23T06:53:46.000Z</time>
      </trkpt>
      <trkpt lat="45.54785" lon="6.0771">
        <ele>946</ele>
        <time>2011-08-23T06:53:53.000Z</time>
      </trkpt>
      <trkpt lat="45.54799" lon="6.07695">
        <ele>949.79998779297</ele>
        <time>2011-08-23T06:54:01.000Z</time>
      </trkpt>
      <trkpt lat="45.54814" lon="6.07682">
        <ele>952.40002441406</ele>
        <time>2011-08-23T06:54:08.000Z</time>
      </trkpt>
      <trkpt lat="45.54829" lon="6.07671">
        <ele>953.20001220703</ele>
        <time>2011-08-23T06:54:15.000Z</time>
      </trkpt>
      <trkpt lat="45.54842" lon="6.07669">
        <ele>951.79998779297</ele>
        <time>2011-08-23T06:54:20.000Z</time>
      </trkpt>
      <trkpt lat="45.5486" lon="6.07658">
        <ele>951.79998779297</ele>
        <time>2011-08-23T06:54:28.000Z</time>
      </trkpt>
      <trkpt lat="45.54875" lon="6.0765">
        <ele>951.20001220703</ele>
        <time>2011-08-23T06:54:34.000Z</time>
      </trkpt>
      <trkpt lat="45.5489" lon="6.07643">
        <ele>950.59997558594</ele>
        <time>2011-08-23T06:54:40.000Z</time>
      </trkpt>
      <trkpt lat="45.54907" lon="6.07634">
        <ele>950</ele>
        <time>2011-08-23T06:54:47.000Z</time>
      </trkpt>
      <trkpt lat="45.54925" lon="6.07627">
        <ele>951</ele>
        <time>2011-08-23T06:54:54.000Z</time>
      </trkpt>
      <trkpt lat="45.54944" lon="6.07625">
        <ele>953.20001220703</ele>
        <time>2011-08-23T06:55:01.000Z</time>
      </trkpt>
      <trkpt lat="45.54955" lon="6.07629">
        <ele>954.20001220703</ele>
        <time>2011-08-23T06:55:07.000Z</time>
      </trkpt>
      <trkpt lat="45.54974" lon="6.07636">
        <ele>955.59997558594</ele>
        <time>2011-08-23T06:55:15.000Z</time>
      </trkpt>
      <trkpt lat="45.54986" lon="6.07629">
        <ele>957.59997558594</ele>
        <time>2011-08-23T06:55:21.000Z</time>
      </trkpt>
      <trkpt lat="45.54992" lon="6.07622">
        <ele>958.79998779297</ele>
        <time>2011-08-23T06:55:27.000Z</time>
      </trkpt>
      <trkpt lat="45.54994" lon="6.0762">
        <ele>959</ele>
        <time>2011-08-23T06:55:33.000Z</time>
      </trkpt>
      <trkpt lat="45.54992" lon="6.07616">
        <ele>959</ele>
        <time>2011-08-23T06:58:07.000Z</time>
      </trkpt>
      <trkpt lat="45.54987" lon="6.07604">
        <ele>959.40002441406</ele>
        <time>2011-08-23T06:58:13.000Z</time>
      </trkpt>
      <trkpt lat="45.54986" lon="6.07598">
        <ele>959.59997558594</ele>
        <time>2011-08-23T06:58:15.000Z</time>
      </trkpt>
      <trkpt lat="45.54983" lon="6.0758">
        <ele>960.20001220703</ele>
        <time>2011-08-23T06:58:22.000Z</time>
      </trkpt>
      <trkpt lat="45.54976" lon="6.0756">
        <ele>957.79998779297</ele>
        <time>2011-08-23T06:58:28.000Z</time>
      </trkpt>
      <trkpt lat="45.54963" lon="6.07547">
        <ele>956.40002441406</ele>
        <time>2011-08-23T06:58:33.000Z</time>
      </trkpt>
      <trkpt lat="45.5494" lon="6.07537">
        <ele>955.79998779297</ele>
        <time>2011-08-23T06:58:38.000Z</time>
      </trkpt>
      <trkpt lat="45.54926" lon="6.07531">
        <ele>955.59997558594</ele>
        <time>2011-08-23T06:58:41.000Z</time>
      </trkpt>
      <trkpt lat="45.54918" lon="6.07527">
        <ele>955.40002441406</ele>
        <time>2011-08-23T06:58:43.000Z</time>
      </trkpt>
      <trkpt lat="45.54907" lon="6.07521">
        <ele>956.79998779297</ele>
        <time>2011-08-23T06:58:47.000Z</time>
      </trkpt>
      <trkpt lat="45.54896" lon="6.07521">
        <ele>958.59997558594</ele>
        <time>2011-08-23T06:58:53.000Z</time>
      </trkpt>
      <trkpt lat="45.54882" lon="6.07516">
        <ele>960.59997558594</ele>
        <time>2011-08-23T06:58:59.000Z</time>
      </trkpt>
      <trkpt lat="45.54862" lon="6.07511">
        <ele>963.59997558594</ele>
        <time>2011-08-23T06:59:07.000Z</time>
      </trkpt>
      <trkpt lat="45.5484" lon="6.07507">
        <ele>967</ele>
        <time>2011-08-23T06:59:17.000Z</time>
      </trkpt>
      <trkpt lat="45.54823" lon="6.07505">
        <ele>970.59997558594</ele>
        <time>2011-08-23T06:59:26.000Z</time>
      </trkpt>
      <trkpt lat="45.54804" lon="6.07503">
        <ele>974.79998779297</ele>
        <time>2011-08-23T06:59:36.000Z</time>
      </trkpt>
      <trkpt lat="45.54787" lon="6.07497">
        <ele>977.59997558594</ele>
        <time>2011-08-23T06:59:44.000Z</time>
      </trkpt>
      <trkpt lat="45.54774" lon="6.07491">
        <ele>979</ele>
        <time>2011-08-23T06:59:51.000Z</time>
      </trkpt>
      <trkpt lat="45.54762" lon="6.07487">
        <ele>980.59997558594</ele>
        <time>2011-08-23T06:59:58.000Z</time>
      </trkpt>
      <trkpt lat="45.54751" lon="6.07483">
        <ele>982.20001220703</ele>
        <time>2011-08-23T07:00:05.000Z</time>
      </trkpt>
      <trkpt lat="45.54741" lon="6.07479">
        <ele>984.20001220703</ele>
        <time>2011-08-23T07:00:12.000Z</time>
      </trkpt>
      <trkpt lat="45.54728" lon="6.07471">
        <ele>986.20001220703</ele>
        <time>2011-08-23T07:00:18.000Z</time>
      </trkpt>
      <trkpt lat="45.54713" lon="6.07463">
        <ele>988.79998779297</ele>
        <time>2011-08-23T07:00:25.000Z</time>
      </trkpt>
      <trkpt lat="45.54698" lon="6.07452">
        <ele>991</ele>
        <time>2011-08-23T07:00:33.000Z</time>
      </trkpt>
      <trkpt lat="45.54684" lon="6.07443">
        <ele>993.20001220703</ele>
        <time>2011-08-23T07:00:41.000Z</time>
      </trkpt>
      <trkpt lat="45.54675" lon="6.07434">
        <ele>994.20001220703</ele>
        <time>2011-08-23T07:00:46.000Z</time>
      </trkpt>
      <trkpt lat="45.54664" lon="6.07425">
        <ele>995.40002441406</ele>
        <time>2011-08-23T07:00:52.000Z</time>
      </trkpt>
      <trkpt lat="45.54663" lon="6.07421">
        <ele>995.20001220703</ele>
        <time>2011-08-23T07:00:55.000Z</time>
      </trkpt>
      <trkpt lat="45.54654" lon="6.07415">
        <ele>996.59997558594</ele>
        <time>2011-08-23T07:00:59.000Z</time>
      </trkpt>
      <trkpt lat="45.54652" lon="6.07413">
        <ele>996.40002441406</ele>
        <time>2011-08-23T07:01:01.000Z</time>
      </trkpt>
      <trkpt lat="45.54646" lon="6.07402">
        <ele>995.79998779297</ele>
        <time>2011-08-23T07:01:08.000Z</time>
      </trkpt>
      <trkpt lat="45.54643" lon="6.07399">
        <ele>996</ele>
        <time>2011-08-23T07:01:10.000Z</time>
      </trkpt>
      <trkpt lat="45.54631" lon="6.07386">
        <ele>997.20001220703</ele>
        <time>2011-08-23T07:01:18.000Z</time>
      </trkpt>
      <trkpt lat="45.54622" lon="6.07376">
        <ele>997.79998779297</ele>
        <time>2011-08-23T07:01:24.000Z</time>
      </trkpt>
      <trkpt lat="45.54608" lon="6.07366">
        <ele>1000.200012207</ele>
        <time>2011-08-23T07:01:31.000Z</time>
      </trkpt>
      <trkpt lat="45.54595" lon="6.07357">
        <ele>1002.799987793</ele>
        <time>2011-08-23T07:01:37.000Z</time>
      </trkpt>
      <trkpt lat="45.54576" lon="6.07345">
        <ele>1005.799987793</ele>
        <time>2011-08-23T07:01:44.000Z</time>
      </trkpt>
      <trkpt lat="45.54564" lon="6.07337">
        <ele>1006.5999755859</ele>
        <time>2011-08-23T07:01:50.000Z</time>
      </trkpt>
      <trkpt lat="45.54545" lon="6.07321">
        <ele>1006.4000244141</ele>
        <time>2011-08-23T07:01:57.000Z</time>
      </trkpt>
      <trkpt lat="45.5452" lon="6.07306">
        <ele>1008.200012207</ele>
        <time>2011-08-23T07:02:04.000Z</time>
      </trkpt>
      <trkpt lat="45.54503" lon="6.07297">
        <ele>1010.200012207</ele>
        <time>2011-08-23T07:02:10.000Z</time>
      </trkpt>
      <trkpt lat="45.54491" lon="6.07285">
        <ele>1009.200012207</ele>
        <time>2011-08-23T07:02:15.000Z</time>
      </trkpt>
      <trkpt lat="45.54474" lon="6.07274">
        <ele>1008.200012207</ele>
        <time>2011-08-23T07:02:19.000Z</time>
      </trkpt>
      <trkpt lat="45.54457" lon="6.07261">
        <ele>1007.4000244141</ele>
        <time>2011-08-23T07:02:23.000Z</time>
      </trkpt>
      <trkpt lat="45.54428" lon="6.07236">
        <ele>1005.200012207</ele>
        <time>2011-08-23T07:02:30.000Z</time>
      </trkpt>
      <trkpt lat="45.54396" lon="6.07208">
        <ele>1001.799987793</ele>
        <time>2011-08-23T07:02:37.000Z</time>
      </trkpt>
      <trkpt lat="45.54352" lon="6.07189">
        <ele>1001.799987793</ele>
        <time>2011-08-23T07:02:44.000Z</time>
      </trkpt>
      <trkpt lat="45.54297" lon="6.07178">
        <ele>1000.5999755859</ele>
        <time>2011-08-23T07:02:52.000Z</time>
      </trkpt>
      <trkpt lat="45.54253" lon="6.07173">
        <ele>998.40002441406</ele>
        <time>2011-08-23T07:02:57.000Z</time>
      </trkpt>
      <trkpt lat="45.54237" lon="6.07175">
        <ele>998.79998779297</ele>
        <time>2011-08-23T07:02:59.000Z</time>
      </trkpt>
      <trkpt lat="45.5421" lon="6.07158">
        <ele>997.79998779297</ele>
        <time>2011-08-23T07:03:03.000Z</time>
      </trkpt>
      <trkpt lat="45.5418" lon="6.07113">
        <ele>992.79998779297</ele>
        <time>2011-08-23T07:03:09.000Z</time>
      </trkpt>
      <trkpt lat="45.54154" lon="6.07071">
        <ele>989.40002441406</ele>
        <time>2011-08-23T07:03:14.000Z</time>
      </trkpt>
      <trkpt lat="45.54133" lon="6.07035">
        <ele>984.79998779297</ele>
        <time>2011-08-23T07:03:18.000Z</time>
      </trkpt>
      <trkpt lat="45.541" lon="6.06985">
        <ele>982</ele>
        <time>2011-08-23T07:03:23.000Z</time>
      </trkpt>
      <trkpt lat="45.5408" lon="6.06948">
        <ele>981.20001220703</ele>
        <time>2011-08-23T07:03:27.000Z</time>
      </trkpt>
      <trkpt lat="45.54065" lon="6.06942">
        <ele>983.40002441406</ele>
        <time>2011-08-23T07:03:31.000Z</time>
      </trkpt>
      <trkpt lat="45.54061" lon="6.06958">
        <ele>986</ele>
        <time>2011-08-23T07:03:35.000Z</time>
      </trkpt>
      <trkpt lat="45.54057" lon="6.06996">
        <ele>991.59997558594</ele>
        <time>2011-08-23T07:03:42.000Z</time>
      </trkpt>
      <trkpt lat="45.54056" lon="6.07031">
        <ele>994.79998779297</ele>
        <time>2011-08-23T07:03:48.000Z</time>
      </trkpt>
      <trkpt lat="45.54055" lon="6.07037">
        <ele>995.40002441406</ele>
        <time>2011-08-23T07:03:49.000Z</time>
      </trkpt>
      <trkpt lat="45.5405" lon="6.07072">
        <ele>998.40002441406</ele>
        <time>2011-08-23T07:03:56.000Z</time>
      </trkpt>
      <trkpt lat="45.54043" lon="6.07097">
        <ele>998.40002441406</ele>
        <time>2011-08-23T07:04:02.000Z</time>
      </trkpt>
      <trkpt lat="45.54031" lon="6.07116">
        <ele>996.59997558594</ele>
        <time>2011-08-23T07:04:09.000Z</time>
      </trkpt>
      <trkpt lat="45.54017" lon="6.07129">
        <ele>994.79998779297</ele>
        <time>2011-08-23T07:04:16.000Z</time>
      </trkpt>
      <trkpt lat="45.54001" lon="6.07142">
        <ele>992.20001220703</ele>
        <time>2011-08-23T07:04:24.000Z</time>
      </trkpt>
      <trkpt lat="45.53987" lon="6.07149">
        <ele>990.40002441406</ele>
        <time>2011-08-23T07:04:31.000Z</time>
      </trkpt>
      <trkpt lat="45.53969" lon="6.07149">
        <ele>989.20001220703</ele>
        <time>2011-08-23T07:04:39.000Z</time>
      </trkpt>
      <trkpt lat="45.53953" lon="6.07133">
        <ele>991.20001220703</ele>
        <time>2011-08-23T07:04:47.000Z</time>
      </trkpt>
      <trkpt lat="45.53942" lon="6.0711">
        <ele>996</ele>
        <time>2011-08-23T07:04:55.000Z</time>
      </trkpt>
      <trkpt lat="45.53936" lon="6.07093">
        <ele>1000</ele>
        <time>2011-08-23T07:05:00.000Z</time>
      </trkpt>
      <trkpt lat="45.53932" lon="6.07081">
        <ele>1002.5999755859</ele>
        <time>2011-08-23T07:05:04.000Z</time>
      </trkpt>
      <trkpt lat="45.53925" lon="6.0707">
        <ele>1004.799987793</ele>
        <time>2011-08-23T07:05:08.000Z</time>
      </trkpt>
      <trkpt lat="45.53909" lon="6.07056">
        <ele>1006.799987793</ele>
        <time>2011-08-23T07:05:14.000Z</time>
      </trkpt>
      <trkpt lat="45.53893" lon="6.07051">
        <ele>1005.5999755859</ele>
        <time>2011-08-23T07:05:20.000Z</time>
      </trkpt>
      <trkpt lat="45.5388" lon="6.07045">
        <ele>1005</ele>
        <time>2011-08-23T07:05:26.000Z</time>
      </trkpt>
      <trkpt lat="45.53869" lon="6.07033">
        <ele>1006.200012207</ele>
        <time>2011-08-23T07:05:32.000Z</time>
      </trkpt>
      <trkpt lat="45.53862" lon="6.07019">
        <ele>1008.5999755859</ele>
        <time>2011-08-23T07:05:37.000Z</time>
      </trkpt>
      <trkpt lat="45.53854" lon="6.07004">
        <ele>1011</ele>
        <time>2011-08-23T07:05:42.000Z</time>
      </trkpt>
      <trkpt lat="45.53846" lon="6.06991">
        <ele>1012</ele>
        <time>2011-08-23T07:05:46.000Z</time>
      </trkpt>
      <trkpt lat="45.53837" lon="6.06978">
        <ele>1012.4000244141</ele>
        <time>2011-08-23T07:05:51.000Z</time>
      </trkpt>
      <trkpt lat="45.53824" lon="6.0696">
        <ele>1013</ele>
        <time>2011-08-23T07:05:57.000Z</time>
      </trkpt>
      <trkpt lat="45.5381" lon="6.06935">
        <ele>1014.5999755859</ele>
        <time>2011-08-23T07:06:03.000Z</time>
      </trkpt>
      <trkpt lat="45.53804" lon="6.06909">
        <ele>1017</ele>
        <time>2011-08-23T07:06:08.000Z</time>
      </trkpt>
      <trkpt lat="45.53795" lon="6.06883">
        <ele>1017.799987793</ele>
        <time>2011-08-23T07:06:13.000Z</time>
      </trkpt>
      <trkpt lat="45.53787" lon="6.06875">
        <ele>1018.200012207</ele>
        <time>2011-08-23T07:06:15.000Z</time>
      </trkpt>
      <trkpt lat="45.53768" lon="6.06866">
        <ele>1019.200012207</ele>
        <time>2011-08-23T07:06:19.000Z</time>
      </trkpt>
      <trkpt lat="45.53742" lon="6.06866">
        <ele>1020.4000244141</ele>
        <time>2011-08-23T07:06:25.000Z</time>
      </trkpt>
      <trkpt lat="45.53716" lon="6.06867">
        <ele>1023.200012207</ele>
        <time>2011-08-23T07:06:32.000Z</time>
      </trkpt>
      <trkpt lat="45.53712" lon="6.06869">
        <ele>1023.4000244141</ele>
        <time>2011-08-23T07:06:33.000Z</time>
      </trkpt>
      <trkpt lat="45.5369" lon="6.06877">
        <ele>1023.5999755859</ele>
        <time>2011-08-23T07:06:39.000Z</time>
      </trkpt>
      <trkpt lat="45.53668" lon="6.06878">
        <ele>1025.5999755859</ele>
        <time>2011-08-23T07:06:45.000Z</time>
      </trkpt>
      <trkpt lat="45.53644" lon="6.06876">
        <ele>1027.5999755859</ele>
        <time>2011-08-23T07:06:51.000Z</time>
      </trkpt>
      <trkpt lat="45.53629" lon="6.06875">
        <ele>1028.8000488281</ele>
        <time>2011-08-23T07:06:55.000Z</time>
      </trkpt>
      <trkpt lat="45.53609" lon="6.06874">
        <ele>1030.5999755859</ele>
        <time>2011-08-23T07:07:00.000Z</time>
      </trkpt>
      <trkpt lat="45.53594" lon="6.0687">
        <ele>1033.1999511719</ele>
        <time>2011-08-23T07:07:04.000Z</time>
      </trkpt>
      <trkpt lat="45.53571" lon="6.0687">
        <ele>1034</ele>
        <time>2011-08-23T07:07:10.000Z</time>
      </trkpt>
      <trkpt lat="45.53552" lon="6.06871">
        <ele>1033.8000488281</ele>
        <time>2011-08-23T07:07:15.000Z</time>
      </trkpt>
      <trkpt lat="45.53532" lon="6.06869">
        <ele>1034.8000488281</ele>
        <time>2011-08-23T07:07:20.000Z</time>
      </trkpt>
      <trkpt lat="45.5351" lon="6.06868">
        <ele>1035.5999755859</ele>
        <time>2011-08-23T07:07:26.000Z</time>
      </trkpt>
      <trkpt lat="45.53493" lon="6.0687">
        <ele>1035</ele>
        <time>2011-08-23T07:07:31.000Z</time>
      </trkpt>
      <trkpt lat="45.53464" lon="6.0687">
        <ele>1036.4000244141</ele>
        <time>2011-08-23T07:07:39.000Z</time>
      </trkpt>
      <trkpt lat="45.53448" lon="6.0686">
        <ele>1040.5999755859</ele>
        <time>2011-08-23T07:07:43.000Z</time>
      </trkpt>
      <trkpt lat="45.5343" lon="6.06853">
        <ele>1043.8000488281</ele>
        <time>2011-08-23T07:07:48.000Z</time>
      </trkpt>
      <trkpt lat="45.53403" lon="6.06856">
        <ele>1044</ele>
        <time>2011-08-23T07:07:55.000Z</time>
      </trkpt>
      <trkpt lat="45.53389" lon="6.06853">
        <ele>1045.5999755859</ele>
        <time>2011-08-23T07:07:59.000Z</time>
      </trkpt>
      <trkpt lat="45.53371" lon="6.06847">
        <ele>1048.1999511719</ele>
        <time>2011-08-23T07:08:04.000Z</time>
      </trkpt>
      <trkpt lat="45.53344" lon="6.0685">
        <ele>1048.4000244141</ele>
        <time>2011-08-23T07:08:11.000Z</time>
      </trkpt>
      <trkpt lat="45.5333" lon="6.06852">
        <ele>1048.4000244141</ele>
        <time>2011-08-23T07:08:15.000Z</time>
      </trkpt>
      <trkpt lat="45.5331" lon="6.06853">
        <ele>1049.1999511719</ele>
        <time>2011-08-23T07:08:20.000Z</time>
      </trkpt>
      <trkpt lat="45.53293" lon="6.06847">
        <ele>1051.1999511719</ele>
        <time>2011-08-23T07:08:25.000Z</time>
      </trkpt>
      <trkpt lat="45.53275" lon="6.06837">
        <ele>1053.5999755859</ele>
        <time>2011-08-23T07:08:30.000Z</time>
      </trkpt>
      <trkpt lat="45.53253" lon="6.06825">
        <ele>1057</ele>
        <time>2011-08-23T07:08:35.000Z</time>
      </trkpt>
      <trkpt lat="45.53249" lon="6.06823">
        <ele>1057.5999755859</ele>
        <time>2011-08-23T07:08:36.000Z</time>
      </trkpt>
      <trkpt lat="45.53234" lon="6.06816">
        <ele>1057.8000488281</ele>
        <time>2011-08-23T07:08:40.000Z</time>
      </trkpt>
      <trkpt lat="45.53214" lon="6.06803">
        <ele>1058.1999511719</ele>
        <time>2011-08-23T07:08:46.000Z</time>
      </trkpt>
      <trkpt lat="45.53201" lon="6.06793">
        <ele>1057.8000488281</ele>
        <time>2011-08-23T07:08:50.000Z</time>
      </trkpt>
      <trkpt lat="45.53185" lon="6.06785">
        <ele>1056</ele>
        <time>2011-08-23T07:08:55.000Z</time>
      </trkpt>
      <trkpt lat="45.5318" lon="6.06786">
        <ele>1055.1999511719</ele>
        <time>2011-08-23T07:08:57.000Z</time>
      </trkpt>
      <trkpt lat="45.53165" lon="6.06788">
        <ele>1052.5999755859</ele>
        <time>2011-08-23T07:09:02.000Z</time>
      </trkpt>
      <trkpt lat="45.5315" lon="6.06799">
        <ele>1049.5999755859</ele>
        <time>2011-08-23T07:09:06.000Z</time>
      </trkpt>
      <trkpt lat="45.53138" lon="6.06806">
        <ele>1047.1999511719</ele>
        <time>2011-08-23T07:09:13.000Z</time>
      </trkpt>
      <trkpt lat="45.53136" lon="6.06804">
        <ele>1046.8000488281</ele>
        <time>2011-08-23T07:09:14.000Z</time>
      </trkpt>
      <trkpt lat="45.53111" lon="6.06783">
        <ele>1041.5999755859</ele>
        <time>2011-08-23T07:09:20.000Z</time>
      </trkpt>
      <trkpt lat="45.53097" lon="6.06776">
        <ele>1038.4000244141</ele>
        <time>2011-08-23T07:09:23.000Z</time>
      </trkpt>
      <trkpt lat="45.5307" lon="6.0676">
        <ele>1034.1999511719</ele>
        <time>2011-08-23T07:09:29.000Z</time>
      </trkpt>
      <trkpt lat="45.53052" lon="6.06744">
        <ele>1033</ele>
        <time>2011-08-23T07:09:32.000Z</time>
      </trkpt>
      <trkpt lat="45.53044" lon="6.06734">
        <ele>1032.1999511719</ele>
        <time>2011-08-23T07:09:34.000Z</time>
      </trkpt>
      <trkpt lat="45.53035" lon="6.06722">
        <ele>1031</ele>
        <time>2011-08-23T07:09:36.000Z</time>
      </trkpt>
      <trkpt lat="45.53016" lon="6.06683">
        <ele>1026</ele>
        <time>2011-08-23T07:09:42.000Z</time>
      </trkpt>
      <trkpt lat="45.53004" lon="6.0666">
        <ele>1021.4000244141</ele>
        <time>2011-08-23T07:09:46.000Z</time>
      </trkpt>
      <trkpt lat="45.52993" lon="6.06652">
        <ele>1019.200012207</ele>
        <time>2011-08-23T07:09:50.000Z</time>
      </trkpt>
      <trkpt lat="45.52988" lon="6.06649">
        <ele>1018.4000244141</ele>
        <time>2011-08-23T07:09:52.000Z</time>
      </trkpt>
      <trkpt lat="45.52984" lon="6.06641">
        <ele>1016.799987793</ele>
        <time>2011-08-23T07:09:55.000Z</time>
      </trkpt>
      <trkpt lat="45.52965" lon="6.0663">
        <ele>1013.4000244141</ele>
        <time>2011-08-23T07:10:01.000Z</time>
      </trkpt>
      <trkpt lat="45.5296" lon="6.06626">
        <ele>1012.200012207</ele>
        <time>2011-08-23T07:10:03.000Z</time>
      </trkpt>
      <trkpt lat="45.52945" lon="6.06615">
        <ele>1008.5999755859</ele>
        <time>2011-08-23T07:10:08.000Z</time>
      </trkpt>
      <trkpt lat="45.5294" lon="6.0661">
        <ele>1007</ele>
        <time>2011-08-23T07:10:11.000Z</time>
      </trkpt>
      <trkpt lat="45.52931" lon="6.06605">
        <ele>1005</ele>
        <time>2011-08-23T07:10:17.000Z</time>
      </trkpt>
      <trkpt lat="45.52919" lon="6.06591">
        <ele>1000.200012207</ele>
        <time>2011-08-23T07:10:21.000Z</time>
      </trkpt>
      <trkpt lat="45.52913" lon="6.0658">
        <ele>997.20001220703</ele>
        <time>2011-08-23T07:10:25.000Z</time>
      </trkpt>
      <trkpt lat="45.52905" lon="6.06558">
        <ele>992.59997558594</ele>
        <time>2011-08-23T07:10:31.000Z</time>
      </trkpt>
      <trkpt lat="45.529" lon="6.06538">
        <ele>987.79998779297</ele>
        <time>2011-08-23T07:10:37.000Z</time>
      </trkpt>
      <trkpt lat="45.52898" lon="6.06524">
        <ele>984.59997558594</ele>
        <time>2011-08-23T07:10:43.000Z</time>
      </trkpt>
      <trkpt lat="45.52898" lon="6.06521">
        <ele>984</ele>
        <time>2011-08-23T07:10:49.000Z</time>
      </trkpt>
      <trkpt lat="45.529" lon="6.06521">
        <ele>983.59997558594</ele>
        <time>2011-08-23T07:10:57.000Z</time>
      </trkpt>
      <trkpt lat="45.52908" lon="6.06513">
        <ele>980.40002441406</ele>
        <time>2011-08-23T07:11:02.000Z</time>
      </trkpt>
      <trkpt lat="45.52908" lon="6.06509">
        <ele>979.59997558594</ele>
        <time>2011-08-23T07:11:03.000Z</time>
      </trkpt>
      <trkpt lat="45.52913" lon="6.06506">
        <ele>978</ele>
        <time>2011-08-23T07:11:06.000Z</time>
      </trkpt>
      <trkpt lat="45.52919" lon="6.06489">
        <ele>973.40002441406</ele>
        <time>2011-08-23T07:11:12.000Z</time>
      </trkpt>
      <trkpt lat="45.52923" lon="6.06477">
        <ele>971</ele>
        <time>2011-08-23T07:11:16.000Z</time>
      </trkpt>
      <trkpt lat="45.52919" lon="6.0646">
        <ele>965.79998779297</ele>
        <time>2011-08-23T07:11:22.000Z</time>
      </trkpt>
      <trkpt lat="45.52918" lon="6.06458">
        <ele>965</ele>
        <time>2011-08-23T07:11:23.000Z</time>
      </trkpt>
      <trkpt lat="45.52917" lon="6.06456">
        <ele>964.20001220703</ele>
        <time>2011-08-23T07:11:26.000Z</time>
      </trkpt>
      <trkpt lat="45.52911" lon="6.06441">
        <ele>960.79998779297</ele>
        <time>2011-08-23T07:11:32.000Z</time>
      </trkpt>
      <trkpt lat="45.52906" lon="6.06435">
        <ele>959.79998779297</ele>
        <time>2011-08-23T07:11:35.000Z</time>
      </trkpt>
      <trkpt lat="45.52902" lon="6.06438">
        <ele>961</ele>
        <time>2011-08-23T07:11:42.000Z</time>
      </trkpt>
      <trkpt lat="45.52901" lon="6.06438">
        <ele>961</ele>
        <time>2011-08-23T07:11:46.000Z</time>
      </trkpt>
      <trkpt lat="45.52899" lon="6.06435">
        <ele>960.59997558594</ele>
        <time>2011-08-23T07:11:48.000Z</time>
      </trkpt>
      <trkpt lat="45.52892" lon="6.06425">
        <ele>958.40002441406</ele>
        <time>2011-08-23T07:11:54.000Z</time>
      </trkpt>
      <trkpt lat="45.5289" lon="6.06423">
        <ele>958.20001220703</ele>
        <time>2011-08-23T07:11:56.000Z</time>
      </trkpt>
      <trkpt lat="45.52882" lon="6.06416">
        <ele>956.40002441406</ele>
        <time>2011-08-23T07:12:01.000Z</time>
      </trkpt>
      <trkpt lat="45.52875" lon="6.06412">
        <ele>955.79998779297</ele>
        <time>2011-08-23T07:12:04.000Z</time>
      </trkpt>
      <trkpt lat="45.5286" lon="6.06394">
        <ele>950.59997558594</ele>
        <time>2011-08-23T07:12:10.000Z</time>
      </trkpt>
      <trkpt lat="45.52845" lon="6.06378">
        <ele>945.79998779297</ele>
        <time>2011-08-23T07:12:15.000Z</time>
      </trkpt>
      <trkpt lat="45.52838" lon="6.0637">
        <ele>943.20001220703</ele>
        <time>2011-08-23T07:12:18.000Z</time>
      </trkpt>
      <trkpt lat="45.52834" lon="6.06369">
        <ele>943</ele>
        <time>2011-08-23T07:12:26.000Z</time>
      </trkpt>
      <trkpt lat="45.52828" lon="6.06368">
        <ele>943.20001220703</ele>
        <time>2011-08-23T07:12:50.000Z</time>
      </trkpt>
      <trkpt lat="45.52831" lon="6.06372">
        <ele>944.20001220703</ele>
        <time>2011-08-23T07:14:13.000Z</time>
      </trkpt>
      <trkpt lat="45.52829" lon="6.06359">
        <ele>939.59997558594</ele>
        <time>2011-08-23T07:14:20.000Z</time>
      </trkpt>
      <trkpt lat="45.52829" lon="6.06356">
        <ele>938.79998779297</ele>
        <time>2011-08-23T07:14:21.000Z</time>
      </trkpt>
      <trkpt lat="45.52826" lon="6.06345">
        <ele>935</ele>
        <time>2011-08-23T07:14:25.000Z</time>
      </trkpt>
      <trkpt lat="45.52823" lon="6.06333">
        <ele>930.79998779297</ele>
        <time>2011-08-23T07:14:29.000Z</time>
      </trkpt>
      <trkpt lat="45.52815" lon="6.06323">
        <ele>928.20001220703</ele>
        <time>2011-08-23T07:14:35.000Z</time>
      </trkpt>
      <trkpt lat="45.52808" lon="6.06313">
        <ele>925.79998779297</ele>
        <time>2011-08-23T07:14:39.000Z</time>
      </trkpt>
      <trkpt lat="45.52796" lon="6.06301">
        <ele>923.20001220703</ele>
        <time>2011-08-23T07:14:43.000Z</time>
      </trkpt>
      <trkpt lat="45.52789" lon="6.06279">
        <ele>917.20001220703</ele>
        <time>2011-08-23T07:14:48.000Z</time>
      </trkpt>
      <trkpt lat="45.52788" lon="6.0626">
        <ele>911.59997558594</ele>
        <time>2011-08-23T07:14:53.000Z</time>
      </trkpt>
      <trkpt lat="45.52787" lon="6.0624">
        <ele>905.79998779297</ele>
        <time>2011-08-23T07:15:00.000Z</time>
      </trkpt>
      <trkpt lat="45.52772" lon="6.06231">
        <ele>905.20001220703</ele>
        <time>2011-08-23T07:15:05.000Z</time>
      </trkpt>
      <trkpt lat="45.52769" lon="6.06224">
        <ele>903.40002441406</ele>
        <time>2011-08-23T07:15:09.000Z</time>
      </trkpt>
      <trkpt lat="45.52776" lon="6.0622">
        <ele>901.79998779297</ele>
        <time>2011-08-23T07:15:14.000Z</time>
      </trkpt>
      <trkpt lat="45.52785" lon="6.06218">
        <ele>900.40002441406</ele>
        <time>2011-08-23T07:15:19.000Z</time>
      </trkpt>
      <trkpt lat="45.52798" lon="6.06214">
        <ele>898</ele>
        <time>2011-08-23T07:15:24.000Z</time>
      </trkpt>
      <trkpt lat="45.52818" lon="6.06205">
        <ele>894.20001220703</ele>
        <time>2011-08-23T07:15:29.000Z</time>
      </trkpt>
      <trkpt lat="45.52835" lon="6.06193">
        <ele>891</ele>
        <time>2011-08-23T07:15:33.000Z</time>
      </trkpt>
      <trkpt lat="45.52839" lon="6.06168">
        <ele>886.59997558594</ele>
        <time>2011-08-23T07:15:37.000Z</time>
      </trkpt>
      <trkpt lat="45.52831" lon="6.06151">
        <ele>885.20001220703</ele>
        <time>2011-08-23T07:15:40.000Z</time>
      </trkpt>
      <trkpt lat="45.52818" lon="6.06148">
        <ele>885</ele>
        <time>2011-08-23T07:15:43.000Z</time>
      </trkpt>
      <trkpt lat="45.52816" lon="6.06149">
        <ele>885</ele>
        <time>2011-08-23T07:15:44.000Z</time>
      </trkpt>
      <trkpt lat="45.52803" lon="6.06154">
        <ele>885.40002441406</ele>
        <time>2011-08-23T07:15:47.000Z</time>
      </trkpt>
      <trkpt lat="45.52788" lon="6.06154">
        <ele>885.59997558594</ele>
        <time>2011-08-23T07:15:51.000Z</time>
      </trkpt>
      <trkpt lat="45.5278" lon="6.06154">
        <ele>885.59997558594</ele>
        <time>2011-08-23T07:15:55.000Z</time>
      </trkpt>
      <trkpt lat="45.52772" lon="6.06157">
        <ele>885.79998779297</ele>
        <time>2011-08-23T07:15:59.000Z</time>
      </trkpt>
      <trkpt lat="45.52763" lon="6.06168">
        <ele>887.20001220703</ele>
        <time>2011-08-23T07:16:03.000Z</time>
      </trkpt>
      <trkpt lat="45.52753" lon="6.06169">
        <ele>887.79998779297</ele>
        <time>2011-08-23T07:16:07.000Z</time>
      </trkpt>
      <trkpt lat="45.52746" lon="6.06163">
        <ele>887.59997558594</ele>
        <time>2011-08-23T07:16:12.000Z</time>
      </trkpt>
      <trkpt lat="45.52747" lon="6.06166">
        <ele>887.59997558594</ele>
        <time>2011-08-23T07:16:17.000Z</time>
      </trkpt>
      <trkpt lat="45.52754" lon="6.06169">
        <ele>887.59997558594</ele>
        <time>2011-08-23T07:16:20.000Z</time>
      </trkpt>
      <trkpt lat="45.52762" lon="6.06172">
        <ele>888.40002441406</ele>
        <time>2011-08-23T07:16:23.000Z</time>
      </trkpt>
      <trkpt lat="45.52772" lon="6.06164">
        <ele>886.40002441406</ele>
        <time>2011-08-23T07:16:27.000Z</time>
      </trkpt>
      <trkpt lat="45.52789" lon="6.06158">
        <ele>885.79998779297</ele>
        <time>2011-08-23T07:16:32.000Z</time>
      </trkpt>
      <trkpt lat="45.52812" lon="6.06156">
        <ele>885.40002441406</ele>
        <time>2011-08-23T07:16:40.000Z</time>
      </trkpt>
      <trkpt lat="45.52826" lon="6.06144">
        <ele>884.79998779297</ele>
        <time>2011-08-23T07:16:46.000Z</time>
      </trkpt>
      <trkpt lat="45.52829" lon="6.06137">
        <ele>884.40002441406</ele>
        <time>2011-08-23T07:16:48.000Z</time>
      </trkpt>
      <trkpt lat="45.52822" lon="6.06117">
        <ele>883.40002441406</ele>
        <time>2011-08-23T07:16:53.000Z</time>
      </trkpt>
      <trkpt lat="45.52812" lon="6.06088">
        <ele>881.40002441406</ele>
        <time>2011-08-23T07:16:58.000Z</time>
      </trkpt>
      <trkpt lat="45.52803" lon="6.06067">
        <ele>881.20001220703</ele>
        <time>2011-08-23T07:17:03.000Z</time>
      </trkpt>
      <trkpt lat="45.5279" lon="6.06028">
        <ele>882.79998779297</ele>
        <time>2011-08-23T07:17:09.000Z</time>
      </trkpt>
      <trkpt lat="45.52783" lon="6.05989">
        <ele>885.59997558594</ele>
        <time>2011-08-23T07:17:15.000Z</time>
      </trkpt>
      <trkpt lat="45.52781" lon="6.05971">
        <ele>887.59997558594</ele>
        <time>2011-08-23T07:17:20.000Z</time>
      </trkpt>
      <trkpt lat="45.52783" lon="6.0596">
        <ele>888.59997558594</ele>
        <time>2011-08-23T07:17:26.000Z</time>
      </trkpt>
      <trkpt lat="45.52783" lon="6.05958">
        <ele>888.59997558594</ele>
        <time>2011-08-23T07:17:27.000Z</time>
      </trkpt>
      <trkpt lat="45.52783" lon="6.05952">
        <ele>889.20001220703</ele>
        <time>2011-08-23T07:17:31.000Z</time>
      </trkpt>
      <trkpt lat="45.52783" lon="6.05958">
        <ele>888.59997558594</ele>
        <time>2011-08-23T07:17:35.000Z</time>
      </trkpt>
      <trkpt lat="45.52784" lon="6.05961">
        <ele>888.20001220703</ele>
        <time>2011-08-23T07:17:42.000Z</time>
      </trkpt>
      <trkpt lat="45.52786" lon="6.05974">
        <ele>886.59997558594</ele>
        <time>2011-08-23T07:18:14.000Z</time>
      </trkpt>
      <trkpt lat="45.52791" lon="6.06002">
        <ele>883.79998779297</ele>
        <time>2011-08-23T07:18:18.000Z</time>
      </trkpt>
      <trkpt lat="45.52802" lon="6.06054">
        <ele>881.59997558594</ele>
        <time>2011-08-23T07:18:24.000Z</time>
      </trkpt>
      <trkpt lat="45.52817" lon="6.06093">
        <ele>881.79998779297</ele>
        <time>2011-08-23T07:18:30.000Z</time>
      </trkpt>
      <trkpt lat="45.52829" lon="6.06119">
        <ele>883.59997558594</ele>
        <time>2011-08-23T07:18:36.000Z</time>
      </trkpt>
      <trkpt lat="45.52835" lon="6.0613">
        <ele>884.20001220703</ele>
        <time>2011-08-23T07:18:40.000Z</time>
      </trkpt>
      <trkpt lat="45.52833" lon="6.0614">
        <ele>884.59997558594</ele>
        <time>2011-08-23T07:18:47.000Z</time>
      </trkpt>
      <trkpt lat="45.52821" lon="6.06153">
        <ele>885.20001220703</ele>
        <time>2011-08-23T07:18:55.000Z</time>
      </trkpt>
      <trkpt lat="45.52806" lon="6.06159">
        <ele>885.79998779297</ele>
        <time>2011-08-23T07:19:02.000Z</time>
      </trkpt>
      <trkpt lat="45.52785" lon="6.06157">
        <ele>885.79998779297</ele>
        <time>2011-08-23T07:19:08.000Z</time>
      </trkpt>
      <trkpt lat="45.52777" lon="6.06157">
        <ele>885.79998779297</ele>
        <time>2011-08-23T07:19:12.000Z</time>
      </trkpt>
      <trkpt lat="45.52777" lon="6.0616">
        <ele>886</ele>
        <time>2011-08-23T07:19:16.000Z</time>
      </trkpt>
      <trkpt lat="45.52785" lon="6.06157">
        <ele>885.79998779297</ele>
        <time>2011-08-23T07:19:19.000Z</time>
      </trkpt>
      <trkpt lat="45.52797" lon="6.06161">
        <ele>886</ele>
        <time>2011-08-23T07:19:23.000Z</time>
      </trkpt>
      <trkpt lat="45.528" lon="6.06174">
        <ele>888</ele>
        <time>2011-08-23T07:19:28.000Z</time>
      </trkpt>
      <trkpt lat="45.52801" lon="6.06179">
        <ele>889.20001220703</ele>
        <time>2011-08-23T07:19:30.000Z</time>
      </trkpt>
      <trkpt lat="45.52804" lon="6.06192">
        <ele>892.20001220703</ele>
        <time>2011-08-23T07:19:37.000Z</time>
      </trkpt>
      <trkpt lat="45.52811" lon="6.06203">
        <ele>894.40002441406</ele>
        <time>2011-08-23T07:19:44.000Z</time>
      </trkpt>
      <trkpt lat="45.52808" lon="6.06209">
        <ele>896</ele>
        <time>2011-08-23T07:19:51.000Z</time>
      </trkpt>
      <trkpt lat="45.52806" lon="6.06213">
        <ele>897.20001220703</ele>
        <time>2011-08-23T07:19:59.000Z</time>
      </trkpt>
      <trkpt lat="45.52801" lon="6.06215">
        <ele>898</ele>
        <time>2011-08-23T07:20:04.000Z</time>
      </trkpt>
      <trkpt lat="45.52799" lon="6.06215">
        <ele>898</ele>
        <time>2011-08-23T07:20:05.000Z</time>
      </trkpt>
      <trkpt lat="45.52795" lon="6.06215">
        <ele>898.59997558594</ele>
        <time>2011-08-23T07:20:11.000Z</time>
      </trkpt>
      <trkpt lat="45.52788" lon="6.06216">
        <ele>899.59997558594</ele>
        <time>2011-08-23T07:20:18.000Z</time>
      </trkpt>
      <trkpt lat="45.52786" lon="6.06218">
        <ele>900.20001220703</ele>
        <time>2011-08-23T07:20:22.000Z</time>
      </trkpt>
      <trkpt lat="45.52781" lon="6.0622">
        <ele>901</ele>
        <time>2011-08-23T07:20:27.000Z</time>
      </trkpt>
      <trkpt lat="45.52777" lon="6.0622">
        <ele>901.59997558594</ele>
        <time>2011-08-23T07:20:33.000Z</time>
      </trkpt>
      <trkpt lat="45.52772" lon="6.06219">
        <ele>902</ele>
        <time>2011-08-23T07:20:38.000Z</time>
      </trkpt>
      <trkpt lat="45.52768" lon="6.06224">
        <ele>903.59997558594</ele>
        <time>2011-08-23T07:20:51.000Z</time>
      </trkpt>
      <trkpt lat="45.52764" lon="6.06225">
        <ele>904.20001220703</ele>
        <time>2011-08-23T07:20:58.000Z</time>
      </trkpt>
      <trkpt lat="45.52758" lon="6.06223">
        <ele>904.40002441406</ele>
        <time>2011-08-23T07:21:05.000Z</time>
      </trkpt>
      <trkpt lat="45.52752" lon="6.06226">
        <ele>906</ele>
        <time>2011-08-23T07:21:12.000Z</time>
      </trkpt>
      <trkpt lat="45.52752" lon="6.06233">
        <ele>908.20001220703</ele>
        <time>2011-08-23T07:21:26.000Z</time>
      </trkpt>
      <trkpt lat="45.52749" lon="6.06237">
        <ele>910</ele>
        <time>2011-08-23T07:21:31.000Z</time>
      </trkpt>
      <trkpt lat="45.52749" lon="6.06238">
        <ele>910.20001220703</ele>
        <time>2011-08-23T07:21:32.000Z</time>
      </trkpt>
      <trkpt lat="45.52743" lon="6.06242">
        <ele>912.79998779297</ele>
        <time>2011-08-23T07:21:37.000Z</time>
      </trkpt>
      <trkpt lat="45.52735" lon="6.06246">
        <ele>916</ele>
        <time>2011-08-23T07:21:44.000Z</time>
      </trkpt>
      <trkpt lat="45.52728" lon="6.0625">
        <ele>918.79998779297</ele>
        <time>2011-08-23T07:21:50.000Z</time>
      </trkpt>
      <trkpt lat="45.52725" lon="6.0625">
        <ele>919.79998779297</ele>
        <time>2011-08-23T07:21:52.000Z</time>
      </trkpt>
      <trkpt lat="45.52721" lon="6.06251">
        <ele>920.59997558594</ele>
        <time>2011-08-23T07:21:55.000Z</time>
      </trkpt>
      <trkpt lat="45.52711" lon="6.06245">
        <ele>921.40002441406</ele>
        <time>2011-08-23T07:22:01.000Z</time>
      </trkpt>
      <trkpt lat="45.52705" lon="6.06239">
        <ele>920.79998779297</ele>
        <time>2011-08-23T07:22:06.000Z</time>
      </trkpt>
      <trkpt lat="45.52704" lon="6.06238">
        <ele>920.79998779297</ele>
        <time>2011-08-23T07:22:07.000Z</time>
      </trkpt>
      <trkpt lat="45.52693" lon="6.06229">
        <ele>920.59997558594</ele>
        <time>2011-08-23T07:22:14.000Z</time>
      </trkpt>
      <trkpt lat="45.52686" lon="6.06225">
        <ele>921</ele>
        <time>2011-08-23T07:22:19.000Z</time>
      </trkpt>
      <trkpt lat="45.52675" lon="6.0622">
        <ele>922.40002441406</ele>
        <time>2011-08-23T07:22:27.000Z</time>
      </trkpt>
      <trkpt lat="45.52665" lon="6.0622">
        <ele>924.79998779297</ele>
        <time>2011-08-23T07:22:36.000Z</time>
      </trkpt>
      <trkpt lat="45.52657" lon="6.06222">
        <ele>927.79998779297</ele>
        <time>2011-08-23T07:22:44.000Z</time>
      </trkpt>
      <trkpt lat="45.52649" lon="6.06226">
        <ele>931.59997558594</ele>
        <time>2011-08-23T07:22:52.000Z</time>
      </trkpt>
      <trkpt lat="45.52641" lon="6.06233">
        <ele>936.20001220703</ele>
        <time>2011-08-23T07:22:59.000Z</time>
      </trkpt>
      <trkpt lat="45.52629" lon="6.06233">
        <ele>940</ele>
        <time>2011-08-23T07:23:05.000Z</time>
      </trkpt>
      <trkpt lat="45.52625" lon="6.06231">
        <ele>940.59997558594</ele>
        <time>2011-08-23T07:23:07.000Z</time>
      </trkpt>
      <trkpt lat="45.52617" lon="6.06224">
        <ele>941.59997558594</ele>
        <time>2011-08-23T07:23:12.000Z</time>
      </trkpt>
      <trkpt lat="45.52612" lon="6.06221">
        <ele>942.40002441406</ele>
        <time>2011-08-23T07:23:14.000Z</time>
      </trkpt>
      <trkpt lat="45.52597" lon="6.06211">
        <ele>944.59997558594</ele>
        <time>2011-08-23T07:23:22.000Z</time>
      </trkpt>
      <trkpt lat="45.52585" lon="6.06201">
        <ele>946</ele>
        <time>2011-08-23T07:23:29.000Z</time>
      </trkpt>
      <trkpt lat="45.52574" lon="6.06195">
        <ele>948.20001220703</ele>
        <time>2011-08-23T07:23:34.000Z</time>
      </trkpt>
      <trkpt lat="45.5257" lon="6.06194">
        <ele>948.79998779297</ele>
        <time>2011-08-23T07:23:36.000Z</time>
      </trkpt>
      <trkpt lat="45.52553" lon="6.06182">
        <ele>951</ele>
        <time>2011-08-23T07:23:43.000Z</time>
      </trkpt>
      <trkpt lat="45.52537" lon="6.06166">
        <ele>951.79998779297</ele>
        <time>2011-08-23T07:23:47.000Z</time>
      </trkpt>
      <trkpt lat="45.52524" lon="6.06152">
        <ele>952</ele>
        <time>2011-08-23T07:23:50.000Z</time>
      </trkpt>
      <trkpt lat="45.52501" lon="6.06134">
        <ele>953.40002441406</ele>
        <time>2011-08-23T07:23:57.000Z</time>
      </trkpt>
      <trkpt lat="45.52491" lon="6.06119">
        <ele>952.79998779297</ele>
        <time>2011-08-23T07:24:03.000Z</time>
      </trkpt>
      <trkpt lat="45.52486" lon="6.06111">
        <ele>952.40002441406</ele>
        <time>2011-08-23T07:24:06.000Z</time>
      </trkpt>
      <trkpt lat="45.52476" lon="6.06104">
        <ele>953.59997558594</ele>
        <time>2011-08-23T07:24:12.000Z</time>
      </trkpt>
      <trkpt lat="45.52473" lon="6.06102">
        <ele>954.20001220703</ele>
        <time>2011-08-23T07:24:14.000Z</time>
      </trkpt>
      <trkpt lat="45.52463" lon="6.06096">
        <ele>955.79998779297</ele>
        <time>2011-08-23T07:24:21.000Z</time>
      </trkpt>
      <trkpt lat="45.52458" lon="6.06094">
        <ele>956.79998779297</ele>
        <time>2011-08-23T07:24:25.000Z</time>
      </trkpt>
      <trkpt lat="45.52453" lon="6.06091">
        <ele>957.79998779297</ele>
        <time>2011-08-23T07:24:29.000Z</time>
      </trkpt>
      <trkpt lat="45.52452" lon="6.0609">
        <ele>958</ele>
        <time>2011-08-23T07:24:30.000Z</time>
      </trkpt>
      <trkpt lat="45.5245" lon="6.06088">
        <ele>957.79998779297</ele>
        <time>2011-08-23T07:24:32.000Z</time>
      </trkpt>
      <trkpt lat="45.52448" lon="6.06087">
        <ele>958</ele>
        <time>2011-08-23T07:24:34.000Z</time>
      </trkpt>
      <trkpt lat="45.52442" lon="6.06082">
        <ele>959</ele>
        <time>2011-08-23T07:24:40.000Z</time>
      </trkpt>
      <trkpt lat="45.52435" lon="6.06076">
        <ele>960.20001220703</ele>
        <time>2011-08-23T07:24:46.000Z</time>
      </trkpt>
      <trkpt lat="45.52426" lon="6.06071">
        <ele>962</ele>
        <time>2011-08-23T07:24:52.000Z</time>
      </trkpt>
      <trkpt lat="45.52419" lon="6.06067">
        <ele>963</ele>
        <time>2011-08-23T07:24:56.000Z</time>
      </trkpt>
      <trkpt lat="45.52408" lon="6.06058">
        <ele>964.20001220703</ele>
        <time>2011-08-23T07:25:01.000Z</time>
      </trkpt>
      <trkpt lat="45.52396" lon="6.0605">
        <ele>965.40002441406</ele>
        <time>2011-08-23T07:25:06.000Z</time>
      </trkpt>
      <trkpt lat="45.52383" lon="6.06043">
        <ele>967</ele>
        <time>2011-08-23T07:25:12.000Z</time>
      </trkpt>
      <trkpt lat="45.52375" lon="6.06039">
        <ele>968</ele>
        <time>2011-08-23T07:25:18.000Z</time>
      </trkpt>
      <trkpt lat="45.52361" lon="6.06032">
        <ele>969.59997558594</ele>
        <time>2011-08-23T07:25:23.000Z</time>
      </trkpt>
      <trkpt lat="45.52348" lon="6.06032">
        <ele>972.79998779297</ele>
        <time>2011-08-23T07:25:29.000Z</time>
      </trkpt>
      <trkpt lat="45.52336" lon="6.0603">
        <ele>975.20001220703</ele>
        <time>2011-08-23T07:25:36.000Z</time>
      </trkpt>
      <trkpt lat="45.52328" lon="6.06029">
        <ele>976.79998779297</ele>
        <time>2011-08-23T07:25:40.000Z</time>
      </trkpt>
      <trkpt lat="45.52318" lon="6.0603">
        <ele>980.20001220703</ele>
        <time>2011-08-23T07:25:46.000Z</time>
      </trkpt>
      <trkpt lat="45.52308" lon="6.06027">
        <ele>982</ele>
        <time>2011-08-23T07:25:51.000Z</time>
      </trkpt>
      <trkpt lat="45.52297" lon="6.06025">
        <ele>984.20001220703</ele>
        <time>2011-08-23T07:25:56.000Z</time>
      </trkpt>
      <trkpt lat="45.52292" lon="6.06024">
        <ele>985.40002441406</ele>
        <time>2011-08-23T07:25:59.000Z</time>
      </trkpt>
      <trkpt lat="45.52285" lon="6.06024">
        <ele>987.20001220703</ele>
        <time>2011-08-23T07:26:02.000Z</time>
      </trkpt>
      <trkpt lat="45.52277" lon="6.06023">
        <ele>989.20001220703</ele>
        <time>2011-08-23T07:26:07.000Z</time>
      </trkpt>
      <trkpt lat="45.52272" lon="6.06022">
        <ele>990.20001220703</ele>
        <time>2011-08-23T07:26:11.000Z</time>
      </trkpt>
      <trkpt lat="45.5227" lon="6.06021">
        <ele>990.40002441406</ele>
        <time>2011-08-23T07:26:13.000Z</time>
      </trkpt>
      <trkpt lat="45.52258" lon="6.06013">
        <ele>991.40002441406</ele>
        <time>2011-08-23T07:26:19.000Z</time>
      </trkpt>
      <trkpt lat="45.52251" lon="6.0601">
        <ele>992.40002441406</ele>
        <time>2011-08-23T07:26:25.000Z</time>
      </trkpt>
      <trkpt lat="45.52244" lon="6.06007">
        <ele>993</ele>
        <time>2011-08-23T07:26:31.000Z</time>
      </trkpt>
      <trkpt lat="45.52237" lon="6.06004">
        <ele>993.59997558594</ele>
        <time>2011-08-23T07:26:37.000Z</time>
      </trkpt>
      <trkpt lat="45.52236" lon="6.06004">
        <ele>993.79998779297</ele>
        <time>2011-08-23T07:26:39.000Z</time>
      </trkpt>
      <trkpt lat="45.52232" lon="6.06004">
        <ele>994.59997558594</ele>
        <time>2011-08-23T07:26:44.000Z</time>
      </trkpt>
      <trkpt lat="45.52223" lon="6.05999">
        <ele>995.20001220703</ele>
        <time>2011-08-23T07:26:58.000Z</time>
      </trkpt>
      <trkpt lat="45.52217" lon="6.05998">
        <ele>996.40002441406</ele>
        <time>2011-08-23T07:27:02.000Z</time>
      </trkpt>
      <trkpt lat="45.52214" lon="6.05998">
        <ele>997</ele>
        <time>2011-08-23T07:27:04.000Z</time>
      </trkpt>
      <trkpt lat="45.52201" lon="6.05996">
        <ele>999.40002441406</ele>
        <time>2011-08-23T07:27:13.000Z</time>
      </trkpt>
      <trkpt lat="45.52193" lon="6.05996">
        <ele>1001.200012207</ele>
        <time>2011-08-23T07:27:18.000Z</time>
      </trkpt>
      <trkpt lat="45.52186" lon="6.05999">
        <ele>1002.799987793</ele>
        <time>2011-08-23T07:27:24.000Z</time>
      </trkpt>
      <trkpt lat="45.52181" lon="6.05999">
        <ele>1003.799987793</ele>
        <time>2011-08-23T07:27:29.000Z</time>
      </trkpt>
      <trkpt lat="45.52176" lon="6.05997">
        <ele>1004.799987793</ele>
        <time>2011-08-23T07:27:33.000Z</time>
      </trkpt>
      <trkpt lat="45.52172" lon="6.05995">
        <ele>1005.4000244141</ele>
        <time>2011-08-23T07:27:39.000Z</time>
      </trkpt>
      <trkpt lat="45.52166" lon="6.0599">
        <ele>1006.200012207</ele>
        <time>2011-08-23T07:27:44.000Z</time>
      </trkpt>
      <trkpt lat="45.52161" lon="6.05989">
        <ele>1006.799987793</ele>
        <time>2011-08-23T07:27:50.000Z</time>
      </trkpt>
      <trkpt lat="45.52159" lon="6.05987">
        <ele>1007</ele>
        <time>2011-08-23T07:28:33.000Z</time>
      </trkpt>
      <trkpt lat="45.5216" lon="6.05993">
        <ele>1007.200012207</ele>
        <time>2011-08-23T07:28:37.000Z</time>
      </trkpt>
      <trkpt lat="45.52169" lon="6.06004">
        <ele>1007</ele>
        <time>2011-08-23T07:28:44.000Z</time>
      </trkpt>
      <trkpt lat="45.52176" lon="6.06014">
        <ele>1007.200012207</ele>
        <time>2011-08-23T07:28:50.000Z</time>
      </trkpt>
      <trkpt lat="45.52178" lon="6.0602">
        <ele>1007.5999755859</ele>
        <time>2011-08-23T07:28:56.000Z</time>
      </trkpt>
      <trkpt lat="45.52181" lon="6.06026">
        <ele>1008</ele>
        <time>2011-08-23T07:29:04.000Z</time>
      </trkpt>
      <trkpt lat="45.52181" lon="6.06028">
        <ele>1008.5999755859</ele>
        <time>2011-08-23T07:29:06.000Z</time>
      </trkpt>
      <trkpt lat="45.52176" lon="6.06037">
        <ele>1010.4000244141</ele>
        <time>2011-08-23T07:29:15.000Z</time>
      </trkpt>
      <trkpt lat="45.52176" lon="6.06038">
        <ele>1010.799987793</ele>
        <time>2011-08-23T07:29:17.000Z</time>
      </trkpt>
      <trkpt lat="45.52175" lon="6.06044">
        <ele>1011.5999755859</ele>
        <time>2011-08-23T07:29:23.000Z</time>
      </trkpt>
      <trkpt lat="45.52173" lon="6.06051">
        <ele>1013</ele>
        <time>2011-08-23T07:29:31.000Z</time>
      </trkpt>
      <trkpt lat="45.52172" lon="6.06052">
        <ele>1013.200012207</ele>
        <time>2011-08-23T07:29:32.000Z</time>
      </trkpt>
      <trkpt lat="45.52171" lon="6.06054">
        <ele>1013.5999755859</ele>
        <time>2011-08-23T07:29:34.000Z</time>
      </trkpt>
      <trkpt lat="45.5217" lon="6.06056">
        <ele>1014</ele>
        <time>2011-08-23T07:29:37.000Z</time>
      </trkpt>
      <trkpt lat="45.52163" lon="6.06058">
        <ele>1014.5999755859</ele>
        <time>2011-08-23T07:29:45.000Z</time>
      </trkpt>
      <trkpt lat="45.52157" lon="6.06057">
        <ele>1014.5999755859</ele>
        <time>2011-08-23T07:29:53.000Z</time>
      </trkpt>
      <trkpt lat="45.52154" lon="6.06057">
        <ele>1014.5999755859</ele>
        <time>2011-08-23T07:29:57.000Z</time>
      </trkpt>
      <trkpt lat="45.52149" lon="6.06057">
        <ele>1014.799987793</ele>
        <time>2011-08-23T07:30:07.000Z</time>
      </trkpt>
      <trkpt lat="45.52144" lon="6.06058">
        <ele>1015</ele>
        <time>2011-08-23T07:30:18.000Z</time>
      </trkpt>
      <trkpt lat="45.52135" lon="6.06072">
        <ele>1016</ele>
        <time>2011-08-23T07:30:23.000Z</time>
      </trkpt>
      <trkpt lat="45.52132" lon="6.06077">
        <ele>1016.200012207</ele>
        <time>2011-08-23T07:30:25.000Z</time>
      </trkpt>
      <trkpt lat="45.52122" lon="6.06085">
        <ele>1016.4000244141</ele>
        <time>2011-08-23T07:30:30.000Z</time>
      </trkpt>
      <trkpt lat="45.52115" lon="6.06094">
        <ele>1016</ele>
        <time>2011-08-23T07:30:34.000Z</time>
      </trkpt>
      <trkpt lat="45.52109" lon="6.06102">
        <ele>1015.4000244141</ele>
        <time>2011-08-23T07:30:36.000Z</time>
      </trkpt>
      <trkpt lat="45.52102" lon="6.06107">
        <ele>1014.799987793</ele>
        <time>2011-08-23T07:30:42.000Z</time>
      </trkpt>
      <trkpt lat="45.52099" lon="6.06105">
        <ele>1014.5999755859</ele>
        <time>2011-08-23T07:30:51.000Z</time>
      </trkpt>
      <trkpt lat="45.52096" lon="6.06104">
        <ele>1014.4000244141</ele>
        <time>2011-08-23T07:31:00.000Z</time>
      </trkpt>
      <trkpt lat="45.52091" lon="6.06103">
        <ele>1014</ele>
        <time>2011-08-23T07:31:08.000Z</time>
      </trkpt>
      <trkpt lat="45.52095" lon="6.06105">
        <ele>1014.4000244141</ele>
        <time>2011-08-23T07:31:18.000Z</time>
      </trkpt>
      <trkpt lat="45.52096" lon="6.06103">
        <ele>1014.4000244141</ele>
        <time>2011-08-23T07:31:29.000Z</time>
      </trkpt>
      <trkpt lat="45.52095" lon="6.06102">
        <ele>1014.4000244141</ele>
        <time>2011-08-23T07:31:32.000Z</time>
      </trkpt>
      <trkpt lat="45.52097" lon="6.06103">
        <ele>1014.5999755859</ele>
        <time>2011-08-23T07:31:44.000Z</time>
      </trkpt>
      <trkpt lat="45.52089" lon="6.06105">
        <ele>1013.799987793</ele>
        <time>2011-08-23T07:32:10.000Z</time>
      </trkpt>
      <trkpt lat="45.52084" lon="6.06108">
        <ele>1013.200012207</ele>
        <time>2011-08-23T07:32:16.000Z</time>
      </trkpt>
      <trkpt lat="45.52082" lon="6.06109">
        <ele>1013</ele>
        <time>2011-08-23T07:32:19.000Z</time>
      </trkpt>
      <trkpt lat="45.52074" lon="6.06109">
        <ele>1012</ele>
        <time>2011-08-23T07:32:24.000Z</time>
      </trkpt>
      <trkpt lat="45.52066" lon="6.06108">
        <ele>1011.4000244141</ele>
        <time>2011-08-23T07:32:29.000Z</time>
      </trkpt>
      <trkpt lat="45.52058" lon="6.06101">
        <ele>1011.4000244141</ele>
        <time>2011-08-23T07:32:34.000Z</time>
      </trkpt>
      <trkpt lat="45.52046" lon="6.06092">
        <ele>1011.4000244141</ele>
        <time>2011-08-23T07:32:39.000Z</time>
      </trkpt>
      <trkpt lat="45.52038" lon="6.06084">
        <ele>1012</ele>
        <time>2011-08-23T07:32:43.000Z</time>
      </trkpt>
      <trkpt lat="45.52032" lon="6.06078">
        <ele>1012.5999755859</ele>
        <time>2011-08-23T07:32:46.000Z</time>
      </trkpt>
      <trkpt lat="45.52028" lon="6.06064">
        <ele>1014.200012207</ele>
        <time>2011-08-23T07:32:51.000Z</time>
      </trkpt>
      <trkpt lat="45.52024" lon="6.06059">
        <ele>1014.799987793</ele>
        <time>2011-08-23T07:32:54.000Z</time>
      </trkpt>
      <trkpt lat="45.52016" lon="6.0605">
        <ele>1016</ele>
        <time>2011-08-23T07:33:01.000Z</time>
      </trkpt>
      <trkpt lat="45.52016" lon="6.06048">
        <ele>1016.200012207</ele>
        <time>2011-08-23T07:33:03.000Z</time>
      </trkpt>
      <trkpt lat="45.52015" lon="6.06041">
        <ele>1017.200012207</ele>
        <time>2011-08-23T07:33:07.000Z</time>
      </trkpt>
      <trkpt lat="45.52014" lon="6.06039">
        <ele>1017.5999755859</ele>
        <time>2011-08-23T07:33:09.000Z</time>
      </trkpt>
      <trkpt lat="45.52015" lon="6.0603">
        <ele>1019</ele>
        <time>2011-08-23T07:33:16.000Z</time>
      </trkpt>
      <trkpt lat="45.52015" lon="6.06027">
        <ele>1019.5999755859</ele>
        <time>2011-08-23T07:33:19.000Z</time>
      </trkpt>
      <trkpt lat="45.52015" lon="6.06023">
        <ele>1020</ele>
        <time>2011-08-23T07:33:21.000Z</time>
      </trkpt>
      <trkpt lat="45.52017" lon="6.06015">
        <ele>1021.200012207</ele>
        <time>2011-08-23T07:33:26.000Z</time>
      </trkpt>
      <trkpt lat="45.52016" lon="6.06001">
        <ele>1023.4000244141</ele>
        <time>2011-08-23T07:33:32.000Z</time>
      </trkpt>
      <trkpt lat="45.52017" lon="6.05987">
        <ele>1026.1999511719</ele>
        <time>2011-08-23T07:33:38.000Z</time>
      </trkpt>
      <trkpt lat="45.52017" lon="6.0598">
        <ele>1027.8000488281</ele>
        <time>2011-08-23T07:33:43.000Z</time>
      </trkpt>
      <trkpt lat="45.52018" lon="6.0597">
        <ele>1029.5999755859</ele>
        <time>2011-08-23T07:33:52.000Z</time>
      </trkpt>
      <trkpt lat="45.52018" lon="6.05965">
        <ele>1030.8000488281</ele>
        <time>2011-08-23T07:33:56.000Z</time>
      </trkpt>
      <trkpt lat="45.52021" lon="6.0596">
        <ele>1031.1999511719</ele>
        <time>2011-08-23T07:34:02.000Z</time>
      </trkpt>
      <trkpt lat="45.52016" lon="6.05956">
        <ele>1033</ele>
        <time>2011-08-23T07:34:22.000Z</time>
      </trkpt>
      <trkpt lat="45.52017" lon="6.05954">
        <ele>1033.1999511719</ele>
        <time>2011-08-23T07:34:28.000Z</time>
      </trkpt>
      <trkpt lat="45.52017" lon="6.05953">
        <ele>1033.5999755859</ele>
        <time>2011-08-23T07:34:33.000Z</time>
      </trkpt>
      <trkpt lat="45.5202" lon="6.05949">
        <ele>1033.5999755859</ele>
        <time>2011-08-23T07:34:42.000Z</time>
      </trkpt>
      <trkpt lat="45.52027" lon="6.05944">
        <ele>1033.8000488281</ele>
        <time>2011-08-23T07:34:51.000Z</time>
      </trkpt>
      <trkpt lat="45.52032" lon="6.05937">
        <ele>1034.1999511719</ele>
        <time>2011-08-23T07:34:57.000Z</time>
      </trkpt>
      <trkpt lat="45.52036" lon="6.05933">
        <ele>1034.1999511719</ele>
        <time>2011-08-23T07:35:02.000Z</time>
      </trkpt>
      <trkpt lat="45.52037" lon="6.0593">
        <ele>1034.4000244141</ele>
        <time>2011-08-23T07:35:05.000Z</time>
      </trkpt>
      <trkpt lat="45.52037" lon="6.0592">
        <ele>1036.4000244141</ele>
        <time>2011-08-23T07:35:13.000Z</time>
      </trkpt>
      <trkpt lat="45.52035" lon="6.05916">
        <ele>1037.4000244141</ele>
        <time>2011-08-23T07:35:16.000Z</time>
      </trkpt>
      <trkpt lat="45.52033" lon="6.0591">
        <ele>1037.8000488281</ele>
        <time>2011-08-23T07:35:29.000Z</time>
      </trkpt>
      <trkpt lat="45.52029" lon="6.05908">
        <ele>1038.5999755859</ele>
        <time>2011-08-23T07:35:37.000Z</time>
      </trkpt>
      <trkpt lat="45.52025" lon="6.05905">
        <ele>1039.1999511719</ele>
        <time>2011-08-23T07:35:46.000Z</time>
      </trkpt>
      <trkpt lat="45.52024" lon="6.05904">
        <ele>1039.4000244141</ele>
        <time>2011-08-23T07:35:47.000Z</time>
      </trkpt>
      <trkpt lat="45.52011" lon="6.05898">
        <ele>1041.8000488281</ele>
        <time>2011-08-23T07:36:01.000Z</time>
      </trkpt>
      <trkpt lat="45.52009" lon="6.05894">
        <ele>1042.1999511719</ele>
        <time>2011-08-23T07:36:10.000Z</time>
      </trkpt>
      <trkpt lat="45.52005" lon="6.0589">
        <ele>1042.8000488281</ele>
        <time>2011-08-23T07:36:26.000Z</time>
      </trkpt>
      <trkpt lat="45.52002" lon="6.05889">
        <ele>1043.5999755859</ele>
        <time>2011-08-23T07:36:31.000Z</time>
      </trkpt>
      <trkpt lat="45.51999" lon="6.05885">
        <ele>1043.4000244141</ele>
        <time>2011-08-23T07:36:37.000Z</time>
      </trkpt>
      <trkpt lat="45.51988" lon="6.05883">
        <ele>1039.5999755859</ele>
        <time>2011-08-23T07:37:05.000Z</time>
      </trkpt>
      <trkpt lat="45.51985" lon="6.05879">
        <ele>1038.5999755859</ele>
        <time>2011-08-23T07:37:12.000Z</time>
      </trkpt>
      <trkpt lat="45.51982" lon="6.05875">
        <ele>1037.8000488281</ele>
        <time>2011-08-23T07:37:16.000Z</time>
      </trkpt>
      <trkpt lat="45.5198" lon="6.0587">
        <ele>1037.1999511719</ele>
        <time>2011-08-23T07:37:21.000Z</time>
      </trkpt>
      <trkpt lat="45.51978" lon="6.05867">
        <ele>1036.5999755859</ele>
        <time>2011-08-23T07:37:25.000Z</time>
      </trkpt>
      <trkpt lat="45.51976" lon="6.05863">
        <ele>1036.1999511719</ele>
        <time>2011-08-23T07:37:29.000Z</time>
      </trkpt>
      <trkpt lat="45.51973" lon="6.05859">
        <ele>1035.4000244141</ele>
        <time>2011-08-23T07:37:35.000Z</time>
      </trkpt>
      <trkpt lat="45.51971" lon="6.05858">
        <ele>1035</ele>
        <time>2011-08-23T07:37:37.000Z</time>
      </trkpt>
      <trkpt lat="45.51967" lon="6.05857">
        <ele>1034</ele>
        <time>2011-08-23T07:37:43.000Z</time>
      </trkpt>
      <trkpt lat="45.51966" lon="6.05855">
        <ele>1033.5999755859</ele>
        <time>2011-08-23T07:37:46.000Z</time>
      </trkpt>
      <trkpt lat="45.51964" lon="6.05853">
        <ele>1033.4000244141</ele>
        <time>2011-08-23T07:37:49.000Z</time>
      </trkpt>
      <trkpt lat="45.51954" lon="6.05845">
        <ele>1031.4000244141</ele>
        <time>2011-08-23T07:37:57.000Z</time>
      </trkpt>
      <trkpt lat="45.51951" lon="6.05843">
        <ele>1031</ele>
        <time>2011-08-23T07:38:00.000Z</time>
      </trkpt>
      <trkpt lat="45.51947" lon="6.05842">
        <ele>1030.1999511719</ele>
        <time>2011-08-23T07:38:05.000Z</time>
      </trkpt>
      <trkpt lat="45.51943" lon="6.05837">
        <ele>1029.8000488281</ele>
        <time>2011-08-23T07:38:14.000Z</time>
      </trkpt>
      <trkpt lat="45.51939" lon="6.05835">
        <ele>1029.1999511719</ele>
        <time>2011-08-23T07:38:19.000Z</time>
      </trkpt>
      <trkpt lat="45.51934" lon="6.05832">
        <ele>1028.4000244141</ele>
        <time>2011-08-23T07:38:25.000Z</time>
      </trkpt>
      <trkpt lat="45.51938" lon="6.05833">
        <ele>1029.1999511719</ele>
        <time>2011-08-23T07:38:34.000Z</time>
      </trkpt>
      <trkpt lat="45.51936" lon="6.05834">
        <ele>1028.8000488281</ele>
        <time>2011-08-23T07:38:42.000Z</time>
      </trkpt>
      <trkpt lat="45.51929" lon="6.05828">
        <ele>1027.4000244141</ele>
        <time>2011-08-23T07:39:25.000Z</time>
      </trkpt>
      <trkpt lat="45.51924" lon="6.05835">
        <ele>1026.1999511719</ele>
        <time>2011-08-23T07:39:31.000Z</time>
      </trkpt>
      <trkpt lat="45.51923" lon="6.05834">
        <ele>1026</ele>
        <time>2011-08-23T07:39:38.000Z</time>
      </trkpt>
      <trkpt lat="45.51925" lon="6.05836">
        <ele>1026</ele>
        <time>2011-08-23T07:39:47.000Z</time>
      </trkpt>
      <trkpt lat="45.51927" lon="6.05835">
        <ele>1026.5999755859</ele>
        <time>2011-08-23T07:39:53.000Z</time>
      </trkpt>
      <trkpt lat="45.51933" lon="6.05829">
        <ele>1028.1999511719</ele>
        <time>2011-08-23T07:39:59.000Z</time>
      </trkpt>
      <trkpt lat="45.51934" lon="6.05823">
        <ele>1028.1999511719</ele>
        <time>2011-08-23T07:40:04.000Z</time>
      </trkpt>
      <trkpt lat="45.51929" lon="6.05825">
        <ele>1027.4000244141</ele>
        <time>2011-08-23T07:40:11.000Z</time>
      </trkpt>
      <trkpt lat="45.51929" lon="6.05826">
        <ele>1027.1999511719</ele>
        <time>2011-08-23T07:40:12.000Z</time>
      </trkpt>
      <trkpt lat="45.51927" lon="6.0583">
        <ele>1027</ele>
        <time>2011-08-23T07:40:21.000Z</time>
      </trkpt>
      <trkpt lat="45.51926" lon="6.05831">
        <ele>1026.8000488281</ele>
        <time>2011-08-23T07:40:24.000Z</time>
      </trkpt>
      <trkpt lat="45.51921" lon="6.05835">
        <ele>1025.5999755859</ele>
        <time>2011-08-23T07:40:32.000Z</time>
      </trkpt>
      <trkpt lat="45.51915" lon="6.05832">
        <ele>1023.4000244141</ele>
        <time>2011-08-23T07:40:41.000Z</time>
      </trkpt>
      <trkpt lat="45.5191" lon="6.05828">
        <ele>1018.5999755859</ele>
        <time>2011-08-23T07:40:52.000Z</time>
      </trkpt>
      <trkpt lat="45.51905" lon="6.0583">
        <ele>1014.5999755859</ele>
        <time>2011-08-23T07:41:12.000Z</time>
      </trkpt>
      <trkpt lat="45.51905" lon="6.05828">
        <ele>1014.200012207</ele>
        <time>2011-08-23T07:41:19.000Z</time>
      </trkpt>
      <trkpt lat="45.51903" lon="6.0582">
        <ele>1012.4000244141</ele>
        <time>2011-08-23T07:41:26.000Z</time>
      </trkpt>
      <trkpt lat="45.519" lon="6.05819">
        <ele>1010.4000244141</ele>
        <time>2011-08-23T07:41:30.000Z</time>
      </trkpt>
      <trkpt lat="45.51897" lon="6.05814">
        <ele>1008</ele>
        <time>2011-08-23T07:41:37.000Z</time>
      </trkpt>
      <trkpt lat="45.51899" lon="6.05813">
        <ele>1009.200012207</ele>
        <time>2011-08-23T07:41:48.000Z</time>
      </trkpt>
      <trkpt lat="45.51899" lon="6.05813">
        <ele>1009.4000244141</ele>
        <time>2011-08-23T07:41:53.000Z</time>
      </trkpt>
      <trkpt lat="45.51906" lon="6.0582">
        <ele>1015.200012207</ele>
        <time>2011-08-23T07:42:02.000Z</time>
      </trkpt>
      <trkpt lat="45.51907" lon="6.05821">
        <ele>1016.5999755859</ele>
        <time>2011-08-23T07:42:05.000Z</time>
      </trkpt>
      <trkpt lat="45.51911" lon="6.05827">
        <ele>1019.4000244141</ele>
        <time>2011-08-23T07:42:13.000Z</time>
      </trkpt>
      <trkpt lat="45.51912" lon="6.0583">
        <ele>1020.799987793</ele>
        <time>2011-08-23T07:42:19.000Z</time>
      </trkpt>
      <trkpt lat="45.51914" lon="6.05834">
        <ele>1022</ele>
        <time>2011-08-23T07:42:25.000Z</time>
      </trkpt>
      <trkpt lat="45.51918" lon="6.05831">
        <ele>1025.1999511719</ele>
        <time>2011-08-23T07:42:39.000Z</time>
      </trkpt>
      <trkpt lat="45.51919" lon="6.05833">
        <ele>1025.4000244141</ele>
        <time>2011-08-23T07:42:46.000Z</time>
      </trkpt>
      <trkpt lat="45.51922" lon="6.05837">
        <ele>1025.1999511719</ele>
        <time>2011-08-23T07:42:53.000Z</time>
      </trkpt>
      <trkpt lat="45.51925" lon="6.05837">
        <ele>1026</ele>
        <time>2011-08-23T07:42:59.000Z</time>
      </trkpt>
      <trkpt lat="45.51926" lon="6.05837">
        <ele>1026.1999511719</ele>
        <time>2011-08-23T07:43:01.000Z</time>
      </trkpt>
      <trkpt lat="45.51932" lon="6.05829">
        <ele>1028</ele>
        <time>2011-08-23T07:43:07.000Z</time>
      </trkpt>
      <trkpt lat="45.51933" lon="6.05827">
        <ele>1028.1999511719</ele>
        <time>2011-08-23T07:43:08.000Z</time>
      </trkpt>
      <trkpt lat="45.51937" lon="6.05824">
        <ele>1028.8000488281</ele>
        <time>2011-08-23T07:43:14.000Z</time>
      </trkpt>
      <trkpt lat="45.51938" lon="6.05823">
        <ele>1029.1999511719</ele>
        <time>2011-08-23T07:43:20.000Z</time>
      </trkpt>
      <trkpt lat="45.51939" lon="6.0582">
        <ele>1029.4000244141</ele>
        <time>2011-08-23T07:43:28.000Z</time>
      </trkpt>
      <trkpt lat="45.51939" lon="6.0582">
        <ele>1029.4000244141</ele>
        <time>2011-08-23T07:43:30.000Z</time>
      </trkpt>
      <trkpt lat="45.51937" lon="6.05816">
        <ele>1029</ele>
        <time>2011-08-23T07:43:33.000Z</time>
      </trkpt>
      <trkpt lat="45.51938" lon="6.05813">
        <ele>1029</ele>
        <time>2011-08-23T07:43:41.000Z</time>
      </trkpt>
      <trkpt lat="45.51937" lon="6.05811">
        <ele>1029</ele>
        <time>2011-08-23T07:43:46.000Z</time>
      </trkpt>
      <trkpt lat="45.5195" lon="6.05796">
        <ele>1031.4000244141</ele>
        <time>2011-08-23T07:43:53.000Z</time>
      </trkpt>
      <trkpt lat="45.51956" lon="6.05779">
        <ele>1032.5999755859</ele>
        <time>2011-08-23T07:43:59.000Z</time>
      </trkpt>
      <trkpt lat="45.51955" lon="6.05762">
        <ele>1032.1999511719</ele>
        <time>2011-08-23T07:44:03.000Z</time>
      </trkpt>
      <trkpt lat="45.51944" lon="6.05732">
        <ele>1032</ele>
        <time>2011-08-23T07:44:08.000Z</time>
      </trkpt>
      <trkpt lat="45.51938" lon="6.05716">
        <ele>1033</ele>
        <time>2011-08-23T07:44:10.000Z</time>
      </trkpt>
      <trkpt lat="45.51925" lon="6.05692">
        <ele>1034.1999511719</ele>
        <time>2011-08-23T07:44:14.000Z</time>
      </trkpt>
      <trkpt lat="45.51921" lon="6.05681">
        <ele>1035.4000244141</ele>
        <time>2011-08-23T07:44:16.000Z</time>
      </trkpt>
      <trkpt lat="45.51917" lon="6.05664">
        <ele>1037.5999755859</ele>
        <time>2011-08-23T07:44:21.000Z</time>
      </trkpt>
      <trkpt lat="45.51917" lon="6.05658">
        <ele>1039.1999511719</ele>
        <time>2011-08-23T07:44:28.000Z</time>
      </trkpt>
      <trkpt lat="45.51914" lon="6.05655">
        <ele>1038.5999755859</ele>
        <time>2011-08-23T07:44:50.000Z</time>
      </trkpt>
      <trkpt lat="45.51914" lon="6.05653">
        <ele>1039.1999511719</ele>
        <time>2011-08-23T07:44:52.000Z</time>
      </trkpt>
      <trkpt lat="45.51912" lon="6.05651">
        <ele>1038.5999755859</ele>
        <time>2011-08-23T07:44:57.000Z</time>
      </trkpt>
      <trkpt lat="45.51913" lon="6.05645">
        <ele>1040.8000488281</ele>
        <time>2011-08-23T07:45:03.000Z</time>
      </trkpt>
      <trkpt lat="45.51916" lon="6.05639">
        <ele>1043.8000488281</ele>
        <time>2011-08-23T07:45:10.000Z</time>
      </trkpt>
      <trkpt lat="45.51919" lon="6.05629">
        <ele>1046.4000244141</ele>
        <time>2011-08-23T07:45:21.000Z</time>
      </trkpt>
      <trkpt lat="45.51917" lon="6.05621">
        <ele>1048.4000244141</ele>
        <time>2011-08-23T07:45:29.000Z</time>
      </trkpt>
      <trkpt lat="45.51912" lon="6.05621">
        <ele>1047</ele>
        <time>2011-08-23T07:45:35.000Z</time>
      </trkpt>
      <trkpt lat="45.5191" lon="6.05621">
        <ele>1046.1999511719</ele>
        <time>2011-08-23T07:45:38.000Z</time>
      </trkpt>
      <trkpt lat="45.51906" lon="6.05622">
        <ele>1044.5999755859</ele>
        <time>2011-08-23T07:45:44.000Z</time>
      </trkpt>
      <trkpt lat="45.51903" lon="6.05618">
        <ele>1044.5999755859</ele>
        <time>2011-08-23T07:45:53.000Z</time>
      </trkpt>
      <trkpt lat="45.51903" lon="6.05614">
        <ele>1045.8000488281</ele>
        <time>2011-08-23T07:45:56.000Z</time>
      </trkpt>
      <trkpt lat="45.51902" lon="6.05603">
        <ele>1049.1999511719</ele>
        <time>2011-08-23T07:46:03.000Z</time>
      </trkpt>
      <trkpt lat="45.519" lon="6.05591">
        <ele>1052.4000244141</ele>
        <time>2011-08-23T07:46:09.000Z</time>
      </trkpt>
      <trkpt lat="45.51899" lon="6.05589">
        <ele>1052.8000488281</ele>
        <time>2011-08-23T07:46:11.000Z</time>
      </trkpt>
      <trkpt lat="45.51897" lon="6.05582">
        <ele>1054.5999755859</ele>
        <time>2011-08-23T07:46:15.000Z</time>
      </trkpt>
      <trkpt lat="45.5189" lon="6.05575">
        <ele>1055.8000488281</ele>
        <time>2011-08-23T07:46:22.000Z</time>
      </trkpt>
      <trkpt lat="45.51883" lon="6.05572">
        <ele>1055.8000488281</ele>
        <time>2011-08-23T07:46:27.000Z</time>
      </trkpt>
      <trkpt lat="45.51871" lon="6.05568">
        <ele>1055</ele>
        <time>2011-08-23T07:46:32.000Z</time>
      </trkpt>
      <trkpt lat="45.51865" lon="6.05563">
        <ele>1056</ele>
        <time>2011-08-23T07:46:38.000Z</time>
      </trkpt>
      <trkpt lat="45.51867" lon="6.05555">
        <ele>1059.1999511719</ele>
        <time>2011-08-23T07:46:50.000Z</time>
      </trkpt>
      <trkpt lat="45.51865" lon="6.05556">
        <ele>1058.4000244141</ele>
        <time>2011-08-23T07:46:52.000Z</time>
      </trkpt>
      <trkpt lat="45.51863" lon="6.05552">
        <ele>1059.8000488281</ele>
        <time>2011-08-23T07:47:02.000Z</time>
      </trkpt>
      <trkpt lat="45.51862" lon="6.05552">
        <ele>1059.5999755859</ele>
        <time>2011-08-23T07:47:09.000Z</time>
      </trkpt>
      <trkpt lat="45.51864" lon="6.05554">
        <ele>1059.1999511719</ele>
        <time>2011-08-23T07:47:20.000Z</time>
      </trkpt>
      <trkpt lat="45.51851" lon="6.05544">
        <ele>1061</ele>
        <time>2011-08-23T07:47:27.000Z</time>
      </trkpt>
      <trkpt lat="45.51842" lon="6.05539">
        <ele>1061.8000488281</ele>
        <time>2011-08-23T07:47:31.000Z</time>
      </trkpt>
      <trkpt lat="45.5184" lon="6.05536">
        <ele>1062.5999755859</ele>
        <time>2011-08-23T07:47:33.000Z</time>
      </trkpt>
      <trkpt lat="45.51835" lon="6.05532">
        <ele>1063.5999755859</ele>
        <time>2011-08-23T07:47:41.000Z</time>
      </trkpt>
      <trkpt lat="45.51827" lon="6.05523">
        <ele>1062.1999511719</ele>
        <time>2011-08-23T07:47:53.000Z</time>
      </trkpt>
      <trkpt lat="45.51818" lon="6.0551">
        <ele>1060.1999511719</ele>
        <time>2011-08-23T07:47:58.000Z</time>
      </trkpt>
      <trkpt lat="45.51811" lon="6.05485">
        <ele>1061</ele>
        <time>2011-08-23T07:48:04.000Z</time>
      </trkpt>
      <trkpt lat="45.51801" lon="6.05463">
        <ele>1057</ele>
        <time>2011-08-23T07:48:09.000Z</time>
      </trkpt>
      <trkpt lat="45.51792" lon="6.0545">
        <ele>1051.4000244141</ele>
        <time>2011-08-23T07:48:13.000Z</time>
      </trkpt>
      <trkpt lat="45.51792" lon="6.05443">
        <ele>1053</ele>
        <time>2011-08-23T07:48:15.000Z</time>
      </trkpt>
      <trkpt lat="45.51794" lon="6.05433">
        <ele>1056.8000488281</ele>
        <time>2011-08-23T07:48:19.000Z</time>
      </trkpt>
      <trkpt lat="45.51792" lon="6.05423">
        <ele>1057.5999755859</ele>
        <time>2011-08-23T07:48:29.000Z</time>
      </trkpt>
      <trkpt lat="45.51787" lon="6.05424">
        <ele>1052.5999755859</ele>
        <time>2011-08-23T07:48:37.000Z</time>
      </trkpt>
      <trkpt lat="45.51788" lon="6.05425">
        <ele>1052.8000488281</ele>
        <time>2011-08-23T07:48:39.000Z</time>
      </trkpt>
      <trkpt lat="45.5179" lon="6.05437">
        <ele>1052</ele>
        <time>2011-08-23T07:48:44.000Z</time>
      </trkpt>
      <trkpt lat="45.5179" lon="6.05444">
        <ele>1051.5999755859</ele>
        <time>2011-08-23T07:48:46.000Z</time>
      </trkpt>
      <trkpt lat="45.51793" lon="6.0547">
        <ele>1048.4000244141</ele>
        <time>2011-08-23T07:48:53.000Z</time>
      </trkpt>
      <trkpt lat="45.51794" lon="6.05499">
        <ele>1042.8000488281</ele>
        <time>2011-08-23T07:48:59.000Z</time>
      </trkpt>
      <trkpt lat="45.51794" lon="6.05522">
        <ele>1036.5999755859</ele>
        <time>2011-08-23T07:49:05.000Z</time>
      </trkpt>
      <trkpt lat="45.51794" lon="6.05524">
        <ele>1036.4000244141</ele>
        <time>2011-08-23T07:49:11.000Z</time>
      </trkpt>
      <trkpt lat="45.51794" lon="6.05528">
        <ele>1035.1999511719</ele>
        <time>2011-08-23T07:49:19.000Z</time>
      </trkpt>
      <trkpt lat="45.51791" lon="6.05524">
        <ele>1033.8000488281</ele>
        <time>2011-08-23T07:49:22.000Z</time>
      </trkpt>
      <trkpt lat="45.51787" lon="6.055">
        <ele>1036.5999755859</ele>
        <time>2011-08-23T07:49:28.000Z</time>
      </trkpt>
      <trkpt lat="45.51778" lon="6.05476">
        <ele>1033.1999511719</ele>
        <time>2011-08-23T07:49:33.000Z</time>
      </trkpt>
      <trkpt lat="45.51773" lon="6.05456">
        <ele>1032.4000244141</ele>
        <time>2011-08-23T07:49:38.000Z</time>
      </trkpt>
      <trkpt lat="45.51762" lon="6.05444">
        <ele>1024.1999511719</ele>
        <time>2011-08-23T07:49:42.000Z</time>
      </trkpt>
      <trkpt lat="45.51763" lon="6.05443">
        <ele>1024.8000488281</ele>
        <time>2011-08-23T07:49:45.000Z</time>
      </trkpt>
      <trkpt lat="45.51761" lon="6.05439">
        <ele>1024.1999511719</ele>
        <time>2011-08-23T07:49:53.000Z</time>
      </trkpt>
      <trkpt lat="45.51764" lon="6.05444">
        <ele>1025.5999755859</ele>
        <time>2011-08-23T07:50:02.000Z</time>
      </trkpt>
      <trkpt lat="45.51765" lon="6.05457">
        <ele>1024.5999755859</ele>
        <time>2011-08-23T07:50:07.000Z</time>
      </trkpt>
      <trkpt lat="45.5176" lon="6.0548">
        <ele>1016.799987793</ele>
        <time>2011-08-23T07:50:12.000Z</time>
      </trkpt>
      <trkpt lat="45.51759" lon="6.05503">
        <ele>1012.5999755859</ele>
        <time>2011-08-23T07:50:17.000Z</time>
      </trkpt>
      <trkpt lat="45.51757" lon="6.05525">
        <ele>1007</ele>
        <time>2011-08-23T07:50:23.000Z</time>
      </trkpt>
      <trkpt lat="45.51757" lon="6.05528">
        <ele>1006</ele>
        <time>2011-08-23T07:50:24.000Z</time>
      </trkpt>
      <trkpt lat="45.51759" lon="6.05532">
        <ele>1007.4000244141</ele>
        <time>2011-08-23T07:50:29.000Z</time>
      </trkpt>
      <trkpt lat="45.5176" lon="6.05532">
        <ele>1008</ele>
        <time>2011-08-23T07:50:30.000Z</time>
      </trkpt>
      <trkpt lat="45.51755" lon="6.05528">
        <ele>1004.799987793</ele>
        <time>2011-08-23T07:50:37.000Z</time>
      </trkpt>
      <trkpt lat="45.51756" lon="6.05525">
        <ele>1006.200012207</ele>
        <time>2011-08-23T07:50:42.000Z</time>
      </trkpt>
      <trkpt lat="45.51749" lon="6.0552">
        <ele>1001.5999755859</ele>
        <time>2011-08-23T07:50:49.000Z</time>
      </trkpt>
      <trkpt lat="45.51746" lon="6.05511">
        <ele>999.79998779297</ele>
        <time>2011-08-23T07:50:52.000Z</time>
      </trkpt>
      <trkpt lat="45.51741" lon="6.05496">
        <ele>997</ele>
        <time>2011-08-23T07:50:55.000Z</time>
      </trkpt>
      <trkpt lat="45.51737" lon="6.05474">
        <ele>996.59997558594</ele>
        <time>2011-08-23T07:51:00.000Z</time>
      </trkpt>
      <trkpt lat="45.51734" lon="6.0547">
        <ele>994.79998779297</ele>
        <time>2011-08-23T07:51:06.000Z</time>
      </trkpt>
      <trkpt lat="45.51732" lon="6.05469">
        <ele>993.79998779297</ele>
        <time>2011-08-23T07:51:11.000Z</time>
      </trkpt>
      <trkpt lat="45.51726" lon="6.05457">
        <ele>990</ele>
        <time>2011-08-23T07:51:16.000Z</time>
      </trkpt>
      <trkpt lat="45.51724" lon="6.05453">
        <ele>989.40002441406</ele>
        <time>2011-08-23T07:51:18.000Z</time>
      </trkpt>
      <trkpt lat="45.51724" lon="6.05451">
        <ele>989.79998779297</ele>
        <time>2011-08-23T07:51:20.000Z</time>
      </trkpt>
      <trkpt lat="45.51724" lon="6.05449">
        <ele>989.59997558594</ele>
        <time>2011-08-23T07:51:26.000Z</time>
      </trkpt>
      <trkpt lat="45.51723" lon="6.0545">
        <ele>988.79998779297</ele>
        <time>2011-08-23T07:51:28.000Z</time>
      </trkpt>
      <trkpt lat="45.51722" lon="6.0546">
        <ele>986.59997558594</ele>
        <time>2011-08-23T07:51:32.000Z</time>
      </trkpt>
      <trkpt lat="45.51719" lon="6.05469">
        <ele>982.20001220703</ele>
        <time>2011-08-23T07:51:40.000Z</time>
      </trkpt>
      <trkpt lat="45.51714" lon="6.05467">
        <ele>978</ele>
        <time>2011-08-23T07:51:58.000Z</time>
      </trkpt>
      <trkpt lat="45.51709" lon="6.05458">
        <ele>975.20001220703</ele>
        <time>2011-08-23T07:52:03.000Z</time>
      </trkpt>
      <trkpt lat="45.51707" lon="6.05444">
        <ele>976.40002441406</ele>
        <time>2011-08-23T07:52:08.000Z</time>
      </trkpt>
      <trkpt lat="45.51706" lon="6.05436">
        <ele>977.40002441406</ele>
        <time>2011-08-23T07:52:15.000Z</time>
      </trkpt>
      <trkpt lat="45.51707" lon="6.05434">
        <ele>978.59997558594</ele>
        <time>2011-08-23T07:52:19.000Z</time>
      </trkpt>
      <trkpt lat="45.51701" lon="6.05418">
        <ele>977.20001220703</ele>
        <time>2011-08-23T07:52:25.000Z</time>
      </trkpt>
      <trkpt lat="45.51699" lon="6.0541">
        <ele>977.20001220703</ele>
        <time>2011-08-23T07:52:29.000Z</time>
      </trkpt>
      <trkpt lat="45.517" lon="6.05406">
        <ele>978.79998779297</ele>
        <time>2011-08-23T07:52:40.000Z</time>
      </trkpt>
      <trkpt lat="45.51698" lon="6.05401">
        <ele>978.79998779297</ele>
        <time>2011-08-23T07:53:06.000Z</time>
      </trkpt>
      <trkpt lat="45.51696" lon="6.05405">
        <ele>976.59997558594</ele>
        <time>2011-08-23T07:53:14.000Z</time>
      </trkpt>
      <trkpt lat="45.51696" lon="6.05406">
        <ele>975.79998779297</ele>
        <time>2011-08-23T07:53:16.000Z</time>
      </trkpt>
      <trkpt lat="45.51695" lon="6.05407">
        <ele>974.79998779297</ele>
        <time>2011-08-23T07:53:19.000Z</time>
      </trkpt>
      <trkpt lat="45.51692" lon="6.05415">
        <ele>970.59997558594</ele>
        <time>2011-08-23T07:53:23.000Z</time>
      </trkpt>
      <trkpt lat="45.51691" lon="6.0543">
        <ele>966.20001220703</ele>
        <time>2011-08-23T07:53:29.000Z</time>
      </trkpt>
      <trkpt lat="45.51692" lon="6.05429">
        <ele>967.59997558594</ele>
        <time>2011-08-23T07:53:34.000Z</time>
      </trkpt>
      <trkpt lat="45.5169" lon="6.05415">
        <ele>968.59997558594</ele>
        <time>2011-08-23T07:53:40.000Z</time>
      </trkpt>
      <trkpt lat="45.5169" lon="6.05412">
        <ele>969.40002441406</ele>
        <time>2011-08-23T07:53:41.000Z</time>
      </trkpt>
      <trkpt lat="45.5169" lon="6.05407">
        <ele>971.20001220703</ele>
        <time>2011-08-23T07:53:43.000Z</time>
      </trkpt>
      <trkpt lat="45.5169" lon="6.05395">
        <ele>973.59997558594</ele>
        <time>2011-08-23T07:53:48.000Z</time>
      </trkpt>
      <trkpt lat="45.51691" lon="6.05387">
        <ele>976.79998779297</ele>
        <time>2011-08-23T07:53:51.000Z</time>
      </trkpt>
      <trkpt lat="45.51684" lon="6.05367">
        <ele>976</ele>
        <time>2011-08-23T07:53:58.000Z</time>
      </trkpt>
      <trkpt lat="45.51683" lon="6.05363">
        <ele>976</ele>
        <time>2011-08-23T07:53:59.000Z</time>
      </trkpt>
      <trkpt lat="45.51672" lon="6.05345">
        <ele>970.59997558594</ele>
        <time>2011-08-23T07:54:04.000Z</time>
      </trkpt>
      <trkpt lat="45.5166" lon="6.0533">
        <ele>963.40002441406</ele>
        <time>2011-08-23T07:54:08.000Z</time>
      </trkpt>
      <trkpt lat="45.51653" lon="6.05319">
        <ele>960.40002441406</ele>
        <time>2011-08-23T07:54:13.000Z</time>
      </trkpt>
      <trkpt lat="45.51648" lon="6.05314">
        <ele>957.59997558594</ele>
        <time>2011-08-23T07:54:16.000Z</time>
      </trkpt>
      <trkpt lat="45.51641" lon="6.05307">
        <ele>953.59997558594</ele>
        <time>2011-08-23T07:54:21.000Z</time>
      </trkpt>
      <trkpt lat="45.5164" lon="6.053">
        <ele>954.79998779297</ele>
        <time>2011-08-23T07:54:25.000Z</time>
      </trkpt>
      <trkpt lat="45.51641" lon="6.05291">
        <ele>958</ele>
        <time>2011-08-23T07:54:31.000Z</time>
      </trkpt>
      <trkpt lat="45.5164" lon="6.05283">
        <ele>959</ele>
        <time>2011-08-23T07:54:35.000Z</time>
      </trkpt>
      <trkpt lat="45.51637" lon="6.05279">
        <ele>957.20001220703</ele>
        <time>2011-08-23T07:54:39.000Z</time>
      </trkpt>
      <trkpt lat="45.51632" lon="6.05276">
        <ele>954.40002441406</ele>
        <time>2011-08-23T07:54:43.000Z</time>
      </trkpt>
      <trkpt lat="45.51626" lon="6.05265">
        <ele>952.79998779297</ele>
        <time>2011-08-23T07:54:50.000Z</time>
      </trkpt>
      <trkpt lat="45.51625" lon="6.05258">
        <ele>953.59997558594</ele>
        <time>2011-08-23T07:54:56.000Z</time>
      </trkpt>
      <trkpt lat="45.51627" lon="6.05253">
        <ele>956.40002441406</ele>
        <time>2011-08-23T07:55:00.000Z</time>
      </trkpt>
      <trkpt lat="45.51627" lon="6.0525">
        <ele>957.20001220703</ele>
        <time>2011-08-23T07:55:08.000Z</time>
      </trkpt>
      <trkpt lat="45.51629" lon="6.05246">
        <ele>960.79998779297</ele>
        <time>2011-08-23T07:55:12.000Z</time>
      </trkpt>
      <trkpt lat="45.5163" lon="6.05239">
        <ele>965.40002441406</ele>
        <time>2011-08-23T07:55:18.000Z</time>
      </trkpt>
      <trkpt lat="45.51628" lon="6.05234">
        <ele>966.40002441406</ele>
        <time>2011-08-23T07:55:24.000Z</time>
      </trkpt>
      <trkpt lat="45.51629" lon="6.05227">
        <ele>970.20001220703</ele>
        <time>2011-08-23T07:55:29.000Z</time>
      </trkpt>
      <trkpt lat="45.51621" lon="6.0522">
        <ele>967</ele>
        <time>2011-08-23T07:55:36.000Z</time>
      </trkpt>
      <trkpt lat="45.51619" lon="6.05217">
        <ele>967</ele>
        <time>2011-08-23T07:55:38.000Z</time>
      </trkpt>
      <trkpt lat="45.51616" lon="6.05215">
        <ele>965.40002441406</ele>
        <time>2011-08-23T07:55:40.000Z</time>
      </trkpt>
      <trkpt lat="45.51616" lon="6.05209">
        <ele>968.20001220703</ele>
        <time>2011-08-23T07:55:44.000Z</time>
      </trkpt>
      <trkpt lat="45.51614" lon="6.05202">
        <ele>969.20001220703</ele>
        <time>2011-08-23T07:55:48.000Z</time>
      </trkpt>
      <trkpt lat="45.51623" lon="6.05191">
        <ele>982</ele>
        <time>2011-08-23T07:56:15.000Z</time>
      </trkpt>
      <trkpt lat="45.51619" lon="6.05187">
        <ele>980.79998779297</ele>
        <time>2011-08-23T07:56:26.000Z</time>
      </trkpt>
      <trkpt lat="45.51612" lon="6.05181">
        <ele>977.79998779297</ele>
        <time>2011-08-23T07:56:35.000Z</time>
      </trkpt>
      <trkpt lat="45.51613" lon="6.05177">
        <ele>980</ele>
        <time>2011-08-23T07:56:37.000Z</time>
      </trkpt>
      <trkpt lat="45.51611" lon="6.05174">
        <ele>980.40002441406</ele>
        <time>2011-08-23T07:56:41.000Z</time>
      </trkpt>
      <trkpt lat="45.51609" lon="6.05176">
        <ele>977.20001220703</ele>
        <time>2011-08-23T07:56:52.000Z</time>
      </trkpt>
      <trkpt lat="45.51612" lon="6.05181">
        <ele>977.59997558594</ele>
        <time>2011-08-23T07:57:02.000Z</time>
      </trkpt>
      <trkpt lat="45.51612" lon="6.05185">
        <ele>976</ele>
        <time>2011-08-23T07:57:04.000Z</time>
      </trkpt>
      <trkpt lat="45.51617" lon="6.05191">
        <ele>976.79998779297</ele>
        <time>2011-08-23T07:57:10.000Z</time>
      </trkpt>
      <trkpt lat="45.51618" lon="6.05194">
        <ele>976.79998779297</ele>
        <time>2011-08-23T07:57:13.000Z</time>
      </trkpt>
      <trkpt lat="45.5162" lon="6.05197">
        <ele>977.20001220703</ele>
        <time>2011-08-23T07:57:20.000Z</time>
      </trkpt>
      <trkpt lat="45.51623" lon="6.05198">
        <ele>978.79998779297</ele>
        <time>2011-08-23T07:57:23.000Z</time>
      </trkpt>
      <trkpt lat="45.51625" lon="6.05204">
        <ele>977.59997558594</ele>
        <time>2011-08-23T07:57:33.000Z</time>
      </trkpt>
      <trkpt lat="45.5162" lon="6.05196">
        <ele>977.59997558594</ele>
        <time>2011-08-23T07:57:47.000Z</time>
      </trkpt>
      <trkpt lat="45.51618" lon="6.05185">
        <ele>981.40002441406</ele>
        <time>2011-08-23T07:58:03.000Z</time>
      </trkpt>
      <trkpt lat="45.51616" lon="6.05182">
        <ele>981</ele>
        <time>2011-08-23T07:58:07.000Z</time>
      </trkpt>
      <trkpt lat="45.51618" lon="6.05175">
        <ele>985.59997558594</ele>
        <time>2011-08-23T07:58:15.000Z</time>
      </trkpt>
      <trkpt lat="45.51615" lon="6.05167">
        <ele>986.59997558594</ele>
        <time>2011-08-23T07:58:26.000Z</time>
      </trkpt>
      <trkpt lat="45.51616" lon="6.0516">
        <ele>991</ele>
        <time>2011-08-23T07:58:33.000Z</time>
      </trkpt>
      <trkpt lat="45.51615" lon="6.05156">
        <ele>991.59997558594</ele>
        <time>2011-08-23T07:58:38.000Z</time>
      </trkpt>
      <trkpt lat="45.51614" lon="6.05156">
        <ele>991.40002441406</ele>
        <time>2011-08-23T07:58:40.000Z</time>
      </trkpt>
      <trkpt lat="45.51612" lon="6.05149">
        <ele>992.20001220703</ele>
        <time>2011-08-23T07:58:51.000Z</time>
      </trkpt>
      <trkpt lat="45.5161" lon="6.05146">
        <ele>992.20001220703</ele>
        <time>2011-08-23T07:58:55.000Z</time>
      </trkpt>
      <trkpt lat="45.51607" lon="6.05142">
        <ele>990.79998779297</ele>
        <time>2011-08-23T07:59:03.000Z</time>
      </trkpt>
      <trkpt lat="45.516" lon="6.05135">
        <ele>987.40002441406</ele>
        <time>2011-08-23T07:59:08.000Z</time>
      </trkpt>
      <trkpt lat="45.51598" lon="6.05129">
        <ele>987.79998779297</ele>
        <time>2011-08-23T07:59:11.000Z</time>
      </trkpt>
      <trkpt lat="45.51596" lon="6.05126">
        <ele>987.59997558594</ele>
        <time>2011-08-23T07:59:15.000Z</time>
      </trkpt>
      <trkpt lat="45.51593" lon="6.05124">
        <ele>986.40002441406</ele>
        <time>2011-08-23T07:59:17.000Z</time>
      </trkpt>
      <trkpt lat="45.51587" lon="6.05113">
        <ele>985.20001220703</ele>
        <time>2011-08-23T07:59:28.000Z</time>
      </trkpt>
      <trkpt lat="45.5159" lon="6.05109">
        <ele>989.79998779297</ele>
        <time>2011-08-23T07:59:38.000Z</time>
      </trkpt>
      <trkpt lat="45.5159" lon="6.05115">
        <ele>986.79998779297</ele>
        <time>2011-08-23T07:59:41.000Z</time>
      </trkpt>
      <trkpt lat="45.51591" lon="6.0512">
        <ele>985.79998779297</ele>
        <time>2011-08-23T07:59:45.000Z</time>
      </trkpt>
      <trkpt lat="45.51591" lon="6.05126">
        <ele>982.79998779297</ele>
        <time>2011-08-23T07:59:51.000Z</time>
      </trkpt>
      <trkpt lat="45.51586" lon="6.05129">
        <ele>976.59997558594</ele>
        <time>2011-08-23T08:00:02.000Z</time>
      </trkpt>
      <trkpt lat="45.51581" lon="6.05124">
        <ele>975.20001220703</ele>
        <time>2011-08-23T08:00:17.000Z</time>
      </trkpt>
      <trkpt lat="45.51562" lon="6.05108">
        <ele>970.20001220703</ele>
        <time>2011-08-23T08:00:23.000Z</time>
      </trkpt>
      <trkpt lat="45.51552" lon="6.05098">
        <ele>967.40002441406</ele>
        <time>2011-08-23T08:00:27.000Z</time>
      </trkpt>
      <trkpt lat="45.51547" lon="6.05093">
        <ele>966</ele>
        <time>2011-08-23T08:00:30.000Z</time>
      </trkpt>
      <trkpt lat="45.51545" lon="6.05097">
        <ele>963.79998779297</ele>
        <time>2011-08-23T08:00:34.000Z</time>
      </trkpt>
      <trkpt lat="45.51551" lon="6.05112">
        <ele>962.20001220703</ele>
        <time>2011-08-23T08:00:41.000Z</time>
      </trkpt>
      <trkpt lat="45.51558" lon="6.0513">
        <ele>959.59997558594</ele>
        <time>2011-08-23T08:00:47.000Z</time>
      </trkpt>
      <trkpt lat="45.5156" lon="6.05138">
        <ele>958</ele>
        <time>2011-08-23T08:00:52.000Z</time>
      </trkpt>
      <trkpt lat="45.51559" lon="6.05145">
        <ele>954.59997558594</ele>
        <time>2011-08-23T08:00:58.000Z</time>
      </trkpt>
      <trkpt lat="45.51551" lon="6.05139">
        <ele>952.59997558594</ele>
        <time>2011-08-23T08:01:03.000Z</time>
      </trkpt>
      <trkpt lat="45.51545" lon="6.05132">
        <ele>951.79998779297</ele>
        <time>2011-08-23T08:01:05.000Z</time>
      </trkpt>
      <trkpt lat="45.5152" lon="6.05107">
        <ele>944.40002441406</ele>
        <time>2011-08-23T08:01:12.000Z</time>
      </trkpt>
      <trkpt lat="45.51515" lon="6.05104">
        <ele>942.40002441406</ele>
        <time>2011-08-23T08:01:13.000Z</time>
      </trkpt>
      <trkpt lat="45.5149" lon="6.05078">
        <ele>936.59997558594</ele>
        <time>2011-08-23T08:01:19.000Z</time>
      </trkpt>
      <trkpt lat="45.51476" lon="6.05063">
        <ele>936.59997558594</ele>
        <time>2011-08-23T08:01:23.000Z</time>
      </trkpt>
      <trkpt lat="45.51465" lon="6.0505">
        <ele>936.59997558594</ele>
        <time>2011-08-23T08:01:27.000Z</time>
      </trkpt>
      <trkpt lat="45.51457" lon="6.0504">
        <ele>936.59997558594</ele>
        <time>2011-08-23T08:01:30.000Z</time>
      </trkpt>
      <trkpt lat="45.51442" lon="6.0504">
        <ele>930.79998779297</ele>
        <time>2011-08-23T08:01:35.000Z</time>
      </trkpt>
      <trkpt lat="45.51439" lon="6.05043">
        <ele>928.79998779297</ele>
        <time>2011-08-23T08:01:36.000Z</time>
      </trkpt>
      <trkpt lat="45.51418" lon="6.05063">
        <ele>915.59997558594</ele>
        <time>2011-08-23T08:01:42.000Z</time>
      </trkpt>
      <trkpt lat="45.51408" lon="6.0506">
        <ele>912.40002441406</ele>
        <time>2011-08-23T08:01:47.000Z</time>
      </trkpt>
      <trkpt lat="45.51391" lon="6.05052">
        <ele>907.59997558594</ele>
        <time>2011-08-23T08:01:52.000Z</time>
      </trkpt>
      <trkpt lat="45.51386" lon="6.0505">
        <ele>906.20001220703</ele>
        <time>2011-08-23T08:01:54.000Z</time>
      </trkpt>
      <trkpt lat="45.51383" lon="6.05057">
        <ele>903.40002441406</ele>
        <time>2011-08-23T08:01:59.000Z</time>
      </trkpt>
      <trkpt lat="45.51391" lon="6.05086">
        <ele>899.59997558594</ele>
        <time>2011-08-23T08:02:05.000Z</time>
      </trkpt>
      <trkpt lat="45.51401" lon="6.05106">
        <ele>896</ele>
        <time>2011-08-23T08:02:09.000Z</time>
      </trkpt>
      <trkpt lat="45.51408" lon="6.05129">
        <ele>890.59997558594</ele>
        <time>2011-08-23T08:02:14.000Z</time>
      </trkpt>
      <trkpt lat="45.51415" lon="6.05155">
        <ele>884.40002441406</ele>
        <time>2011-08-23T08:02:19.000Z</time>
      </trkpt>
      <trkpt lat="45.5142" lon="6.05169">
        <ele>880.79998779297</ele>
        <time>2011-08-23T08:02:23.000Z</time>
      </trkpt>
      <trkpt lat="45.51413" lon="6.05169">
        <ele>877.79998779297</ele>
        <time>2011-08-23T08:02:28.000Z</time>
      </trkpt>
      <trkpt lat="45.51394" lon="6.05164">
        <ele>872.40002441406</ele>
        <time>2011-08-23T08:02:33.000Z</time>
      </trkpt>
      <trkpt lat="45.51378" lon="6.05165">
        <ele>865.20001220703</ele>
        <time>2011-08-23T08:02:37.000Z</time>
      </trkpt>
      <trkpt lat="45.5136" lon="6.05161">
        <ele>859.20001220703</ele>
        <time>2011-08-23T08:02:42.000Z</time>
      </trkpt>
      <trkpt lat="45.51346" lon="6.0516">
        <ele>853.59997558594</ele>
        <time>2011-08-23T08:02:46.000Z</time>
      </trkpt>
      <trkpt lat="45.51325" lon="6.05152">
        <ele>846.40002441406</ele>
        <time>2011-08-23T08:02:51.000Z</time>
      </trkpt>
      <trkpt lat="45.51299" lon="6.05135">
        <ele>835.79998779297</ele>
        <time>2011-08-23T08:02:58.000Z</time>
      </trkpt>
      <trkpt lat="45.5129" lon="6.05125">
        <ele>833</ele>
        <time>2011-08-23T08:03:02.000Z</time>
      </trkpt>
      <trkpt lat="45.51276" lon="6.05106">
        <ele>830.40002441406</ele>
        <time>2011-08-23T08:03:07.000Z</time>
      </trkpt>
      <trkpt lat="45.51265" lon="6.05089">
        <ele>827.59997558594</ele>
        <time>2011-08-23T08:03:12.000Z</time>
      </trkpt>
      <trkpt lat="45.51255" lon="6.05083">
        <ele>823</ele>
        <time>2011-08-23T08:03:16.000Z</time>
      </trkpt>
      <trkpt lat="45.51253" lon="6.05084">
        <ele>820.79998779297</ele>
        <time>2011-08-23T08:03:21.000Z</time>
      </trkpt>
      <trkpt lat="45.51247" lon="6.05082">
        <ele>816.59997558594</ele>
        <time>2011-08-23T08:03:40.000Z</time>
      </trkpt>
      <trkpt lat="45.51239" lon="6.05087">
        <ele>806.79998779297</ele>
        <time>2011-08-23T08:03:45.000Z</time>
      </trkpt>
      <trkpt lat="45.51231" lon="6.05087">
        <ele>799.79998779297</ele>
        <time>2011-08-23T08:03:49.000Z</time>
      </trkpt>
      <trkpt lat="45.51229" lon="6.05085">
        <ele>798.59997558594</ele>
        <time>2011-08-23T08:03:51.000Z</time>
      </trkpt>
      <trkpt lat="45.51231" lon="6.05089">
        <ele>799.59997558594</ele>
        <time>2011-08-23T08:03:56.000Z</time>
      </trkpt>
      <trkpt lat="45.5124" lon="6.05092">
        <ele>807</ele>
        <time>2011-08-23T08:04:01.000Z</time>
      </trkpt>
      <trkpt lat="45.51245" lon="6.05104">
        <ele>807.79998779297</ele>
        <time>2011-08-23T08:04:05.000Z</time>
      </trkpt>
      <trkpt lat="45.51257" lon="6.05141">
        <ele>806</ele>
        <time>2011-08-23T08:04:12.000Z</time>
      </trkpt>
      <trkpt lat="45.51268" lon="6.05161">
        <ele>806.59997558594</ele>
        <time>2011-08-23T08:04:16.000Z</time>
      </trkpt>
      <trkpt lat="45.51275" lon="6.05177">
        <ele>804.20001220703</ele>
        <time>2011-08-23T08:04:19.000Z</time>
      </trkpt>
      <trkpt lat="45.51274" lon="6.05186">
        <ele>799.20001220703</ele>
        <time>2011-08-23T08:04:24.000Z</time>
      </trkpt>
      <trkpt lat="45.51274" lon="6.05189">
        <ele>797.79998779297</ele>
        <time>2011-08-23T08:04:29.000Z</time>
      </trkpt>
      <trkpt lat="45.51274" lon="6.05185">
        <ele>799.79998779297</ele>
        <time>2011-08-23T08:04:35.000Z</time>
      </trkpt>
      <trkpt lat="45.51273" lon="6.05183">
        <ele>799.79998779297</ele>
        <time>2011-08-23T08:04:37.000Z</time>
      </trkpt>
      <trkpt lat="45.51258" lon="6.05169">
        <ele>798</ele>
        <time>2011-08-23T08:04:44.000Z</time>
      </trkpt>
      <trkpt lat="45.51248" lon="6.05155">
        <ele>795.79998779297</ele>
        <time>2011-08-23T08:04:48.000Z</time>
      </trkpt>
      <trkpt lat="45.51242" lon="6.05148">
        <ele>792.59997558594</ele>
        <time>2011-08-23T08:04:52.000Z</time>
      </trkpt>
      <trkpt lat="45.51238" lon="6.05147">
        <ele>790</ele>
        <time>2011-08-23T08:04:53.000Z</time>
      </trkpt>
      <trkpt lat="45.51214" lon="6.05138">
        <ele>771.79998779297</ele>
        <time>2011-08-23T08:04:59.000Z</time>
      </trkpt>
      <trkpt lat="45.51206" lon="6.05135">
        <ele>765.79998779297</ele>
        <time>2011-08-23T08:05:03.000Z</time>
      </trkpt>
      <trkpt lat="45.51202" lon="6.05135">
        <ele>762.79998779297</ele>
        <time>2011-08-23T08:05:06.000Z</time>
      </trkpt>
      <trkpt lat="45.51212" lon="6.05143">
        <ele>768.40002441406</ele>
        <time>2011-08-23T08:05:12.000Z</time>
      </trkpt>
      <trkpt lat="45.51222" lon="6.05163">
        <ele>772.40002441406</ele>
        <time>2011-08-23T08:05:18.000Z</time>
      </trkpt>
      <trkpt lat="45.51234" lon="6.05185">
        <ele>772.20001220703</ele>
        <time>2011-08-23T08:05:22.000Z</time>
      </trkpt>
      <trkpt lat="45.51241" lon="6.05195">
        <ele>772.59997558594</ele>
        <time>2011-08-23T08:05:24.000Z</time>
      </trkpt>
      <trkpt lat="45.51253" lon="6.05226">
        <ele>766</ele>
        <time>2011-08-23T08:05:30.000Z</time>
      </trkpt>
      <trkpt lat="45.51253" lon="6.05238">
        <ele>759.59997558594</ele>
        <time>2011-08-23T08:05:34.000Z</time>
      </trkpt>
      <trkpt lat="45.51253" lon="6.05254">
        <ele>751.79998779297</ele>
        <time>2011-08-23T08:05:37.000Z</time>
      </trkpt>
      <trkpt lat="45.51261" lon="6.05281">
        <ele>744.40002441406</ele>
        <time>2011-08-23T08:05:43.000Z</time>
      </trkpt>
      <trkpt lat="45.5128" lon="6.05297">
        <ele>746.59997558594</ele>
        <time>2011-08-23T08:05:49.000Z</time>
      </trkpt>
      <trkpt lat="45.51282" lon="6.05299">
        <ele>746.79998779297</ele>
        <time>2011-08-23T08:05:51.000Z</time>
      </trkpt>
      <trkpt lat="45.51287" lon="6.05314">
        <ele>741.79998779297</ele>
        <time>2011-08-23T08:05:56.000Z</time>
      </trkpt>
      <trkpt lat="45.51297" lon="6.05348">
        <ele>728.20001220703</ele>
        <time>2011-08-23T08:06:01.000Z</time>
      </trkpt>
      <trkpt lat="45.51299" lon="6.05355">
        <ele>725.40002441406</ele>
        <time>2011-08-23T08:06:02.000Z</time>
      </trkpt>
      <trkpt lat="45.51305" lon="6.05367">
        <ele>721.20001220703</ele>
        <time>2011-08-23T08:06:04.000Z</time>
      </trkpt>
      <trkpt lat="45.51312" lon="6.05376">
        <ele>719.40002441406</ele>
        <time>2011-08-23T08:06:08.000Z</time>
      </trkpt>
      <trkpt lat="45.51316" lon="6.05378">
        <ele>720.20001220703</ele>
        <time>2011-08-23T08:06:13.000Z</time>
      </trkpt>
      <trkpt lat="45.51309" lon="6.05382">
        <ele>714.79998779297</ele>
        <time>2011-08-23T08:06:18.000Z</time>
      </trkpt>
      <trkpt lat="45.51295" lon="6.05379">
        <ele>710.59997558594</ele>
        <time>2011-08-23T08:06:23.000Z</time>
      </trkpt>
      <trkpt lat="45.51288" lon="6.05376">
        <ele>709.20001220703</ele>
        <time>2011-08-23T08:06:25.000Z</time>
      </trkpt>
      <trkpt lat="45.51282" lon="6.05371">
        <ele>708.79998779297</ele>
        <time>2011-08-23T08:06:27.000Z</time>
      </trkpt>
      <trkpt lat="45.51266" lon="6.05371">
        <ele>701.79998779297</ele>
        <time>2011-08-23T08:06:32.000Z</time>
      </trkpt>
      <trkpt lat="45.51253" lon="6.0537">
        <ele>696.79998779297</ele>
        <time>2011-08-23T08:06:36.000Z</time>
      </trkpt>
      <trkpt lat="45.51235" lon="6.05367">
        <ele>688.79998779297</ele>
        <time>2011-08-23T08:06:41.000Z</time>
      </trkpt>
      <trkpt lat="45.51216" lon="6.0536">
        <ele>680.79998779297</ele>
        <time>2011-08-23T08:06:45.000Z</time>
      </trkpt>
      <trkpt lat="45.51203" lon="6.05353">
        <ele>676.59997558594</ele>
        <time>2011-08-23T08:06:48.000Z</time>
      </trkpt>
      <trkpt lat="45.51188" lon="6.05329">
        <ele>676.79998779297</ele>
        <time>2011-08-23T08:06:53.000Z</time>
      </trkpt>
      <trkpt lat="45.51178" lon="6.05313">
        <ele>677.79998779297</ele>
        <time>2011-08-23T08:06:56.000Z</time>
      </trkpt>
      <trkpt lat="45.51163" lon="6.05304">
        <ele>672.20001220703</ele>
        <time>2011-08-23T08:07:00.000Z</time>
      </trkpt>
      <trkpt lat="45.51157" lon="6.05302">
        <ele>668.40002441406</ele>
        <time>2011-08-23T08:07:02.000Z</time>
      </trkpt>
      <trkpt lat="45.51137" lon="6.05304">
        <ele>655</ele>
        <time>2011-08-23T08:07:07.000Z</time>
      </trkpt>
      <trkpt lat="45.51123" lon="6.05293">
        <ele>649.59997558594</ele>
        <time>2011-08-23T08:07:11.000Z</time>
      </trkpt>
      <trkpt lat="45.5111" lon="6.05272">
        <ele>648.59997558594</ele>
        <time>2011-08-23T08:07:15.000Z</time>
      </trkpt>
      <trkpt lat="45.51106" lon="6.05266">
        <ele>648.40002441406</ele>
        <time>2011-08-23T08:07:16.000Z</time>
      </trkpt>
      <trkpt lat="45.51097" lon="6.0525">
        <ele>647.59997558594</ele>
        <time>2011-08-23T08:07:19.000Z</time>
      </trkpt>
      <trkpt lat="45.51089" lon="6.05236">
        <ele>646</ele>
        <time>2011-08-23T08:07:23.000Z</time>
      </trkpt>
      <trkpt lat="45.51072" lon="6.05228">
        <ele>635.20001220703</ele>
        <time>2011-08-23T08:07:29.000Z</time>
      </trkpt>
      <trkpt lat="45.51055" lon="6.0521">
        <ele>626.20001220703</ele>
        <time>2011-08-23T08:07:35.000Z</time>
      </trkpt>
      <trkpt lat="45.51043" lon="6.05184">
        <ele>622</ele>
        <time>2011-08-23T08:07:41.000Z</time>
      </trkpt>
      <trkpt lat="45.5103" lon="6.05158">
        <ele>616</ele>
        <time>2011-08-23T08:07:46.000Z</time>
      </trkpt>
      <trkpt lat="45.51022" lon="6.05137">
        <ele>611.20001220703</ele>
        <time>2011-08-23T08:07:50.000Z</time>
      </trkpt>
      <trkpt lat="45.51021" lon="6.05116">
        <ele>612</ele>
        <time>2011-08-23T08:07:53.000Z</time>
      </trkpt>
      <trkpt lat="45.51022" lon="6.05097">
        <ele>614.20001220703</ele>
        <time>2011-08-23T08:07:57.000Z</time>
      </trkpt>
      <trkpt lat="45.51021" lon="6.05088">
        <ele>614.40002441406</ele>
        <time>2011-08-23T08:08:00.000Z</time>
      </trkpt>
      <trkpt lat="45.51014" lon="6.05077">
        <ele>609.79998779297</ele>
        <time>2011-08-23T08:08:06.000Z</time>
      </trkpt>
      <trkpt lat="45.51012" lon="6.05064">
        <ele>610.40002441406</ele>
        <time>2011-08-23T08:08:09.000Z</time>
      </trkpt>
      <trkpt lat="45.51006" lon="6.05047">
        <ele>608.20001220703</ele>
        <time>2011-08-23T08:08:13.000Z</time>
      </trkpt>
      <trkpt lat="45.51002" lon="6.05041">
        <ele>606.40002441406</ele>
        <time>2011-08-23T08:08:16.000Z</time>
      </trkpt>
      <trkpt lat="45.50988" lon="6.05024">
        <ele>599.79998779297</ele>
        <time>2011-08-23T08:08:22.000Z</time>
      </trkpt>
      <trkpt lat="45.50978" lon="6.05013">
        <ele>594.59997558594</ele>
        <time>2011-08-23T08:08:26.000Z</time>
      </trkpt>
      <trkpt lat="45.50963" lon="6.04992">
        <ele>586.79998779297</ele>
        <time>2011-08-23T08:08:31.000Z</time>
      </trkpt>
      <trkpt lat="45.50954" lon="6.04979">
        <ele>578.79998779297</ele>
        <time>2011-08-23T08:08:34.000Z</time>
      </trkpt>
      <trkpt lat="45.5095" lon="6.04952">
        <ele>572.79998779297</ele>
        <time>2011-08-23T08:08:38.000Z</time>
      </trkpt>
      <trkpt lat="45.5095" lon="6.04946">
        <ele>572.20001220703</ele>
        <time>2011-08-23T08:08:39.000Z</time>
      </trkpt>
      <trkpt lat="45.50952" lon="6.04934">
        <ele>571.79998779297</ele>
        <time>2011-08-23T08:08:41.000Z</time>
      </trkpt>
      <trkpt lat="45.50958" lon="6.04916">
        <ele>573.40002441406</ele>
        <time>2011-08-23T08:08:46.000Z</time>
      </trkpt>
      <trkpt lat="45.5096" lon="6.04913">
        <ele>574.20001220703</ele>
        <time>2011-08-23T08:08:49.000Z</time>
      </trkpt>
      <trkpt lat="45.50954" lon="6.04912">
        <ele>570.40002441406</ele>
        <time>2011-08-23T08:08:54.000Z</time>
      </trkpt>
      <trkpt lat="45.50942" lon="6.04918">
        <ele>564</ele>
        <time>2011-08-23T08:09:00.000Z</time>
      </trkpt>
      <trkpt lat="45.50931" lon="6.04934">
        <ele>558.79998779297</ele>
        <time>2011-08-23T08:09:04.000Z</time>
      </trkpt>
      <trkpt lat="45.50918" lon="6.04963">
        <ele>553.40002441406</ele>
        <time>2011-08-23T08:09:09.000Z</time>
      </trkpt>
      <trkpt lat="45.50916" lon="6.04975">
        <ele>552.40002441406</ele>
        <time>2011-08-23T08:09:11.000Z</time>
      </trkpt>
      <trkpt lat="45.5092" lon="6.04994">
        <ele>557.59997558594</ele>
        <time>2011-08-23T08:09:15.000Z</time>
      </trkpt>
      <trkpt lat="45.50934" lon="6.05018">
        <ele>562.59997558594</ele>
        <time>2011-08-23T08:09:21.000Z</time>
      </trkpt>
      <trkpt lat="45.50937" lon="6.05041">
        <ele>558.59997558594</ele>
        <time>2011-08-23T08:09:25.000Z</time>
      </trkpt>
      <trkpt lat="45.50938" lon="6.05058">
        <ele>554.20001220703</ele>
        <time>2011-08-23T08:09:28.000Z</time>
      </trkpt>
      <trkpt lat="45.50944" lon="6.05076">
        <ele>553.20001220703</ele>
        <time>2011-08-23T08:09:33.000Z</time>
      </trkpt>
      <trkpt lat="45.50945" lon="6.05093">
        <ele>551.79998779297</ele>
        <time>2011-08-23T08:09:37.000Z</time>
      </trkpt>
      <trkpt lat="45.50946" lon="6.05097">
        <ele>552.40002441406</ele>
        <time>2011-08-23T08:09:38.000Z</time>
      </trkpt>
      <trkpt lat="45.50938" lon="6.05121">
        <ele>544.79998779297</ele>
        <time>2011-08-23T08:09:44.000Z</time>
      </trkpt>
      <trkpt lat="45.5094" lon="6.05141">
        <ele>545.59997558594</ele>
        <time>2011-08-23T08:09:48.000Z</time>
      </trkpt>
      <trkpt lat="45.50942" lon="6.0515">
        <ele>546</ele>
        <time>2011-08-23T08:09:50.000Z</time>
      </trkpt>
      <trkpt lat="45.50941" lon="6.05186">
        <ele>540.59997558594</ele>
        <time>2011-08-23T08:09:56.000Z</time>
      </trkpt>
      <trkpt lat="45.50942" lon="6.05204">
        <ele>536.79998779297</ele>
        <time>2011-08-23T08:09:59.000Z</time>
      </trkpt>
      <trkpt lat="45.50943" lon="6.05223">
        <ele>533.79998779297</ele>
        <time>2011-08-23T08:10:02.000Z</time>
      </trkpt>
      <trkpt lat="45.50942" lon="6.05234">
        <ele>530.20001220703</ele>
        <time>2011-08-23T08:10:04.000Z</time>
      </trkpt>
      <trkpt lat="45.50943" lon="6.05251">
        <ele>527.20001220703</ele>
        <time>2011-08-23T08:10:07.000Z</time>
      </trkpt>
      <trkpt lat="45.50943" lon="6.05262">
        <ele>524.59997558594</ele>
        <time>2011-08-23T08:10:09.000Z</time>
      </trkpt>
      <trkpt lat="45.50945" lon="6.05285">
        <ele>520</ele>
        <time>2011-08-23T08:10:13.000Z</time>
      </trkpt>
      <trkpt lat="45.5095" lon="6.05311">
        <ele>517.79998779297</ele>
        <time>2011-08-23T08:10:18.000Z</time>
      </trkpt>
      <trkpt lat="45.50951" lon="6.0532">
        <ele>516.59997558594</ele>
        <time>2011-08-23T08:10:20.000Z</time>
      </trkpt>
      <trkpt lat="45.50956" lon="6.05328">
        <ele>518.59997558594</ele>
        <time>2011-08-23T08:10:23.000Z</time>
      </trkpt>
      <trkpt lat="45.50957" lon="6.05342">
        <ele>515.59997558594</ele>
        <time>2011-08-23T08:10:28.000Z</time>
      </trkpt>
      <trkpt lat="45.50956" lon="6.05358">
        <ele>511.39999389648</ele>
        <time>2011-08-23T08:10:32.000Z</time>
      </trkpt>
      <trkpt lat="45.50964" lon="6.05401">
        <ele>507.20001220703</ele>
        <time>2011-08-23T08:10:40.000Z</time>
      </trkpt>
      <trkpt lat="45.50973" lon="6.05426">
        <ele>507.20001220703</ele>
        <time>2011-08-23T08:10:45.000Z</time>
      </trkpt>
      <trkpt lat="45.50979" lon="6.05436">
        <ele>508.39999389648</ele>
        <time>2011-08-23T08:10:48.000Z</time>
      </trkpt>
      <trkpt lat="45.50975" lon="6.05445">
        <ele>502.60000610352</ele>
        <time>2011-08-23T08:10:54.000Z</time>
      </trkpt>
      <trkpt lat="45.50972" lon="6.05448">
        <ele>500.20001220703</ele>
        <time>2011-08-23T08:11:13.000Z</time>
      </trkpt>
      <trkpt lat="45.50972" lon="6.0545">
        <ele>499.79998779297</ele>
        <time>2011-08-23T08:11:19.000Z</time>
      </trkpt>
      <trkpt lat="45.50972" lon="6.05453">
        <ele>498.79998779297</ele>
        <time>2011-08-23T08:11:25.000Z</time>
      </trkpt>
      <trkpt lat="45.50973" lon="6.05454">
        <ele>499</ele>
        <time>2011-08-23T08:11:30.000Z</time>
      </trkpt>
      <trkpt lat="45.50972" lon="6.05454">
        <ele>498.79998779297</ele>
        <time>2011-08-23T08:11:39.000Z</time>
      </trkpt>
      <trkpt lat="45.50972" lon="6.05455">
        <ele>498.20001220703</ele>
        <time>2011-08-23T08:11:47.000Z</time>
      </trkpt>
      <trkpt lat="45.50973" lon="6.0547">
        <ele>494.39999389648</ele>
        <time>2011-08-23T08:11:52.000Z</time>
      </trkpt>
      <trkpt lat="45.5098" lon="6.05498">
        <ele>491.20001220703</ele>
        <time>2011-08-23T08:11:58.000Z</time>
      </trkpt>
      <trkpt lat="45.5099" lon="6.05536">
        <ele>484.20001220703</ele>
        <time>2011-08-23T08:12:05.000Z</time>
      </trkpt>
      <trkpt lat="45.51" lon="6.05559">
        <ele>482</ele>
        <time>2011-08-23T08:12:10.000Z</time>
      </trkpt>
      <trkpt lat="45.51005" lon="6.05568">
        <ele>480.60000610352</ele>
        <time>2011-08-23T08:12:13.000Z</time>
      </trkpt>
      <trkpt lat="45.51" lon="6.05569">
        <ele>478.39999389648</ele>
        <time>2011-08-23T08:12:18.000Z</time>
      </trkpt>
      <trkpt lat="45.50999" lon="6.05567">
        <ele>478.20001220703</ele>
        <time>2011-08-23T08:12:19.000Z</time>
      </trkpt>
      <trkpt lat="45.50987" lon="6.05555">
        <ele>476</ele>
        <time>2011-08-23T08:12:25.000Z</time>
      </trkpt>
      <trkpt lat="45.50974" lon="6.05543">
        <ele>473</ele>
        <time>2011-08-23T08:12:31.000Z</time>
      </trkpt>
      <trkpt lat="45.5096" lon="6.05523">
        <ele>471.20001220703</ele>
        <time>2011-08-23T08:12:36.000Z</time>
      </trkpt>
      <trkpt lat="45.50942" lon="6.05505">
        <ele>466.20001220703</ele>
        <time>2011-08-23T08:12:41.000Z</time>
      </trkpt>
      <trkpt lat="45.5093" lon="6.05485">
        <ele>463.20001220703</ele>
        <time>2011-08-23T08:12:45.000Z</time>
      </trkpt>
      <trkpt lat="45.50921" lon="6.0546">
        <ele>463</ele>
        <time>2011-08-23T08:12:50.000Z</time>
      </trkpt>
      <trkpt lat="45.50917" lon="6.0546">
        <ele>460.39999389648</ele>
        <time>2011-08-23T08:12:55.000Z</time>
      </trkpt>
      <trkpt lat="45.50917" lon="6.05468">
        <ele>458.39999389648</ele>
        <time>2011-08-23T08:12:57.000Z</time>
      </trkpt>
      <trkpt lat="45.50917" lon="6.05507">
        <ele>450.39999389648</ele>
        <time>2011-08-23T08:13:04.000Z</time>
      </trkpt>
      <trkpt lat="45.50924" lon="6.05526">
        <ele>449.20001220703</ele>
        <time>2011-08-23T08:13:08.000Z</time>
      </trkpt>
      <trkpt lat="45.5093" lon="6.05551">
        <ele>446</ele>
        <time>2011-08-23T08:13:12.000Z</time>
      </trkpt>
      <trkpt lat="45.50934" lon="6.05577">
        <ele>440.60000610352</ele>
        <time>2011-08-23T08:13:16.000Z</time>
      </trkpt>
      <trkpt lat="45.50934" lon="6.05601">
        <ele>436.20001220703</ele>
        <time>2011-08-23T08:13:21.000Z</time>
      </trkpt>
      <trkpt lat="45.50932" lon="6.05602">
        <ele>435</ele>
        <time>2011-08-23T08:13:24.000Z</time>
      </trkpt>
      <trkpt lat="45.50926" lon="6.05591">
        <ele>433.79998779297</ele>
        <time>2011-08-23T08:13:28.000Z</time>
      </trkpt>
      <trkpt lat="45.50924" lon="6.05587">
        <ele>433.20001220703</ele>
        <time>2011-08-23T08:13:29.000Z</time>
      </trkpt>
      <trkpt lat="45.50911" lon="6.05567">
        <ele>431.39999389648</ele>
        <time>2011-08-23T08:13:35.000Z</time>
      </trkpt>
      <trkpt lat="45.50908" lon="6.05564">
        <ele>430.79998779297</ele>
        <time>2011-08-23T08:13:37.000Z</time>
      </trkpt>
      <trkpt lat="45.50907" lon="6.05569">
        <ele>428.60000610352</ele>
        <time>2011-08-23T08:13:41.000Z</time>
      </trkpt>
      <trkpt lat="45.50907" lon="6.05572">
        <ele>427.79998779297</ele>
        <time>2011-08-23T08:13:46.000Z</time>
      </trkpt>
      <trkpt lat="45.50908" lon="6.05575">
        <ele>427.79998779297</ele>
        <time>2011-08-23T08:14:10.000Z</time>
      </trkpt>
      <trkpt lat="45.50909" lon="6.05576">
        <ele>427.79998779297</ele>
        <time>2011-08-23T08:14:20.000Z</time>
      </trkpt>
      <trkpt lat="45.50909" lon="6.05576">
        <ele>427.79998779297</ele>
        <time>2011-08-23T08:14:27.000Z</time>
      </trkpt>
      <trkpt lat="45.50909" lon="6.05584">
        <ele>426.20001220703</ele>
        <time>2011-08-23T08:14:41.000Z</time>
      </trkpt>
      <trkpt lat="45.50908" lon="6.05586">
        <ele>425.39999389648</ele>
        <time>2011-08-23T08:14:49.000Z</time>
      </trkpt>
      <trkpt lat="45.50908" lon="6.05586">
        <ele>425.20001220703</ele>
        <time>2011-08-23T08:15:44.000Z</time>
      </trkpt>
      <trkpt lat="45.50903" lon="6.05579">
        <ele>424.39999389648</ele>
        <time>2011-08-23T08:15:48.000Z</time>
      </trkpt>
      <trkpt lat="45.50883" lon="6.05546">
        <ele>421.20001220703</ele>
        <time>2011-08-23T08:15:55.000Z</time>
      </trkpt>
      <trkpt lat="45.50869" lon="6.05522">
        <ele>418.60000610352</ele>
        <time>2011-08-23T08:15:59.000Z</time>
      </trkpt>
      <trkpt lat="45.50849" lon="6.05495">
        <ele>411.20001220703</ele>
        <time>2011-08-23T08:16:04.000Z</time>
      </trkpt>
      <trkpt lat="45.50831" lon="6.05464">
        <ele>402.79998779297</ele>
        <time>2011-08-23T08:16:09.000Z</time>
      </trkpt>
      <trkpt lat="45.50818" lon="6.05432">
        <ele>398.79998779297</ele>
        <time>2011-08-23T08:16:13.000Z</time>
      </trkpt>
      <trkpt lat="45.50809" lon="6.05405">
        <ele>396.39999389648</ele>
        <time>2011-08-23T08:16:17.000Z</time>
      </trkpt>
      <trkpt lat="45.50805" lon="6.05385">
        <ele>396.79998779297</ele>
        <time>2011-08-23T08:16:20.000Z</time>
      </trkpt>
      <trkpt lat="45.50798" lon="6.05375">
        <ele>394</ele>
        <time>2011-08-23T08:16:24.000Z</time>
      </trkpt>
      <trkpt lat="45.50795" lon="6.05385">
        <ele>391.60000610352</ele>
        <time>2011-08-23T08:16:27.000Z</time>
      </trkpt>
      <trkpt lat="45.50795" lon="6.0542">
        <ele>387.60000610352</ele>
        <time>2011-08-23T08:16:33.000Z</time>
      </trkpt>
      <trkpt lat="45.50793" lon="6.05435">
        <ele>385.79998779297</ele>
        <time>2011-08-23T08:16:35.000Z</time>
      </trkpt>
      <trkpt lat="45.5079" lon="6.05449">
        <ele>383.20001220703</ele>
        <time>2011-08-23T08:16:37.000Z</time>
      </trkpt>
      <trkpt lat="45.50787" lon="6.05486">
        <ele>379.39999389648</ele>
        <time>2011-08-23T08:16:42.000Z</time>
      </trkpt>
      <trkpt lat="45.5079" lon="6.05502">
        <ele>379.20001220703</ele>
        <time>2011-08-23T08:16:45.000Z</time>
      </trkpt>
      <trkpt lat="45.50789" lon="6.05509">
        <ele>377.79998779297</ele>
        <time>2011-08-23T08:16:50.000Z</time>
      </trkpt>
      <trkpt lat="45.50786" lon="6.05507">
        <ele>376.79998779297</ele>
        <time>2011-08-23T08:16:54.000Z</time>
      </trkpt>
      <trkpt lat="45.50781" lon="6.05488">
        <ele>375.79998779297</ele>
        <time>2011-08-23T08:16:59.000Z</time>
      </trkpt>
      <trkpt lat="45.50775" lon="6.05447">
        <ele>375.79998779297</ele>
        <time>2011-08-23T08:17:05.000Z</time>
      </trkpt>
      <trkpt lat="45.50769" lon="6.05408">
        <ele>375.79998779297</ele>
        <time>2011-08-23T08:17:10.000Z</time>
      </trkpt>
      <trkpt lat="45.50762" lon="6.05386">
        <ele>374</ele>
        <time>2011-08-23T08:17:14.000Z</time>
      </trkpt>
      <trkpt lat="45.50758" lon="6.0538">
        <ele>372.60000610352</ele>
        <time>2011-08-23T08:17:17.000Z</time>
      </trkpt>
      <trkpt lat="45.50755" lon="6.05383">
        <ele>371</ele>
        <time>2011-08-23T08:17:21.000Z</time>
      </trkpt>
      <trkpt lat="45.50754" lon="6.05388">
        <ele>369.39999389648</ele>
        <time>2011-08-23T08:17:30.000Z</time>
      </trkpt>
      <trkpt lat="45.50753" lon="6.05389">
        <ele>369.20001220703</ele>
        <time>2011-08-23T08:17:32.000Z</time>
      </trkpt>
      <trkpt lat="45.50749" lon="6.05394">
        <ele>366.60000610352</ele>
        <time>2011-08-23T08:17:35.000Z</time>
      </trkpt>
      <trkpt lat="45.50747" lon="6.05396">
        <ele>365.60000610352</ele>
        <time>2011-08-23T08:17:37.000Z</time>
      </trkpt>
      <trkpt lat="45.50746" lon="6.05396">
        <ele>364.79998779297</ele>
        <time>2011-08-23T08:17:42.000Z</time>
      </trkpt>
      <trkpt lat="45.50739" lon="6.05387">
        <ele>362.79998779297</ele>
        <time>2011-08-23T08:17:48.000Z</time>
      </trkpt>
      <trkpt lat="45.5073" lon="6.05376">
        <ele>359</ele>
        <time>2011-08-23T08:17:54.000Z</time>
      </trkpt>
      <trkpt lat="45.50721" lon="6.05366">
        <ele>355</ele>
        <time>2011-08-23T08:17:59.000Z</time>
      </trkpt>
      <trkpt lat="45.50711" lon="6.05346">
        <ele>350.79998779297</ele>
        <time>2011-08-23T08:18:03.000Z</time>
      </trkpt>
      <trkpt lat="45.50704" lon="6.05324">
        <ele>349</ele>
        <time>2011-08-23T08:18:07.000Z</time>
      </trkpt>
      <trkpt lat="45.50701" lon="6.05317">
        <ele>348.60000610352</ele>
        <time>2011-08-23T08:18:09.000Z</time>
      </trkpt>
      <trkpt lat="45.50696" lon="6.05323">
        <ele>344.79998779297</ele>
        <time>2011-08-23T08:18:13.000Z</time>
      </trkpt>
      <trkpt lat="45.50692" lon="6.05332">
        <ele>341.39999389648</ele>
        <time>2011-08-23T08:18:16.000Z</time>
      </trkpt>
      <trkpt lat="45.50689" lon="6.05326">
        <ele>340.20001220703</ele>
        <time>2011-08-23T08:18:19.000Z</time>
      </trkpt>
      <trkpt lat="45.50686" lon="6.05321">
        <ele>339.39999389648</ele>
        <time>2011-08-23T08:18:23.000Z</time>
      </trkpt>
      <trkpt lat="45.50686" lon="6.05321">
        <ele>339.39999389648</ele>
        <time>2011-08-23T08:18:31.000Z</time>
      </trkpt>
      <trkpt lat="45.50684" lon="6.05303">
        <ele>340.79998779297</ele>
        <time>2011-08-23T08:18:37.000Z</time>
      </trkpt>
      <trkpt lat="45.50673" lon="6.05278">
        <ele>338.20001220703</ele>
        <time>2011-08-23T08:18:42.000Z</time>
      </trkpt>
      <trkpt lat="45.5066" lon="6.05241">
        <ele>335.60000610352</ele>
        <time>2011-08-23T08:18:47.000Z</time>
      </trkpt>
      <trkpt lat="45.5065" lon="6.05201">
        <ele>335.60000610352</ele>
        <time>2011-08-23T08:18:51.000Z</time>
      </trkpt>
      <trkpt lat="45.50623" lon="6.05142">
        <ele>328.20001220703</ele>
        <time>2011-08-23T08:18:57.000Z</time>
      </trkpt>
      <trkpt lat="45.50619" lon="6.05133">
        <ele>326.60000610352</ele>
        <time>2011-08-23T08:18:58.000Z</time>
      </trkpt>
      <trkpt lat="45.50608" lon="6.05084">
        <ele>326</ele>
        <time>2011-08-23T08:19:03.000Z</time>
      </trkpt>
      <trkpt lat="45.50607" lon="6.05054">
        <ele>329.79998779297</ele>
        <time>2011-08-23T08:19:06.000Z</time>
      </trkpt>
      <trkpt lat="45.506" lon="6.05035">
        <ele>329.39999389648</ele>
        <time>2011-08-23T08:19:09.000Z</time>
      </trkpt>
      <trkpt lat="45.5059" lon="6.05043">
        <ele>323.60000610352</ele>
        <time>2011-08-23T08:19:11.000Z</time>
      </trkpt>
      <trkpt lat="45.50588" lon="6.05058">
        <ele>320.20001220703</ele>
        <time>2011-08-23T08:19:13.000Z</time>
      </trkpt>
      <trkpt lat="45.50588" lon="6.05104">
        <ele>314.20001220703</ele>
        <time>2011-08-23T08:19:18.000Z</time>
      </trkpt>
      <trkpt lat="45.5058" lon="6.0512">
        <ele>309.79998779297</ele>
        <time>2011-08-23T08:19:21.000Z</time>
      </trkpt>
      <trkpt lat="45.50575" lon="6.05121">
        <ele>308.79998779297</ele>
        <time>2011-08-23T08:19:22.000Z</time>
      </trkpt>
      <trkpt lat="45.50539" lon="6.05122">
        <ele>302</ele>
        <time>2011-08-23T08:19:27.000Z</time>
      </trkpt>
      <trkpt lat="45.50488" lon="6.05129">
        <ele>293.20001220703</ele>
        <time>2011-08-23T08:19:33.000Z</time>
      </trkpt>
      <trkpt lat="45.50447" lon="6.05153">
        <ele>289.20001220703</ele>
        <time>2011-08-23T08:19:39.000Z</time>
      </trkpt>
      <trkpt lat="45.50427" lon="6.05152">
        <ele>288.60000610352</ele>
        <time>2011-08-23T08:19:43.000Z</time>
      </trkpt>
      <trkpt lat="45.50419" lon="6.05147">
        <ele>288.39999389648</ele>
        <time>2011-08-23T08:19:45.000Z</time>
      </trkpt>
      <trkpt lat="45.50397" lon="6.05149">
        <ele>289</ele>
        <time>2011-08-23T08:19:50.000Z</time>
      </trkpt>
      <trkpt lat="45.50393" lon="6.05153">
        <ele>289.20001220703</ele>
        <time>2011-08-23T08:19:51.000Z</time>
      </trkpt>
      <trkpt lat="45.5038" lon="6.05165">
        <ele>290</ele>
        <time>2011-08-23T08:19:54.000Z</time>
      </trkpt>
      <trkpt lat="45.5036" lon="6.0517">
        <ele>291.39999389648</ele>
        <time>2011-08-23T08:19:58.000Z</time>
      </trkpt>
      <trkpt lat="45.50334" lon="6.05169">
        <ele>293</ele>
        <time>2011-08-23T08:20:03.000Z</time>
      </trkpt>
      <trkpt lat="45.50293" lon="6.05179">
        <ele>294.79998779297</ele>
        <time>2011-08-23T08:20:12.000Z</time>
      </trkpt>
      <trkpt lat="45.50275" lon="6.05186">
        <ele>295.60000610352</ele>
        <time>2011-08-23T08:20:16.000Z</time>
      </trkpt>
      <trkpt lat="45.50265" lon="6.0518">
        <ele>295.60000610352</ele>
        <time>2011-08-23T08:20:20.000Z</time>
      </trkpt>
      <trkpt lat="45.50264" lon="6.05175">
        <ele>295.60000610352</ele>
        <time>2011-08-23T08:20:21.000Z</time>
      </trkpt>
      <trkpt lat="45.50256" lon="6.05126">
        <ele>295</ele>
        <time>2011-08-23T08:20:28.000Z</time>
      </trkpt>
      <trkpt lat="45.50248" lon="6.05062">
        <ele>294.39999389648</ele>
        <time>2011-08-23T08:20:36.000Z</time>
      </trkpt>
      <trkpt lat="45.50241" lon="6.05026">
        <ele>293.60000610352</ele>
        <time>2011-08-23T08:20:41.000Z</time>
      </trkpt>
      <trkpt lat="45.50245" lon="6.05013">
        <ele>293.20001220703</ele>
        <time>2011-08-23T08:20:45.000Z</time>
      </trkpt>
      <trkpt lat="45.50249" lon="6.05012">
        <ele>293.20001220703</ele>
        <time>2011-08-23T08:20:46.000Z</time>
      </trkpt>
      <trkpt lat="45.50272" lon="6.05004">
        <ele>291.60000610352</ele>
        <time>2011-08-23T08:20:53.000Z</time>
      </trkpt>
      <trkpt lat="45.50274" lon="6.05003">
        <ele>291.39999389648</ele>
        <time>2011-08-23T08:20:54.000Z</time>
      </trkpt>
      <trkpt lat="45.50274" lon="6.04999">
        <ele>291.39999389648</ele>
        <time>2011-08-23T08:20:58.000Z</time>
      </trkpt>
      <trkpt lat="45.50265" lon="6.05006">
        <ele>292.20001220703</ele>
        <time>2011-08-23T08:21:02.000Z</time>
      </trkpt>
      <trkpt lat="45.50254" lon="6.05009">
        <ele>292.79998779297</ele>
        <time>2011-08-23T08:21:05.000Z</time>
      </trkpt>
      <trkpt lat="45.5024" lon="6.05004">
        <ele>293.20001220703</ele>
        <time>2011-08-23T08:21:11.000Z</time>
      </trkpt>
      <trkpt lat="45.50237" lon="6.05001">
        <ele>293</ele>
        <time>2011-08-23T08:21:12.000Z</time>
      </trkpt>
      <trkpt lat="45.5021" lon="6.05">
        <ele>293.39999389648</ele>
        <time>2011-08-23T08:21:20.000Z</time>
      </trkpt>
      <trkpt lat="45.50178" lon="6.05009">
        <ele>293.79998779297</ele>
        <time>2011-08-23T08:21:28.000Z</time>
      </trkpt>
      <trkpt lat="45.50165" lon="6.05009">
        <ele>294</ele>
        <time>2011-08-23T08:21:32.000Z</time>
      </trkpt>
      <trkpt lat="45.5016" lon="6.0499">
        <ele>294</ele>
        <time>2011-08-23T08:21:36.000Z</time>
      </trkpt>
      <trkpt lat="45.50157" lon="6.0493">
        <ele>294</ele>
        <time>2011-08-23T08:21:44.000Z</time>
      </trkpt>
      <trkpt lat="45.50159" lon="6.04864">
        <ele>294.39999389648</ele>
        <time>2011-08-23T08:21:52.000Z</time>
      </trkpt>
      <trkpt lat="45.50164" lon="6.04803">
        <ele>293.79998779297</ele>
        <time>2011-08-23T08:21:59.000Z</time>
      </trkpt>
      <trkpt lat="45.50169" lon="6.04726">
        <ele>291.20001220703</ele>
        <time>2011-08-23T08:22:07.000Z</time>
      </trkpt>
      <trkpt lat="45.50173" lon="6.04658">
        <ele>289.60000610352</ele>
        <time>2011-08-23T08:22:14.000Z</time>
      </trkpt>
      <trkpt lat="45.50179" lon="6.04594">
        <ele>289.20001220703</ele>
        <time>2011-08-23T08:22:21.000Z</time>
      </trkpt>
      <trkpt lat="45.50206" lon="6.04531">
        <ele>286.39999389648</ele>
        <time>2011-08-23T08:22:29.000Z</time>
      </trkpt>
      <trkpt lat="45.50222" lon="6.04497">
        <ele>285.60000610352</ele>
        <time>2011-08-23T08:22:34.000Z</time>
      </trkpt>
      <trkpt lat="45.50239" lon="6.04486">
        <ele>285.60000610352</ele>
        <time>2011-08-23T08:22:39.000Z</time>
      </trkpt>
      <trkpt lat="45.50247" lon="6.04485">
        <ele>285.60000610352</ele>
        <time>2011-08-23T08:22:42.000Z</time>
      </trkpt>
    </trkseg>
  </trk>
</gpx>